Provisional Data: Lititz Run near Lititz, PA


Please select a monitoring station.
Please select start date.
Please select start date.

Toggle Unit: C/F Toggle Unit: C/F
Sample Time Temperature (C) Temperature (F) Specific Conductivity (mS/cm) pH   Turbidity (NTU+) DO (mg/L)
11/1/2022 12:00:00 AM 14.85 58.73 1.106 7.78 5.36 8.08
11/1/2022 12:15:00 AM 14.84 58.712 1.105 7.77 5.34 8.07
11/1/2022 12:30:00 AM 14.84 58.712 1.105 7.77 5.51 8.06
11/1/2022 12:45:00 AM 14.83 58.694 1.102 7.77 6.34 8.04
11/1/2022 1:00:00 AM 14.82 58.676 1.102 7.76 5.55 8.02
11/1/2022 1:15:00 AM 14.81 58.658 1.1 7.76 6.07 7.98
11/1/2022 1:30:00 AM 14.81 58.658 1.102 7.76 5.75 7.99
11/1/2022 1:45:00 AM 14.81 58.658 1.105 7.75 5.95 7.96
11/1/2022 2:00:00 AM 14.81 58.658 1.107 7.75 5.98 7.96
11/1/2022 2:15:00 AM 14.81 58.658 1.106 7.75 5.65 7.96
11/1/2022 2:30:00 AM 14.8 58.64 1.104 7.74 5.69 7.94
11/1/2022 2:45:00 AM 14.8 58.64 1.101 7.74 6.1 7.92
11/1/2022 3:00:00 AM 14.79 58.622 1.096 7.74 5.6 7.93
11/1/2022 3:15:00 AM 14.77 58.586 1.091 7.74 6.2 7.92
11/1/2022 3:30:00 AM 14.76 58.568 1.087 7.73 6.17 7.94
11/1/2022 3:45:00 AM 14.76 58.568 1.085 7.73 6.77 7.94
11/1/2022 4:00:00 AM 14.75 58.55 1.085 7.73 7.78 7.94
11/1/2022 4:15:00 AM 14.75 58.55 1.087 7.72 8.46 7.94
11/1/2022 4:30:00 AM 14.75 58.55 1.09 7.72 9.17 7.94
11/1/2022 4:45:00 AM 14.76 58.568 1.092 7.72 8.57 7.96
11/1/2022 5:00:00 AM 14.76 58.568 1.093 7.72 8.31 7.98
11/1/2022 5:15:00 AM 14.77 58.586 1.092 7.72 7.81 7.97
11/1/2022 5:30:00 AM 14.77 58.586 1.089 7.72 7.65 7.96
11/1/2022 5:45:00 AM 14.76 58.568 1.084 7.72 7.53 7.96
11/1/2022 6:00:00 AM 14.75 58.55 1.076 7.72 7.71 7.96
11/1/2022 6:15:00 AM 14.73 58.514 1.066 7.72 7.63 7.97
11/1/2022 6:30:00 AM 14.71 58.478 1.054 7.72 8.07 7.99
11/1/2022 6:45:00 AM 14.68 58.424 1.04 7.71 7.56 7.98
11/1/2022 7:00:00 AM 14.66 58.388 1.024 7.71 7.1 8.01
11/1/2022 7:15:00 AM 14.62 58.316 1.006 7.71 7.48 8.03
11/1/2022 7:30:00 AM 14.58 58.244 0.987 7.71 7.26 8.04
11/1/2022 7:45:00 AM 14.53 58.154 0.965 7.72 6.47 8.08
11/1/2022 8:00:00 AM 14.48 58.064 0.944 7.72 6.04 8.13
11/1/2022 8:15:00 AM 14.43 57.974 0.923 7.72 6.16 8.18
11/1/2022 8:30:00 AM 14.39 57.902 0.905 7.72 6.01 8.23
11/1/2022 8:45:00 AM 14.37 57.866 0.889 7.72 6.34 8.29
11/1/2022 9:00:00 AM 14.35 57.83 0.877 7.72 6.14 8.31
11/1/2022 9:15:00 AM 14.34 57.812 0.867 7.72 5.63 8.31
11/1/2022 9:30:00 AM 14.35 57.83 0.86 7.71 6.46 8.36
11/1/2022 9:45:00 AM 14.36 57.848 0.855 7.71 6.05 8.38
11/1/2022 10:00:00 AM 14.4 57.92 0.851 7.71 6.12 8.39
11/1/2022 10:15:00 AM 14.45 58.01 0.849 7.7 5.9 8.4
11/1/2022 10:30:00 AM 14.52 58.136 0.848 7.7 6.34 8.44
11/1/2022 10:45:00 AM 14.64 58.352 0.847 7.71 6.08 8.51
11/1/2022 11:00:00 AM 14.71 58.478 0.846 7.71 5.99 8.59
11/1/2022 11:15:00 AM 14.74 58.532 0.845 7.7 5.89 8.53
11/1/2022 11:30:00 AM 14.86 58.748 0.844 7.7 5.79 8.63
11/1/2022 11:45:00 AM 14.91 58.838 0.842 7.7 5.83 8.64
11/1/2022 12:00:00 PM 15.03 59.054 0.842 7.71 5.99 8.79
11/1/2022 12:15:00 PM 15.17 59.306 0.843 7.73 5.48 8.95
11/1/2022 12:30:00 PM 15.27 59.486 0.847 7.73 5.81 9
11/1/2022 12:45:00 PM 15.4 59.72 0.856 7.74 5.41 9.08
11/1/2022 1:00:00 PM 15.53 59.954 0.868 7.76 5.18 9.2
11/1/2022 1:15:00 PM 15.6 60.08 0.886 7.76 5.14 9.25
11/1/2022 1:30:00 PM 15.66 60.188 0.908 7.77 4.87 9.24
11/1/2022 1:45:00 PM 15.72 60.296 0.933 7.78 5.07 9.21
11/1/2022 2:00:00 PM 15.78 60.404 0.959 7.78 4.77 9.11
11/1/2022 2:15:00 PM 15.88 60.584 0.983 7.79 4.77 9.17
11/1/2022 2:30:00 PM 15.99 60.782 1.004 7.81 4.6 9.36
11/1/2022 2:45:00 PM 16.04 60.872 1.022 7.82 4.47 9.39
11/1/2022 3:00:00 PM 16.07 60.926 1.037 7.82 4.55 9.34
11/1/2022 3:15:00 PM 16.09 60.962 1.048 7.82 4.71 9.26
11/1/2022 3:30:00 PM 16.11 60.998 1.058 7.82 4.38 9.14
11/1/2022 3:45:00 PM 16.18 61.124 1.066 7.83 4.14 9.22
11/1/2022 4:00:00 PM 16.27 61.286 1.072 7.84 4.13 9.38
11/1/2022 4:15:00 PM 16.32 61.376 1.079 7.85 4.13 9.41
11/1/2022 4:30:00 PM 16.33 61.394 1.086 7.85 6.98 9.29
11/1/2022 4:45:00 PM 16.35 61.43 1.093 7.85 4.14 9.22
11/1/2022 5:00:00 PM 16.37 61.466 1.1 7.85 3.96 9.19
11/1/2022 5:15:00 PM 16.39 61.502 1.106 7.85 4.17 9.15
11/1/2022 5:30:00 PM 16.42 61.556 1.112 7.85 3.91 9.07
11/1/2022 5:45:00 PM 16.43 61.574 1.116 7.85 3.9 9
11/1/2022 6:00:00 PM 16.43 61.574 1.12 7.85 4.53 8.91
11/1/2022 6:15:00 PM 16.41 61.538 1.123 7.85 8.91 8.81
11/1/2022 6:30:00 PM 16.39 61.502 1.125 7.84 4.92 8.73
11/1/2022 6:45:00 PM 16.36 61.448 1.126 7.84 5.09 8.69
11/1/2022 7:00:00 PM 16.32 61.376 1.124 7.84 4.92 8.61
11/1/2022 7:15:00 PM 16.27 61.286 1.119 7.84 4.87 8.56
11/1/2022 7:30:00 PM 16.21 61.178 1.111 7.83 4.98 8.51
11/1/2022 7:45:00 PM 16.15 61.07 1.1 7.83 4.91 8.48
11/1/2022 8:00:00 PM 16.08 60.944 1.088 7.83 4.84 8.46
11/1/2022 8:15:00 PM 16 60.8 1.077 7.82 4.97 8.41
11/1/2022 8:30:00 PM 15.92 60.656 1.069 7.82 4.73 8.38
11/1/2022 8:45:00 PM 15.84 60.512 1.064 7.82 5.07 8.35
11/1/2022 9:00:00 PM 15.78 60.404 1.063 7.81 4.84 8.32
11/1/2022 9:15:00 PM 15.71 60.278 1.064 7.81 5.11 8.28
11/1/2022 9:30:00 PM 15.65 60.17 1.068 7.8 5.13 8.26
11/1/2022 9:45:00 PM 15.59 60.062 1.071 7.8 5.1 8.22
11/1/2022 10:00:00 PM 15.53 59.954 1.074 7.8 5.13 8.2
11/1/2022 10:15:00 PM 15.47 59.846 1.075 7.79 5.03 8.15
11/1/2022 10:30:00 PM 15.42 59.756 1.075 7.79 5.16 8.15
11/1/2022 10:45:00 PM 15.36 59.648 1.073 7.78 5.25 8.1
11/1/2022 11:00:00 PM 15.29 59.522 1.071 7.78 5.3 8.1
11/1/2022 11:15:00 PM 15.22 59.396 1.07 7.78 5.02 8.07
11/1/2022 11:30:00 PM 15.15 59.27 1.069 7.77 5.18 8.05
11/1/2022 11:45:00 PM 15.09 59.162 1.07 7.77 5.92 8.03
11/2/2022 12:00:00 AM 15.02 59.036 1.072 7.76 5.42 8.03
11/2/2022 12:15:00 AM 14.96 58.928 1.075 7.76 5.7 7.99
11/2/2022 12:30:00 AM 14.9 58.82 1.078 7.76 5.63 7.98
11/2/2022 12:45:00 AM 14.84 58.712 1.082 7.75 6.06 7.98
11/2/2022 1:00:00 AM 14.77 58.586 1.087 7.75 5.57 8
11/2/2022 1:15:00 AM 14.71 58.478 1.093 7.75 6.14 7.98
11/2/2022 1:30:00 AM 14.65 58.37 1.099 7.75 5.39 7.93
11/2/2022 1:45:00 AM 14.59 58.262 1.106 7.75 5.41 7.98
11/2/2022 2:00:00 AM 14.54 58.172 1.113 7.74 5.73 7.98
11/2/2022 2:15:00 AM 14.49 58.082 1.119 7.74 6.08 7.98
11/2/2022 2:30:00 AM 14.43 57.974 1.125 7.74 5.66 7.98
11/2/2022 2:45:00 AM 14.38 57.884 1.131 7.74 5.15 8
11/2/2022 3:00:00 AM 14.33 57.794 1.137 7.74 5.75 7.99
11/2/2022 3:15:00 AM 14.28 57.704 1.142 7.74 6.13 8.02
11/2/2022 3:30:00 AM 14.23 57.614 1.147 7.74 5.84 8.01
11/2/2022 3:45:00 AM 14.18 57.524 1.15 7.74 5.97 8.01
11/2/2022 4:00:00 AM 14.13 57.434 1.152 7.74 5.74 8.03
11/2/2022 4:15:00 AM 14.08 57.344 1.154 7.74 6.03 8.04
11/2/2022 4:30:00 AM 14.03 57.254 1.155 7.74 5.69 8.06
11/2/2022 4:45:00 AM 13.98 57.164 1.155 7.74 5.35 8.06
11/2/2022 5:00:00 AM 13.94 57.092 1.153 7.74 6 8.06
11/2/2022 5:15:00 AM 13.88 56.984 1.152 7.74 5.7 8.08
11/2/2022 5:30:00 AM 13.82 56.876 1.149 7.74 6.24 8.09
11/2/2022 5:45:00 AM 13.77 56.786 1.145 7.74 5.71 8.13
11/2/2022 6:00:00 AM 13.71 56.678 1.141 7.74 5.92 8.15
11/2/2022 6:15:00 AM 13.65 56.57 1.136 7.74 5.7 8.15
11/2/2022 6:30:00 AM 13.59 56.462 1.131 7.74 5.53 8.18
11/2/2022 6:45:00 AM 13.54 56.372 1.125 7.74 5.68 8.17
11/2/2022 7:00:00 AM 13.47 56.246 1.118 7.74 5.58 8.23
11/2/2022 7:15:00 AM 13.4 56.12 1.111 7.74 5.49 8.21
11/2/2022 7:30:00 AM 13.34 56.012 1.104 7.74 5.25 8.22
11/2/2022 7:45:00 AM 13.28 55.904 1.095 7.74 5.36 8.28
11/2/2022 8:00:00 AM 13.23 55.814 1.087 7.75 5.33 8.34
11/2/2022 8:15:00 AM 13.17 55.706 1.079 7.75 5.02 8.36
11/2/2022 8:30:00 AM 13.12 55.616 1.072 7.76 4.76 8.47
11/2/2022 8:45:00 AM 13.08 55.544 1.064 7.76 5.09 8.57
11/2/2022 9:00:00 AM 13.05 55.49 1.056 7.77 4.65 8.64
11/2/2022 9:15:00 AM 13.03 55.454 1.048 7.77 5.12 8.68
11/2/2022 9:30:00 AM 13.03 55.454 1.04 7.78 5.11 8.81
11/2/2022 9:45:00 AM 13.04 55.472 1.031 7.79 4.78 8.91
11/2/2022 10:00:00 AM 13.06 55.508 1.022 7.8 4.73 9.01
11/2/2022 10:15:00 AM 13.1 55.58 1.013 7.81 4.79 9.17
11/2/2022 10:30:00 AM 13.15 55.67 1.004 7.82 4.57 9.29
11/2/2022 10:45:00 AM 13.21 55.778 0.997 7.83 4.58 9.37
11/2/2022 11:00:00 AM 13.28 55.904 0.991 7.84 4.72 9.52
11/2/2022 11:15:00 AM 13.36 56.048 0.988 7.85 4.77 9.58
11/2/2022 11:30:00 AM 13.45 56.21 0.987 7.85 4.56 9.65
11/2/2022 11:45:00 AM 13.56 56.408 0.987 7.86 4.76 9.75
11/2/2022 12:00:00 PM 13.68 56.624 0.989 7.87 4.47 9.81
11/2/2022 12:15:00 PM 13.8 56.84 0.991 7.88 4.62 9.88
11/2/2022 12:30:00 PM 13.93 57.074 0.993 7.89 5.52 9.96
11/2/2022 12:45:00 PM 14.07 57.326 0.996 7.89 10.79 9.99
11/2/2022 1:00:00 PM 14.21 57.578 0.998 7.89 4.51 10.01
11/2/2022 1:15:00 PM 14.34 57.812 1.001 7.9 4.4 10.02
11/2/2022 1:30:00 PM 14.48 58.064 1.007 7.91 4.52 10.1
11/2/2022 1:45:00 PM 14.63 58.334 1.015 7.91 4.55 10.07
11/2/2022 2:00:00 PM 14.76 58.568 1.027 7.91 4.42 10.13
11/2/2022 2:15:00 PM 14.89 58.802 1.043 7.92 4.46 10.12
11/2/2022 2:30:00 PM 15.02 59.036 1.061 7.92 4.51 10.12
11/2/2022 2:45:00 PM 15.15 59.27 1.078 7.93 4.33 10.14
11/2/2022 3:00:00 PM 15.26 59.468 1.095 7.93 4.22 10.11
11/2/2022 3:15:00 PM 15.34 59.612 1.109 7.93 4.24 10.08
11/2/2022 3:30:00 PM 15.41 59.738 1.12 7.92 4.07 9.96
11/2/2022 3:45:00 PM 15.46 59.828 1.128 7.92 3.95 9.87
11/2/2022 4:00:00 PM 15.54 59.972 1.134 7.92 4.3 9.84
11/2/2022 4:15:00 PM 15.61 60.098 1.138 7.93 4.08 9.87
11/2/2022 4:30:00 PM 15.66 60.188 1.14 7.93 4.41 9.84
11/2/2022 4:45:00 PM 15.7 60.26 1.14 7.93 4 9.78
11/2/2022 5:00:00 PM 15.71 60.278 1.141 7.93 4.04 9.68
11/2/2022 5:15:00 PM 15.71 60.278 1.143 7.92 3.51 9.54
11/2/2022 5:30:00 PM 15.71 60.278 1.148 7.91 3.9 9.45
11/2/2022 5:45:00 PM 15.72 60.296 1.155 7.91 4.3 9.36
11/2/2022 6:00:00 PM 15.72 60.296 1.163 7.9 4.03 9.25
11/2/2022 6:15:00 PM 15.72 60.296 1.171 7.9 4.62 9.15
11/2/2022 6:30:00 PM 15.71 60.278 1.176 7.89 4.57 9.07
11/2/2022 6:45:00 PM 15.7 60.26 1.18 7.89 4.8 8.97
11/2/2022 7:00:00 PM 15.69 60.242 1.182 7.88 5.02 8.92
11/2/2022 7:15:00 PM 15.67 60.206 1.182 7.88 5.17 8.87
11/2/2022 7:30:00 PM 15.65 60.17 1.181 7.88 4.7 8.83
11/2/2022 7:45:00 PM 15.62 60.116 1.178 7.87 4.81 8.78
11/2/2022 8:00:00 PM 15.59 60.062 1.173 7.87 5.12 8.74
11/2/2022 8:15:00 PM 15.55 59.99 1.168 7.87 5.06 8.72
11/2/2022 8:30:00 PM 15.51 59.918 1.161 7.86 4.8 8.68
11/2/2022 8:45:00 PM 15.45 59.81 1.153 7.86 5.19 8.63
11/2/2022 9:00:00 PM 15.39 59.702 1.144 7.86 5 8.61
11/2/2022 9:15:00 PM 15.32 59.576 1.135 7.85 4.96 8.58
11/2/2022 9:30:00 PM 15.24 59.432 1.128 7.85 4.91 8.56
11/2/2022 9:45:00 PM 15.16 59.288 1.121 7.84 4.93 8.53
11/2/2022 10:00:00 PM 15.08 59.144 1.116 7.84 4.75 8.51
11/2/2022 10:15:00 PM 15 59 1.113 7.83 4.84 8.49
11/2/2022 10:30:00 PM 14.92 58.856 1.109 7.83 5.13 8.45
11/2/2022 10:45:00 PM 14.84 58.712 1.106 7.82 5.27 8.43
11/2/2022 11:00:00 PM 14.76 58.568 1.103 7.82 4.92 8.42
11/2/2022 11:15:00 PM 14.69 58.442 1.101 7.81 4.72 8.38
11/2/2022 11:30:00 PM 14.61 58.298 1.098 7.8 4.68 8.35
11/2/2022 11:45:00 PM 14.53 58.154 1.097 7.8 4.88 8.32
11/3/2022 12:00:00 AM 14.45 58.01 1.096 7.79 4.83 8.31
11/3/2022 12:15:00 AM 14.38 57.884 1.096 7.79 5.13 8.28
11/3/2022 12:30:00 AM 14.3 57.74 1.097 7.78 5.51 8.27
11/3/2022 12:45:00 AM 14.24 57.632 1.1 7.78 5.22 8.25
11/3/2022 1:00:00 AM 14.17 57.506 1.103 7.77 5.18 8.26
11/3/2022 1:15:00 AM 14.11 57.398 1.107 7.77 5.26 8.24
11/3/2022 1:30:00 AM 14.05 57.29 1.111 7.77 5.43 8.23
11/3/2022 1:45:00 AM 14 57.2 1.117 7.76 5.34 8.23
11/3/2022 2:00:00 AM 13.94 57.092 1.123 7.76 5.26 8.24
11/3/2022 2:15:00 AM 13.89 57.002 1.13 7.76 5.08 8.24
11/3/2022 2:30:00 AM 13.83 56.894 1.137 7.76 5.05 8.22
11/3/2022 2:45:00 AM 13.78 56.804 1.144 7.75 5.28 8.24
11/3/2022 3:00:00 AM 13.73 56.714 1.15 7.75 5.15 8.24
11/3/2022 3:15:00 AM 13.68 56.624 1.156 7.75 5.47 8.24
11/3/2022 3:30:00 AM 13.62 56.516 1.162 7.75 5.25 8.23
11/3/2022 3:45:00 AM 13.57 56.426 1.167 7.75 5 8.25
11/3/2022 4:00:00 AM 13.51 56.318 1.172 7.74 4.95 8.25
11/3/2022 4:15:00 AM 13.46 56.228 1.175 7.74 5.24 8.25
11/3/2022 4:30:00 AM 13.4 56.12 1.178 7.74 5.39 8.26
11/3/2022 4:45:00 AM 13.35 56.03 1.18 7.74 5.19 8.29
11/3/2022 5:00:00 AM 13.29 55.922 1.181 7.74 5.22 8.29
11/3/2022 5:15:00 AM 13.23 55.814 1.182 7.74 5.26 8.27
11/3/2022 5:30:00 AM 13.17 55.706 1.182 7.74 5.24 8.32
11/3/2022 5:45:00 AM 13.11 55.598 1.181 7.74 5.03 8.32
11/3/2022 6:00:00 AM 13.05 55.49 1.18 7.74 5.22 8.33
11/3/2022 6:15:00 AM 12.98 55.364 1.178 7.74 5.1 8.34
11/3/2022 6:30:00 AM 12.92 55.256 1.175 7.74 5.32 8.36
11/3/2022 6:45:00 AM 12.85 55.13 1.172 7.74 5.31 8.39
11/3/2022 7:00:00 AM 12.78 55.004 1.168 7.75 5.79 8.42
11/3/2022 7:15:00 AM 12.71 54.878 1.163 7.75 5.28 8.42
11/3/2022 7:30:00 AM 12.64 54.752 1.157 7.75 5.65 8.45
11/3/2022 7:45:00 AM 12.57 54.626 1.151 7.75 5.06 8.47
11/3/2022 8:00:00 AM 12.51 54.518 1.144 7.75 5.34 8.54
11/3/2022 8:15:00 AM 12.45 54.41 1.137 7.75 5.01 8.59
11/3/2022 8:30:00 AM 12.4 54.32 1.128 7.76 5.09 8.67
11/3/2022 8:45:00 AM 12.35 54.23 1.119 7.76 5.07 8.73
11/3/2022 9:00:00 AM 12.31 54.158 1.109 7.77 4.83 8.82
11/3/2022 9:15:00 AM 12.28 54.104 1.099 7.77 4.82 8.9
11/3/2022 9:30:00 AM 12.27 54.086 1.089 7.78 4.76 8.99
11/3/2022 9:45:00 AM 12.26 54.068 1.079 7.79 4.73 9.08
11/3/2022 10:00:00 AM 12.28 54.104 1.069 7.8 4.81 9.22
11/3/2022 10:15:00 AM 12.31 54.158 1.06 7.81 4.74 9.36
11/3/2022 10:30:00 AM 12.35 54.23 1.052 7.82 4.69 9.46
11/3/2022 10:45:00 AM 12.43 54.374 1.044 7.83 4.49 9.6
11/3/2022 11:00:00 AM 12.51 54.518 1.037 7.84 5.02 9.71
11/3/2022 11:15:00 AM 12.6 54.68 1.031 7.85 4.49 9.8
11/3/2022 11:30:00 AM 12.7 54.86 1.028 7.86 4.62 9.88
11/3/2022 11:45:00 AM 12.81 55.058 1.026 7.87 4.54 9.95
11/3/2022 12:00:00 PM 12.93 55.274 1.027 7.87 4.18 10.04
11/3/2022 12:15:00 PM 13.06 55.508 1.027 7.88 4.15 10.1
11/3/2022 12:30:00 PM 13.19 55.742 1.028 7.89 4.33 10.15
11/3/2022 12:45:00 PM 13.33 55.994 1.028 7.9 4.3 10.22
11/3/2022 1:00:00 PM 13.47 56.246 1.028 7.9 4.39 10.26
11/3/2022 1:15:00 PM 13.61 56.498 1.028 7.91 4.59 10.31
11/3/2022 1:30:00 PM 13.76 56.768 1.03 7.91 4.23 10.34
11/3/2022 1:45:00 PM 13.89 57.002 1.034 7.92 4.41 10.37
11/3/2022 2:00:00 PM 14.03 57.254 1.042 7.92 3.85 10.36
11/3/2022 2:15:00 PM 14.16 57.488 1.055 7.93 4.18 10.38
11/3/2022 2:30:00 PM 14.29 57.722 1.07 7.93 4.32 10.4
11/3/2022 2:45:00 PM 14.41 57.938 1.087 7.93 4.03 10.37
11/3/2022 3:00:00 PM 14.53 58.154 1.103 7.93 4.15 10.36
11/3/2022 3:15:00 PM 14.63 58.334 1.118 7.94 4.05 10.32
11/3/2022 3:30:00 PM 14.72 58.496 1.13 7.94 4.69 10.27
11/3/2022 3:45:00 PM 14.79 58.622 1.14 7.93 4.17 10.21
11/3/2022 4:00:00 PM 14.85 58.73 1.148 7.93 4 10.12
11/3/2022 4:15:00 PM 14.89 58.802 1.154 7.93 4.36 10.01
11/3/2022 4:30:00 PM 14.92 58.856 1.158 7.93 3.94 9.91
11/3/2022 4:45:00 PM 14.96 58.928 1.163 7.92 4.04 9.83
11/3/2022 5:00:00 PM 14.98 58.964 1.168 7.92 4.12 9.72
11/3/2022 5:15:00 PM 15 59 1.174 7.91 3.75 9.62
11/3/2022 5:30:00 PM 15.01 59.018 1.182 7.91 3.95 9.53
11/3/2022 5:45:00 PM 15.01 59.018 1.189 7.9 4.01 9.45
11/3/2022 6:00:00 PM 15 59 1.196 7.9 3.85 9.36
11/3/2022 6:15:00 PM 14.97 58.946 1.201 7.89 4.04 9.24
11/3/2022 6:30:00 PM 14.95 58.91 1.206 7.89 4.4 9.15
11/3/2022 6:45:00 PM 14.94 58.892 1.21 7.89 4.48 9.09
11/3/2022 7:00:00 PM 14.93 58.874 1.212 7.88 4.84 9
11/3/2022 7:15:00 PM 14.91 58.838 1.213 7.88 4.82 8.97
11/3/2022 7:30:00 PM 14.89 58.802 1.211 7.88 4.74 8.92
11/3/2022 7:45:00 PM 14.86 58.748 1.207 7.87 4.76 8.88
11/3/2022 8:00:00 PM 14.83 58.694 1.202 7.87 4.77 8.84
11/3/2022 8:15:00 PM 14.8 58.64 1.196 7.87 4.66 8.82
11/3/2022 8:30:00 PM 14.76 58.568 1.19 7.87 4.48 8.78
11/3/2022 8:45:00 PM 14.72 58.496 1.185 7.86 4.38 8.75
11/3/2022 9:00:00 PM 14.67 58.406 1.182 7.86 4.82 8.73
11/3/2022 9:15:00 PM 14.62 58.316 1.18 7.86 4.55 8.69
11/3/2022 9:30:00 PM 14.57 58.226 1.178 7.86 4.65 8.68
11/3/2022 9:45:00 PM 14.51 58.118 1.177 7.85 4.41 8.64
11/3/2022 10:00:00 PM 14.44 57.992 1.176 7.85 4.49 8.62
11/3/2022 10:15:00 PM 14.37 57.866 1.174 7.84 4.4 8.59
11/3/2022 10:30:00 PM 14.31 57.758 1.173 7.84 4.91 8.57
11/3/2022 10:45:00 PM 14.24 57.632 1.171 7.83 4.6 8.53
11/3/2022 11:00:00 PM 14.16 57.488 1.169 7.83 4.51 8.5
11/3/2022 11:15:00 PM 14.09 57.362 1.167 7.82 4.84 8.48
11/3/2022 11:30:00 PM 14.02 57.236 1.166 7.81 4.66 8.45
11/3/2022 11:45:00 PM 13.94 57.092 1.164 7.81 4.3 8.43
11/4/2022 12:00:00 AM 13.87 56.966 1.163 7.8 4.18 8.42
11/4/2022 12:15:00 AM 13.8 56.84 1.162 7.8 4.37 8.4
11/4/2022 12:30:00 AM 13.73 56.714 1.163 7.8 4.29 8.39
11/4/2022 12:45:00 AM 13.67 56.606 1.165 7.79 4.44 8.37
11/4/2022 1:00:00 AM 13.61 56.498 1.168 7.79 4.3 8.37
11/4/2022 1:15:00 AM 13.57 56.426 1.172 7.78 4.42 8.34
11/4/2022 1:30:00 AM 13.52 56.336 1.177 7.78 4.3 8.35
11/4/2022 1:45:00 AM 13.47 56.246 1.183 7.78 4.56 8.35
11/4/2022 2:00:00 AM 13.42 56.156 1.189 7.78 5.3 8.32
11/4/2022 2:15:00 AM 13.38 56.084 1.195 7.77 4.59 8.3
11/4/2022 2:30:00 AM 13.33 55.994 1.201 7.77 4.71 8.3
11/4/2022 2:45:00 AM 13.29 55.922 1.207 7.77 4.87 8.31
11/4/2022 3:00:00 AM 13.24 55.832 1.213 7.77 5.71 8.33
11/4/2022 3:15:00 AM 13.2 55.76 1.219 7.77 5.57 8.33
11/4/2022 3:30:00 AM 13.15 55.67 1.224 7.76 5.26 8.31
11/4/2022 3:45:00 AM 13.11 55.598 1.228 7.76 5.05 8.3
11/4/2022 4:00:00 AM 13.07 55.526 1.233 7.76 5.22 8.32
11/4/2022 4:15:00 AM 13.02 55.436 1.237 7.76 4.89 8.32
11/4/2022 4:30:00 AM 12.97 55.346 1.24 7.76 5.39 8.32
11/4/2022 4:45:00 AM 12.93 55.274 1.242 7.76 6.89 8.33
11/4/2022 5:00:00 AM 12.89 55.202 1.243 7.76 5.19 8.34
11/4/2022 5:15:00 AM 12.84 55.112 1.243 7.76 4.99 8.35
11/4/2022 5:30:00 AM 12.8 55.04 1.242 7.76 5.18 8.36
11/4/2022 5:45:00 AM 12.75 54.95 1.24 7.76 5.37 8.38
11/4/2022 6:00:00 AM 12.69 54.842 1.237 7.76 4.9 8.36
11/4/2022 6:15:00 AM 12.64 54.752 1.234 7.76 5.43 8.39
11/4/2022 6:30:00 AM 12.59 54.662 1.229 7.76 5.18 8.41
11/4/2022 6:45:00 AM 12.54 54.572 1.225 7.76 5.47 8.43
11/4/2022 7:00:00 AM 12.49 54.482 1.219 7.76 5.54 8.43
11/4/2022 7:15:00 AM 12.43 54.374 1.213 7.76 5.28 8.44
11/4/2022 7:30:00 AM 12.38 54.284 1.205 7.76 5.24 8.46
11/4/2022 7:45:00 AM 12.33 54.194 1.197 7.76 5.07 8.5
11/4/2022 8:00:00 AM 12.29 54.122 1.188 7.76 13.65 8.58
11/4/2022 8:15:00 AM 12.26 54.068 1.179 7.77 5.05 8.66
11/4/2022 8:30:00 AM 12.24 54.032 1.168 7.78 5.14 8.77
11/4/2022 8:45:00 AM 12.23 54.014 1.157 7.78 5.57 8.9
11/4/2022 9:00:00 AM 12.23 54.014 1.146 7.79 4.93 9.05
11/4/2022 9:15:00 AM 12.25 54.05 1.135 7.8 5.46 9.15
11/4/2022 9:30:00 AM 12.27 54.086 1.124 7.81 5.2 9.27
11/4/2022 9:45:00 AM 12.3 54.14 1.112 7.82 4.72 9.41
11/4/2022 10:00:00 AM 12.34 54.212 1.1 7.83 4.53 9.53
11/4/2022 10:15:00 AM 12.39 54.302 1.089 7.84 4.64 9.63
11/4/2022 10:30:00 AM 12.45 54.41 1.079 7.85 4.6 9.75
11/4/2022 10:45:00 AM 12.51 54.518 1.069 7.86 4.76 9.84
11/4/2022 11:00:00 AM 12.57 54.626 1.061 7.87 4.44 9.94
11/4/2022 11:15:00 AM 12.65 54.77 1.054 7.88 4.5 10.04
11/4/2022 11:30:00 AM 12.75 54.95 1.049 7.89 4.3 10.15
11/4/2022 11:45:00 AM 12.86 55.148 1.046 7.89 4.34 10.19
11/4/2022 12:00:00 PM 13 55.4 1.045 7.9 4.35 10.26
11/4/2022 12:15:00 PM 13.13 55.634 1.046 7.9 4.38 10.29
11/4/2022 12:30:00 PM 13.27 55.886 1.047 7.91 4.25 10.36
11/4/2022 12:45:00 PM 13.4 56.12 1.048 7.92 4.19 10.41
11/4/2022 1:00:00 PM 13.54 56.372 1.049 7.92 4.26 10.44
11/4/2022 1:15:00 PM 13.69 56.642 1.051 7.93 4.16 10.5
11/4/2022 1:30:00 PM 13.84 56.912 1.053 7.93 4.18 10.49
11/4/2022 1:45:00 PM 14 57.2 1.057 7.94 5.03 10.52
11/4/2022 2:00:00 PM 14.17 57.506 1.063 7.94 4.12 10.52
11/4/2022 2:15:00 PM 14.31 57.758 1.072 7.95 4.4 10.54
11/4/2022 2:30:00 PM 14.46 58.028 1.084 7.95 4.21 10.56
11/4/2022 2:45:00 PM 14.6 58.28 1.099 7.96 4.32 10.57
11/4/2022 3:00:00 PM 14.72 58.496 1.114 7.96 4.12 10.53
11/4/2022 3:15:00 PM 14.85 58.73 1.129 7.96 3.87 10.5
11/4/2022 3:30:00 PM 14.98 58.964 1.143 7.96 4.02 10.45
11/4/2022 3:45:00 PM 15.07 59.126 1.156 7.96 4.02 10.35
11/4/2022 4:00:00 PM 15.15 59.27 1.167 7.96 3.79 10.24
11/4/2022 4:15:00 PM 15.23 59.414 1.176 7.96 3.95 10.13
11/4/2022 4:30:00 PM 15.29 59.522 1.183 7.95 3.97 10.04
11/4/2022 4:45:00 PM 15.34 59.612 1.188 7.95 4.15 9.95
11/4/2022 5:00:00 PM 15.37 59.666 1.191 7.94 3.85 9.86
11/4/2022 5:15:00 PM 15.39 59.702 1.194 7.94 3.94 9.74
11/4/2022 5:30:00 PM 15.41 59.738 1.196 7.93 3.96 9.64
11/4/2022 5:45:00 PM 15.42 59.756 1.195 7.93 3.91 9.53
11/4/2022 6:00:00 PM 15.41 59.738 1.191 7.92 4.21 9.39
11/4/2022 6:15:00 PM 15.4 59.72 1.184 7.92 4.14 9.31
11/4/2022 6:30:00 PM 15.39 59.702 1.178 7.91 8.78 9.23
11/4/2022 6:45:00 PM 15.39 59.702 1.173 7.91 5.22 9.14
11/4/2022 7:00:00 PM 15.39 59.702 1.169 7.9 4.82 9.08
11/4/2022 7:15:00 PM 15.38 59.684 1.165 7.9 4.92 9.01
11/4/2022 7:30:00 PM 15.36 59.648 1.162 7.89 4.65 8.93
11/4/2022 7:45:00 PM 15.35 59.63 1.16 7.89 4.86 8.88
11/4/2022 8:00:00 PM 15.34 59.612 1.158 7.89 4.91 8.83
11/4/2022 8:15:00 PM 15.32 59.576 1.156 7.88 4.61 8.78
11/4/2022 8:30:00 PM 15.31 59.558 1.154 7.88 4.79 8.74
11/4/2022 8:45:00 PM 15.29 59.522 1.152 7.87 4.63 8.69
11/4/2022 9:00:00 PM 15.26 59.468 1.151 7.87 4.61 8.64
11/4/2022 9:15:00 PM 15.24 59.432 1.149 7.86 5.06 8.62
11/4/2022 9:30:00 PM 15.2 59.36 1.147 7.86 4.59 8.55
11/4/2022 9:45:00 PM 15.16 59.288 1.144 7.85 4.6 8.51
11/4/2022 10:00:00 PM 15.12 59.216 1.142 7.85 4.51 8.49
11/4/2022 10:15:00 PM 15.07 59.126 1.139 7.84 5.17 8.46
11/4/2022 10:30:00 PM 15.01 59.018 1.136 7.84 4.72 8.42
11/4/2022 10:45:00 PM 14.96 58.928 1.134 7.83 4.6 8.39
11/4/2022 11:00:00 PM 14.91 58.838 1.133 7.83 5.01 8.33
11/4/2022 11:15:00 PM 14.85 58.73 1.133 7.82 4.86 8.32
11/4/2022 11:30:00 PM 14.8 58.64 1.134 7.82 4.5 8.3
11/4/2022 11:45:00 PM 14.75 58.55 1.135 7.81 4.5 8.26
11/5/2022 12:00:00 AM 14.7 58.46 1.138 7.8 4.84 8.23
11/5/2022 12:15:00 AM 14.65 58.37 1.141 7.8 4.65 8.21
11/5/2022 12:30:00 AM 14.61 58.298 1.144 7.79 4.71 8.19
11/5/2022 12:45:00 AM 14.56 58.208 1.146 7.79 4.66 8.15
11/5/2022 1:00:00 AM 14.52 58.136 1.149 7.78 4.5 8.15
11/5/2022 1:15:00 AM 14.48 58.064 1.152 7.78 4.35 8.13
11/5/2022 1:30:00 AM 14.45 58.01 1.155 7.78 4.4 8.1
11/5/2022 1:45:00 AM 14.44 57.992 1.16 7.77 4.21 8.1
11/5/2022 2:00:00 AM 14.42 57.956 1.164 7.77 4.78 8.09
11/5/2022 2:15:00 AM 14.41 57.938 1.169 7.77 5.1 8.07
11/5/2022 2:30:00 AM 14.39 57.902 1.175 7.77 5.6 8.06
11/5/2022 2:45:00 AM 14.37 57.866 1.18 7.76 4.87 8.04
11/5/2022 3:00:00 AM 14.35 57.83 1.186 7.76 4.66 8.03
11/5/2022 3:15:00 AM 14.34 57.812 1.19 7.76 4.73 8.05
11/5/2022 3:30:00 AM 14.34 57.812 1.194 7.76 4.41 8.01
11/5/2022 3:45:00 AM 14.33 57.794 1.197 7.76 4.47 8.02
11/5/2022 4:00:00 AM 14.32 57.776 1.199 7.76 4.55 8
11/5/2022 4:15:00 AM 14.31 57.758 1.2 7.75 4.62 8.01
11/5/2022 4:30:00 AM 14.3 57.74 1.201 7.75 4.81 7.99
11/5/2022 4:45:00 AM 14.3 57.74 1.201 7.75 4.76 8
11/5/2022 5:00:00 AM 14.29 57.722 1.2 7.75 4.64 8.01
11/5/2022 5:15:00 AM 14.28 57.704 1.199 7.75 4.77 8.01
11/5/2022 5:30:00 AM 14.28 57.704 1.197 7.75 4.79 8.02
11/5/2022 5:45:00 AM 14.27 57.686 1.195 7.75 5.27 8
11/5/2022 6:00:00 AM 14.27 57.686 1.193 7.75 5.02 8.01
11/5/2022 6:15:00 AM 14.26 57.668 1.19 7.75 4.87 8.01
11/5/2022 6:30:00 AM 14.26 57.668 1.186 7.75 5.3 8.02
11/5/2022 6:45:00 AM 14.25 57.65 1.182 7.75 4.98 8.01
11/5/2022 7:00:00 AM 14.25 57.65 1.177 7.75 5.07 8.02
11/5/2022 7:15:00 AM 14.24 57.632 1.173 7.75 4.96 8.03
11/5/2022 7:30:00 AM 14.24 57.632 1.168 7.75 4.93 8.03
11/5/2022 7:45:00 AM 14.24 57.632 1.164 7.75 4.54 8.04
11/5/2022 8:00:00 AM 14.24 57.632 1.16 7.75 4.57 8.06
11/5/2022 8:15:00 AM 14.25 57.65 1.155 7.75 4.4 8.11
11/5/2022 8:30:00 AM 14.27 57.686 1.149 7.76 4.41 8.19
11/5/2022 8:45:00 AM 14.3 57.74 1.143 7.76 4.59 8.31
11/5/2022 9:00:00 AM 14.33 57.794 1.136 7.77 4.58 8.4
11/5/2022 9:15:00 AM 14.37 57.866 1.129 7.78 4.61 8.51
11/5/2022 9:30:00 AM 14.41 57.938 1.122 7.79 4.81 8.55
11/5/2022 9:45:00 AM 14.46 58.028 1.113 7.8 4.72 8.67
11/5/2022 10:00:00 AM 14.53 58.154 1.104 7.81 4.52 8.8
11/5/2022 10:15:00 AM 14.61 58.298 1.095 7.82 4.47 8.95
11/5/2022 10:30:00 AM 14.69 58.442 1.085 7.83 4.45 9.11
11/5/2022 10:45:00 AM 14.78 58.604 1.074 7.84 4.28 9.21
11/5/2022 11:00:00 AM 14.88 58.784 1.066 7.85 4.4 9.28
11/5/2022 11:15:00 AM 15 59 1.058 7.86 4.81 9.42
11/5/2022 11:30:00 AM 15.11 59.198 1.051 7.87 4.26 9.5
11/5/2022 11:45:00 AM 15.23 59.414 1.045 7.88 4.23 9.57
11/5/2022 12:00:00 PM 15.35 59.63 1.041 7.89 4.45 9.68
11/5/2022 12:15:00 PM 15.48 59.864 1.039 7.89 4.09 9.75
11/5/2022 12:30:00 PM 15.59 60.062 1.038 7.9 4.5 9.77
11/5/2022 12:45:00 PM 15.69 60.242 1.038 7.9 4.42 9.76
11/5/2022 1:00:00 PM 15.8 60.44 1.037 7.91 4.66 9.8
11/5/2022 1:15:00 PM 15.91 60.638 1.035 7.91 4.32 9.83
11/5/2022 1:30:00 PM 16.05 60.89 1.033 7.92 4.4 9.92
11/5/2022 1:45:00 PM 16.2 61.16 1.029 7.93 4.23 10.01
11/5/2022 2:00:00 PM 16.33 61.394 1.027 7.94 4.04 10.05
11/5/2022 2:15:00 PM 16.45 61.61 1.025 7.94 4.29 10.07
11/5/2022 2:30:00 PM 16.56 61.808 1.026 7.95 4.17 10.1
11/5/2022 2:45:00 PM 16.66 61.988 1.031 7.95 4.15 10.09
11/5/2022 3:00:00 PM 16.74 62.132 1.038 7.95 4.13 10.08
11/5/2022 3:15:00 PM 16.82 62.276 1.048 7.95 4.27 10.05
11/5/2022 3:30:00 PM 16.9 62.42 1.061 7.96 4.19 10.02
11/5/2022 3:45:00 PM 16.98 62.564 1.073 7.96 5.99 10.02
11/5/2022 4:00:00 PM 17.06 62.708 1.088 7.96 3.88 9.99
11/5/2022 4:15:00 PM 17.13 62.834 1.102 7.96 4.14 9.9
11/5/2022 4:30:00 PM 17.19 62.942 1.118 7.96 3.98 9.77
11/5/2022 4:45:00 PM 17.22 62.996 1.132 7.95 4.05 9.69
11/5/2022 5:00:00 PM 17.24 63.032 1.146 7.95 3.92 9.56
11/5/2022 5:15:00 PM 17.25 63.05 1.158 7.94 4.05 9.45
11/5/2022 5:30:00 PM 17.27 63.086 1.169 7.93 3.78 9.31
11/5/2022 5:45:00 PM 17.27 63.086 1.178 7.92 3.9 9.16
11/5/2022 6:00:00 PM 17.27 63.086 1.185 7.92 4.91 9
11/5/2022 6:15:00 PM 17.28 63.104 1.191 7.91 4.2 8.88
11/5/2022 6:30:00 PM 17.28 63.104 1.196 7.9 6.65 8.78
11/5/2022 6:45:00 PM 17.29 63.122 1.2 7.9 5.17 8.68
11/5/2022 7:00:00 PM 17.29 63.122 1.203 7.89 4.65 8.61
11/5/2022 7:15:00 PM 17.3 63.14 1.205 7.89 5.17 8.54
11/5/2022 7:30:00 PM 17.3 63.14 1.205 7.88 5.37 8.46
11/5/2022 7:45:00 PM 17.29 63.122 1.206 7.88 4.8 8.39
11/5/2022 8:00:00 PM 17.29 63.122 1.205 7.87 7.07 8.33
11/5/2022 8:15:00 PM 17.28 63.104 1.204 7.87 5.11 8.26
11/5/2022 8:30:00 PM 17.27 63.086 1.203 7.86 4.7 8.22
11/5/2022 8:45:00 PM 17.25 63.05 1.201 7.86 4.82 8.17
11/5/2022 9:00:00 PM 17.23 63.014 1.199 7.85 4.61 8.12
11/5/2022 9:15:00 PM 17.2 62.96 1.196 7.85 4.74 8.04
11/5/2022 9:30:00 PM 17.17 62.906 1.193 7.84 4.72 7.99
11/5/2022 9:45:00 PM 17.14 62.852 1.191 7.84 4.87 7.95
11/5/2022 10:00:00 PM 17.11 62.798 1.188 7.83 4.71 7.89
11/5/2022 10:15:00 PM 17.07 62.726 1.187 7.83 4.91 7.89
11/5/2022 10:30:00 PM 17.02 62.636 1.187 7.82 4.67 7.82
11/5/2022 10:45:00 PM 16.98 62.564 1.187 7.82 4.65 7.79
11/5/2022 11:00:00 PM 16.93 62.474 1.188 7.81 4.89 7.74
11/5/2022 11:15:00 PM 16.88 62.384 1.189 7.8 4.98 7.68
11/5/2022 11:30:00 PM 16.83 62.294 1.19 7.8 4.8 7.67
11/5/2022 11:45:00 PM 16.78 62.204 1.191 7.79 4.71 7.63
11/6/2022 12:00:00 AM 16.74 62.132 1.192 7.79 4.84 7.55
11/6/2022 12:15:00 AM 16.69 62.042 1.192 7.78 4.84 7.55
11/6/2022 12:30:00 AM 16.64 61.952 1.191 7.77 4.69 7.52
11/6/2022 12:45:00 AM 16.59 61.862 1.19 7.77 4.8 7.5
11/6/2022 1:00:00 AM 16.54 61.772 1.188 7.76 4.8 7.46
11/6/2022 1:15:00 AM 16.49 61.682 1.186 7.76 4.59 7.45
11/6/2022 1:30:00 AM 16.45 61.61 1.184 7.75 4.66 7.43
11/6/2022 1:45:00 AM 16.41 61.538 1.183 7.75 4.55 7.41
11/6/2022 2:00:00 AM 16.37 61.466 1.181 7.75 4.9 7.38
11/6/2022 2:15:00 AM 16.33 61.394 1.181 7.74 4.98 7.38
11/6/2022 2:30:00 AM 16.29 61.322 1.181 7.74 4.52 7.34
11/6/2022 2:45:00 AM 16.26 61.268 1.181 7.74 4.64 7.32
11/6/2022 3:00:00 AM 16.23 61.214 1.182 7.74 4.92 7.33
11/6/2022 3:15:00 AM 16.2 61.16 1.183 7.73 5.07 7.32
11/6/2022 3:30:00 AM 16.18 61.124 1.183 7.73 5.08 7.32
11/6/2022 3:45:00 AM 16.16 61.088 1.183 7.73 5.65 7.3
11/6/2022 4:00:00 AM 16.15 61.07 1.183 7.73 4.75 7.31
11/6/2022 4:15:00 AM 16.13 61.034 1.182 7.73 4.91 7.31
11/6/2022 4:30:00 AM 16.11 60.998 1.181 7.73 4.93 7.32
11/6/2022 4:45:00 AM 16.1 60.98 1.179 7.73 4.8 7.28
11/6/2022 5:00:00 AM 16.1 60.98 1.177 7.72 4.68 7.3
11/6/2022 5:15:00 AM 16.09 60.962 1.175 7.72 5.17 7.28
11/6/2022 5:30:00 AM 16.08 60.944 1.172 7.72 5.77 7.27
11/6/2022 5:45:00 AM 16.07 60.926 1.169 7.72 5.35 7.27
11/6/2022 6:00:00 AM 16.06 60.908 1.165 7.72 5.17 7.24
11/6/2022 6:15:00 AM 16.05 60.89 1.162 7.72 5.11 7.27
11/6/2022 6:30:00 AM 16.04 60.872 1.158 7.72 5.36 7.28
11/6/2022 6:45:00 AM 16.03 60.854 1.154 7.72 6.79 7.26
11/6/2022 7:00:00 AM 16.02 60.836 1.15 7.72 5.17 7.3
11/6/2022 7:15:00 AM 16.01 60.818 1.144 7.72 5.16 7.31
11/6/2022 7:30:00 AM 16 60.8 1.139 7.72 5.21 7.32
11/6/2022 7:45:00 AM 15.99 60.782 1.131 7.72 5.09 7.35
11/6/2022 8:00:00 AM 15.98 60.764 1.126 7.72 5.51 7.34
11/6/2022 8:15:00 AM 15.96 60.728 1.121 7.72 4.79 7.41
11/6/2022 8:30:00 AM 15.95 60.71 1.115 7.73 4.56 7.44
11/6/2022 8:45:00 AM 15.94 60.692 1.11 7.73 4.62 7.52
11/6/2022 9:00:00 AM 15.94 60.692 1.102 7.73 4.78 7.54
11/6/2022 9:15:00 AM 15.94 60.692 1.092 7.73 4.75 7.6
11/6/2022 9:30:00 AM 15.94 60.692 1.084 7.74 5.23 7.63
11/6/2022 9:45:00 AM 15.94 60.692 1.073 7.74 4.85 7.65
11/6/2022 10:00:00 AM 15.94 60.692 1.067 7.74 4.81 7.7
11/6/2022 10:15:00 AM 15.94 60.692 1.062 7.74 4.7 7.75
11/6/2022 10:30:00 AM 15.96 60.728 1.056 7.75 4.78 7.88
11/6/2022 10:45:00 AM 15.99 60.782 1.048 7.76 4.45 8.06
11/6/2022 11:00:00 AM 16.02 60.836 1.039 7.77 4.75 8.21
11/6/2022 11:15:00 AM 16.04 60.872 1.03 7.77 4.68 8.23
11/6/2022 11:30:00 AM 16.07 60.926 1.022 7.77 4.76 8.31
11/6/2022 11:45:00 AM 16.11 60.998 1.016 7.78 5.19 8.42
11/6/2022 12:00:00 PM 16.13 61.034 1.011 7.78 5.62 8.42
11/6/2022 12:15:00 PM 16.14 61.052 1.01 7.77 5.39 8.33
11/6/2022 12:30:00 PM 16.15 61.07 1.01 7.77 6.33 8.31
11/6/2022 12:45:00 PM 16.19 61.142 1.01 7.77 6.58 8.36
11/6/2022 1:00:00 PM 16.23 61.214 1.008 7.78 6.47 8.47
11/6/2022 1:15:00 PM 16.26 61.268 1.007 7.78 6.64 8.52
11/6/2022 1:30:00 PM 16.3 61.34 1.007 7.79 6.78 8.56
11/6/2022 1:45:00 PM 16.37 61.466 1.009 7.8 6.2 8.76
11/6/2022 2:00:00 PM 16.42 61.556 1.014 7.8 5.99 8.76
11/6/2022 2:15:00 PM 16.44 61.592 1.022 7.79 5.84 8.62
11/6/2022 2:30:00 PM 16.47 61.646 1.032 7.78 6.92 8.58
11/6/2022 2:45:00 PM 16.51 61.718 1.044 7.78 7.39 8.62
11/6/2022 3:00:00 PM 16.57 61.826 1.056 7.79 6.21 8.64
11/6/2022 3:15:00 PM 16.63 61.934 1.068 7.78 5.78 8.61
11/6/2022 3:30:00 PM 16.7 62.06 1.077 7.79 5.57 8.68
11/6/2022 3:45:00 PM 16.77 62.186 1.082 7.8 5.59 8.78
11/6/2022 4:00:00 PM 16.82 62.276 1.083 7.8 5.15 8.72
11/6/2022 4:15:00 PM 16.85 62.33 1.081 7.79 5.25 8.68
11/6/2022 4:30:00 PM 16.87 62.366 1.076 7.79 5.44 8.64
11/6/2022 4:45:00 PM 16.89 62.402 1.069 7.79 5.45 8.65
11/6/2022 5:00:00 PM 16.91 62.438 1.063 7.79 5.09 8.59
11/6/2022 5:15:00 PM 16.92 62.456 1.058 7.78 5.35 8.49
11/6/2022 5:30:00 PM 16.93 62.474 1.056 7.77 5.87 8.37
11/6/2022 5:45:00 PM 16.94 62.492 1.055 7.76 9.25 8.28
11/6/2022 6:00:00 PM 16.96 62.528 1.056 7.75 5.81 8.19
11/6/2022 6:15:00 PM 16.98 62.564 1.058 7.74 5.62 8.1
11/6/2022 6:30:00 PM 17 62.6 1.061 7.73 6.27 7.99
11/6/2022 6:45:00 PM 17.02 62.636 1.063 7.73 6.68 7.88
11/6/2022 7:00:00 PM 17.04 62.672 1.066 7.72 6.84 7.79
11/6/2022 7:15:00 PM 17.06 62.708 1.068 7.71 6.95 7.7
11/6/2022 7:30:00 PM 17.06 62.708 1.069 7.7 6.26 7.62
11/6/2022 7:45:00 PM 17.07 62.726 1.071 7.69 6.16 7.55
11/6/2022 8:00:00 PM 17.08 62.744 1.073 7.69 6.42 7.49
11/6/2022 8:15:00 PM 17.08 62.744 1.075 7.68 6.54 7.45
11/6/2022 8:30:00 PM 17.09 62.762 1.078 7.68 6.04 7.41
11/6/2022 8:45:00 PM 17.09 62.762 1.08 7.68 6.06 7.39
11/6/2022 9:00:00 PM 17.09 62.762 1.083 7.67 6.13 7.36
11/6/2022 9:15:00 PM 17.09 62.762 1.085 7.67 5.97 7.35
11/6/2022 9:30:00 PM 17.08 62.744 1.088 7.67 6.49 7.33
11/6/2022 9:45:00 PM 17.08 62.744 1.091 7.67 5.59 7.32
11/6/2022 10:00:00 PM 17.07 62.726 1.095 7.68 5.54 7.34
11/6/2022 10:15:00 PM 17.04 62.672 1.099 7.67 5.97 7.33
11/6/2022 10:30:00 PM 17 62.6 1.105 7.68 5.59 7.33
11/6/2022 10:45:00 PM 16.97 62.546 1.113 7.67 5.95 7.33
11/6/2022 11:00:00 PM 16.93 62.474 1.125 7.67 5.47 7.32
11/6/2022 11:15:00 PM 16.89 62.402 1.14 7.67 5.42 7.31
11/6/2022 11:30:00 PM 16.85 62.33 1.155 7.67 5.41 7.31
11/6/2022 11:45:00 PM 16.81 62.258 1.168 7.67 5.22 7.32
11/7/2022 12:00:00 AM 16.76 62.168 1.178 7.67 5.21 7.3
11/7/2022 12:15:00 AM 16.71 62.078 1.184 7.67 5.03 7.29
11/7/2022 12:30:00 AM 16.66 61.988 1.186 7.67 5.21 7.32
11/7/2022 12:45:00 AM 16.62 61.916 1.185 7.68 4.73 7.3
11/7/2022 1:00:00 AM 16.59 61.862 1.184 7.68 4.99 7.31
11/7/2022 1:15:00 AM 16.55 61.79 1.181 7.68 4.97 7.32
11/7/2022 1:30:00 AM 16.52 61.736 1.179 7.68 4.93 7.31
11/7/2022 1:45:00 AM 16.49 61.682 1.177 7.68 5.2 7.33
11/7/2022 2:00:00 AM 16.46 61.628 1.176 7.69 4.85 7.34
11/7/2022 2:15:00 AM 16.43 61.574 1.177 7.69 5.01 7.35
11/7/2022 2:30:00 AM 16.4 61.52 1.178 7.69 5.22 7.35
11/7/2022 2:45:00 AM 16.37 61.466 1.179 7.69 5.2 7.36
11/7/2022 3:00:00 AM 16.33 61.394 1.182 7.69 5.07 7.37
11/7/2022 3:15:00 AM 16.3 61.34 1.185 7.69 4.92 7.38
11/7/2022 3:30:00 AM 16.27 61.286 1.188 7.69 4.93 7.39
11/7/2022 3:45:00 AM 16.25 61.25 1.191 7.69 5.39 7.38
11/7/2022 4:00:00 AM 16.22 61.196 1.194 7.69 5.01 7.37
11/7/2022 4:15:00 AM 16.18 61.124 1.197 7.69 4.82 7.39
11/7/2022 4:30:00 AM 16.15 61.07 1.199 7.7 5.03 7.38
11/7/2022 4:45:00 AM 16.11 60.998 1.2 7.7 5.01 7.4
11/7/2022 5:00:00 AM 16.08 60.944 1.201 7.7 5.11 7.37
11/7/2022 5:15:00 AM 16.05 60.89 1.201 7.7 5.81 7.4
11/7/2022 5:30:00 AM 16.03 60.854 1.2 7.7 5.18 7.39
11/7/2022 5:45:00 AM 16.02 60.836 1.198 7.7 5.12 7.39
11/7/2022 6:00:00 AM 16 60.8 1.196 7.7 5.17 7.41
11/7/2022 6:15:00 AM 15.97 60.746 1.192 7.7 5.09 7.41
11/7/2022 6:30:00 AM 15.96 60.728 1.188 7.7 5.45 7.42
11/7/2022 6:45:00 AM 15.94 60.692 1.183 7.7 5.49 7.44
11/7/2022 7:00:00 AM 15.93 60.674 1.177 7.7 5.93 7.43
11/7/2022 7:15:00 AM 15.92 60.656 1.171 7.7 5.76 7.43
11/7/2022 7:30:00 AM 15.91 60.638 1.164 7.7 5.46 7.44
11/7/2022 7:45:00 AM 15.9 60.62 1.157 7.71 5.27 7.48
11/7/2022 8:00:00 AM 15.88 60.584 1.15 7.71 5.33 7.5
11/7/2022 8:15:00 AM 15.85 60.53 1.142 7.71 5.04 7.54
11/7/2022 8:30:00 AM 15.82 60.476 1.133 7.71 4.88 7.6
11/7/2022 8:45:00 AM 15.79 60.422 1.125 7.72 4.77 7.68
11/7/2022 9:00:00 AM 15.78 60.404 1.117 7.72 4.64 7.77
11/7/2022 9:15:00 AM 15.76 60.368 1.108 7.73 4.59 7.86
11/7/2022 9:30:00 AM 15.76 60.368 1.099 7.74 4.88 7.94
11/7/2022 9:45:00 AM 15.76 60.368 1.091 7.74 4.82 8.04
11/7/2022 10:00:00 AM 15.77 60.386 1.081 7.75 4.48 8.19
11/7/2022 10:15:00 AM 15.78 60.404 1.072 7.77 4.4 8.32
11/7/2022 10:30:00 AM 15.8 60.44 1.063 7.78 4.36 8.44
11/7/2022 10:45:00 AM 15.84 60.512 1.053 7.79 4.43 8.62
11/7/2022 11:00:00 AM 15.87 60.566 1.045 7.8 4.84 8.76
11/7/2022 11:15:00 AM 15.92 60.656 1.037 7.81 4.62 8.86
11/7/2022 11:30:00 AM 15.98 60.764 1.029 7.82 4.46 8.96
11/7/2022 11:45:00 AM 16.04 60.872 1.023 7.83 4.34 9.08
11/7/2022 12:00:00 PM 16.11 60.998 1.019 7.84 4.58 9.17
11/7/2022 12:15:00 PM 16.19 61.142 1.017 7.84 4.58 9.26
11/7/2022 12:30:00 PM 16.27 61.286 1.016 7.85 4.5 9.34
11/7/2022 12:45:00 PM 16.37 61.466 1.016 7.86 4.28 9.45
11/7/2022 1:00:00 PM 16.46 61.628 1.016 7.87 4.25 9.5
11/7/2022 1:15:00 PM 16.55 61.79 1.015 7.88 4.41 9.56
11/7/2022 1:30:00 PM 16.64 61.952 1.014 7.88 4.44 9.61
11/7/2022 1:45:00 PM 16.73 62.114 1.012 7.89 4.4 9.64
11/7/2022 2:00:00 PM 16.81 62.258 1.011 7.9 4.07 9.68
11/7/2022 2:15:00 PM 16.87 62.366 1.01 7.9 4.63 9.71
11/7/2022 2:30:00 PM 17.04 62.672 1.05 7.92 4.13 9.72
11/7/2022 2:45:00 PM 17.05 62.69 1.067 7.92 4.4 9.65
11/7/2022 3:00:00 PM 17.04 62.672 1.085 7.91 4.06 9.54
11/7/2022 3:15:00 PM 17.03 62.654 1.104 7.91 4.29 9.41
11/7/2022 3:30:00 PM 17.01 62.618 1.12 7.9 4 9.29
11/7/2022 3:45:00 PM 17 62.6 1.134 7.89 4.3 9.21
11/7/2022 4:00:00 PM 16.97 62.546 1.146 7.89 4.26 9.1
11/7/2022 4:15:00 PM 16.94 62.492 1.153 7.89 5.42 8.99
11/7/2022 4:30:00 PM 16.91 62.438 1.158 7.88 4.12 8.91
11/7/2022 4:45:00 PM 16.86 62.348 1.162 7.88 4.15 8.82
11/7/2022 5:00:00 PM 16.8 62.24 1.163 7.87 4.44 8.74
11/7/2022 5:15:00 PM 16.73 62.114 1.165 7.87 6.03 8.65
11/7/2022 5:30:00 PM 16.67 62.006 1.166 7.86 4.7 8.58
11/7/2022 5:45:00 PM 16.61 61.898 1.168 7.86 5.7 8.5
11/7/2022 6:00:00 PM 16.55 61.79 1.171 7.86 5.24 8.45
11/7/2022 6:15:00 PM 16.49 61.682 1.173 7.85 5.62 8.4
11/7/2022 6:30:00 PM 16.43 61.574 1.175 7.85 5.08 8.36
11/7/2022 6:45:00 PM 16.37 61.466 1.177 7.85 5.44 8.31
11/7/2022 7:00:00 PM 16.31 61.358 1.177 7.84 4.99 8.29
11/7/2022 7:15:00 PM 16.24 61.232 1.177 7.84 4.89 8.24
11/7/2022 7:30:00 PM 16.17 61.106 1.176 7.84 4.93 8.21
11/7/2022 7:45:00 PM 16.09 60.962 1.175 7.84 4.86 8.2
11/7/2022 8:00:00 PM 16.01 60.818 1.173 7.83 4.71 8.18
11/7/2022 8:15:00 PM 15.93 60.674 1.172 7.83 5.37 8.15
11/7/2022 8:30:00 PM 15.85 60.53 1.17 7.83 4.85 8.14
11/7/2022 8:45:00 PM 15.76 60.368 1.168 7.82 4.53 8.1
11/7/2022 9:00:00 PM 15.66 60.188 1.167 7.82 4.58 8.08
11/7/2022 9:15:00 PM 15.57 60.026 1.166 7.81 4.56 8.06
11/7/2022 9:30:00 PM 15.46 59.828 1.165 7.81 4.52 8.04
11/7/2022 9:45:00 PM 15.36 59.648 1.164 7.8 4.69 8.01
11/7/2022 10:00:00 PM 15.25 59.45 1.162 7.8 4.65 8
11/7/2022 10:15:00 PM 15.14 59.252 1.16 7.79 4.65 7.99
11/7/2022 10:30:00 PM 15.04 59.072 1.158 7.78 4.86 7.96
11/7/2022 10:45:00 PM 14.94 58.892 1.156 7.78 4.76 7.95
11/7/2022 11:00:00 PM 14.83 58.694 1.154 7.77 4.63 7.94
11/7/2022 11:15:00 PM 14.72 58.496 1.152 7.77 4.64 7.94
11/7/2022 11:30:00 PM 14.62 58.316 1.151 7.76 4.87 7.95
11/7/2022 11:45:00 PM 14.53 58.154 1.15 7.76 4.56 7.96
11/8/2022 12:00:00 AM 14.44 57.992 1.151 7.76 4.75 7.94
11/8/2022 12:15:00 AM 14.35 57.83 1.152 7.75 4.69 7.95
11/8/2022 12:30:00 AM 14.26 57.668 1.153 7.75 4.6 7.96
11/8/2022 12:45:00 AM 14.17 57.506 1.155 7.75 4.61 7.98
11/8/2022 1:00:00 AM 14.09 57.362 1.157 7.75 4.34 8
11/8/2022 1:15:00 AM 14.01 57.218 1.16 7.75 4.34 8.01
11/8/2022 1:30:00 AM 13.93 57.074 1.164 7.75 4.78 8.02
11/8/2022 1:45:00 AM 13.85 56.93 1.169 7.74 4.81 8.04
11/8/2022 2:00:00 AM 13.78 56.804 1.175 7.74 4.7 8.04
11/8/2022 2:15:00 AM 13.71 56.678 1.182 7.74 4.82 8.03
11/8/2022 2:30:00 AM 13.65 56.57 1.19 7.74 4.81 8.06
11/8/2022 2:45:00 AM 13.59 56.462 1.198 7.74 4.76 8.07
11/8/2022 3:00:00 AM 13.53 56.354 1.205 7.74 4.93 8.1
11/8/2022 3:15:00 AM 13.47 56.246 1.212 7.74 5.07 8.1
11/8/2022 3:30:00 AM 13.4 56.12 1.218 7.74 4.94 8.12
11/8/2022 3:45:00 AM 13.34 56.012 1.223 7.75 4.54 8.13
11/8/2022 4:00:00 AM 13.28 55.904 1.226 7.75 4.72 8.12
11/8/2022 4:15:00 AM 13.21 55.778 1.229 7.75 4.83 8.13
11/8/2022 4:30:00 AM 13.16 55.688 1.231 7.75 4.9 8.14
11/8/2022 4:45:00 AM 13.09 55.562 1.232 7.75 4.99 8.15
11/8/2022 5:00:00 AM 13.02 55.436 1.232 7.75 5.17 8.18
11/8/2022 5:15:00 AM 12.97 55.346 1.231 7.75 4.66 8.19
11/8/2022 5:30:00 AM 12.91 55.238 1.23 7.75 5.3 8.2
11/8/2022 5:45:00 AM 12.85 55.13 1.227 7.75 5.16 8.21
11/8/2022 6:00:00 AM 12.78 55.004 1.224 7.75 5.05 8.23
11/8/2022 6:15:00 AM 12.72 54.896 1.219 7.76 5.33 8.28
11/8/2022 6:30:00 AM 12.65 54.77 1.215 7.76 4.95 8.3
11/8/2022 6:45:00 AM 12.58 54.644 1.21 7.76 4.5 8.32
11/8/2022 7:00:00 AM 12.52 54.536 1.203 7.76 4.6 8.35
11/8/2022 7:15:00 AM 12.45 54.41 1.197 7.76 4.63 8.43
11/8/2022 7:30:00 AM 12.4 54.32 1.191 7.77 4.73 8.5
11/8/2022 7:45:00 AM 12.35 54.23 1.183 7.77 5.16 8.59
11/8/2022 8:00:00 AM 12.32 54.176 1.176 7.78 4.68 8.69
11/8/2022 8:15:00 AM 12.3 54.14 1.168 7.79 4.64 8.79
11/8/2022 8:30:00 AM 12.28 54.104 1.159 7.8 4.58 8.93
11/8/2022 8:45:00 AM 12.27 54.086 1.15 7.81 4.84 9.05
11/8/2022 9:00:00 AM 12.26 54.068 1.141 7.82 4.54 9.19
11/8/2022 9:15:00 AM 12.25 54.05 1.131 7.83 4.43 9.3
11/8/2022 9:30:00 AM 12.25 54.05 1.12 7.84 4.26 9.46
11/8/2022 9:45:00 AM 12.27 54.086 1.109 7.85 4.88 9.6
11/8/2022 10:00:00 AM 12.31 54.158 1.099 7.86 4.53 9.76
11/8/2022 10:15:00 AM 12.35 54.23 1.089 7.87 4.39 9.87
11/8/2022 10:30:00 AM 12.41 54.338 1.078 7.88 4.43 9.98
11/8/2022 10:45:00 AM 12.47 54.446 1.069 7.89 4.4 10.06
11/8/2022 11:00:00 AM 12.54 54.572 1.062 7.9 4.43 10.16
11/8/2022 11:15:00 AM 12.62 54.716 1.057 7.91 4.34 10.26
11/8/2022 11:30:00 AM 12.7 54.86 1.054 7.92 4.51 10.33
11/8/2022 11:45:00 AM 12.79 55.022 1.053 7.93 4.28 10.42
11/8/2022 12:00:00 PM 12.89 55.202 1.052 7.94 4.1 10.5
11/8/2022 12:15:00 PM 12.99 55.382 1.051 7.94 4.09 10.57
11/8/2022 12:30:00 PM 13.09 55.562 1.05 7.95 4.14 10.6
11/8/2022 12:45:00 PM 13.19 55.742 1.047 7.95 3.98 10.61
11/8/2022 1:00:00 PM 13.28 55.904 1.045 7.96 3.95 10.66
11/8/2022 1:15:00 PM 13.36 56.048 1.042 7.96 4.02 10.69
11/8/2022 1:30:00 PM 13.43 56.174 1.042 7.97 4.07 10.7
11/8/2022 1:45:00 PM 13.5 56.3 1.045 7.97 4.08 10.74
11/8/2022 2:00:00 PM 13.57 56.426 1.053 7.98 4.09 10.73
11/8/2022 2:15:00 PM 13.62 56.516 1.066 7.98 4.01 10.71
11/8/2022 2:30:00 PM 13.67 56.606 1.084 7.98 4.04 10.68
11/8/2022 2:45:00 PM 13.71 56.678 1.104 7.98 4.09 10.62
11/8/2022 3:00:00 PM 13.73 56.714 1.125 7.97 4.02 10.51
11/8/2022 3:15:00 PM 13.75 56.75 1.146 7.97 3.93 10.4
11/8/2022 3:30:00 PM 13.77 56.786 1.162 7.96 4.09 10.27
11/8/2022 3:45:00 PM 13.79 56.822 1.176 7.96 3.96 10.19
11/8/2022 4:00:00 PM 13.79 56.822 1.186 7.95 4.12 10.09
11/8/2022 4:15:00 PM 13.8 56.84 1.194 7.95 4.1 9.99
11/8/2022 4:30:00 PM 13.79 56.822 1.199 7.94 3.94 9.89
11/8/2022 4:45:00 PM 13.77 56.786 1.203 7.94 3.91 9.79
11/8/2022 5:00:00 PM 13.74 56.732 1.207 7.93 4.06 9.71
11/8/2022 5:15:00 PM 13.72 56.696 1.211 7.92 4.24 9.57
11/8/2022 5:30:00 PM 13.69 56.642 1.217 7.92 4.71 9.53
11/8/2022 5:45:00 PM 13.67 56.606 1.224 7.91 4.72 9.44
11/8/2022 6:00:00 PM 13.67 56.606 1.232 7.91 4.71 9.35
11/8/2022 6:15:00 PM 13.65 56.57 1.24 7.9 5.19 9.3
11/8/2022 6:30:00 PM 13.64 56.552 1.247 7.9 4.63 9.25
11/8/2022 6:45:00 PM 13.63 56.534 1.254 7.89 4.94 9.18
11/8/2022 7:00:00 PM 13.61 56.498 1.257 7.89 4.99 9.14
11/8/2022 7:15:00 PM 13.58 56.444 1.258 7.89 5.19 9.08
11/8/2022 7:30:00 PM 13.55 56.39 1.256 7.88 4.78 9.04
11/8/2022 7:45:00 PM 13.53 56.354 1.251 7.88 4.85 9.01
11/8/2022 8:00:00 PM 13.48 56.264 1.245 7.88 4.92 8.98
11/8/2022 8:15:00 PM 13.43 56.174 1.237 7.87 4.74 8.97
11/8/2022 8:30:00 PM 13.37 56.066 1.228 7.87 4.56 8.93
11/8/2022 8:45:00 PM 13.3 55.94 1.217 7.87 4.51 8.92
11/8/2022 9:00:00 PM 13.22 55.796 1.207 7.86 4.57 8.89
11/8/2022 9:15:00 PM 13.14 55.652 1.199 7.86 4.73 8.88
11/8/2022 9:30:00 PM 13.06 55.508 1.191 7.86 4.49 8.87
11/8/2022 9:45:00 PM 12.97 55.346 1.185 7.85 4.48 8.84
11/8/2022 10:00:00 PM 12.89 55.202 1.18 7.84 4.45 8.8
11/8/2022 10:15:00 PM 12.8 55.04 1.177 7.84 4.44 8.79
11/8/2022 10:30:00 PM 12.71 54.878 1.174 7.83 4.32 8.78
11/8/2022 10:45:00 PM 12.63 54.734 1.171 7.83 4.4 8.75
11/8/2022 11:00:00 PM 12.54 54.572 1.168 7.82 4.69 8.73
11/8/2022 11:15:00 PM 12.45 54.41 1.165 7.81 4.37 8.71
11/8/2022 11:30:00 PM 12.37 54.266 1.163 7.81 4.4 8.71
11/8/2022 11:45:00 PM 12.29 54.122 1.16 7.8 4.18 8.72
11/9/2022 12:00:00 AM 12.2 53.96 1.159 7.8 4.31 8.69
11/9/2022 12:15:00 AM 12.13 53.834 1.159 7.79 4.52 8.71
11/9/2022 12:30:00 AM 12.05 53.69 1.161 7.79 5.23 8.69
11/9/2022 12:45:00 AM 11.98 53.564 1.163 7.79 4.4 8.73
11/9/2022 1:00:00 AM 11.9 53.42 1.167 7.79 4.47 8.72
11/9/2022 1:15:00 AM 11.83 53.294 1.171 7.79 4.23 8.72
11/9/2022 1:30:00 AM 11.76 53.168 1.177 7.78 4.49 8.73
11/9/2022 1:45:00 AM 11.7 53.06 1.183 7.78 4.4 8.76
11/9/2022 2:00:00 AM 11.63 52.934 1.189 7.78 4.39 8.76
11/9/2022 2:15:00 AM 11.57 52.826 1.196 7.78 4.63 8.78
11/9/2022 2:30:00 AM 11.51 52.718 1.204 7.78 4.7 8.76
11/9/2022 2:45:00 AM 11.46 52.628 1.213 7.78 4.5 8.77
11/9/2022 3:00:00 AM 11.4 52.52 1.221 7.78 5.09 8.76
11/9/2022 3:15:00 AM 11.35 52.43 1.229 7.78 5.16 8.77
11/9/2022 3:30:00 AM 11.3 52.34 1.237 7.78 4.87 8.76
11/9/2022 3:45:00 AM 11.25 52.25 1.244 7.78 5.05 8.78
11/9/2022 4:00:00 AM 11.2 52.16 1.251 7.78 4.73 8.79
11/9/2022 4:15:00 AM 11.15 52.07 1.257 7.78 5.3 8.79
11/9/2022 4:30:00 AM 11.09 51.962 1.262 7.78 5.26 8.78
11/9/2022 4:45:00 AM 11.04 51.872 1.266 7.78 5.76 8.79
11/9/2022 5:00:00 AM 10.99 51.782 1.269 7.78 5.42 8.81
11/9/2022 5:15:00 AM 10.93 51.674 1.27 7.78 5.36 8.81
11/9/2022 5:30:00 AM 10.87 51.566 1.27 7.78 4.64 8.85
11/9/2022 5:45:00 AM 10.82 51.476 1.27 7.78 4.74 8.83
11/9/2022 6:00:00 AM 10.76 51.368 1.268 7.79 4.7 8.85
11/9/2022 6:15:00 AM 10.7 51.26 1.266 7.79 4.77 8.88
11/9/2022 6:30:00 AM 10.64 51.152 1.263 7.79 4.62 8.89
11/9/2022 6:45:00 AM 10.59 51.062 1.26 7.79 4.67 8.89
11/9/2022 7:00:00 AM 10.53 50.954 1.255 7.79 4.59 8.94
11/9/2022 7:15:00 AM 10.48 50.864 1.25 7.79 4.37 8.99
11/9/2022 7:30:00 AM 10.43 50.774 1.244 7.8 4.38 9.08
11/9/2022 7:45:00 AM 10.39 50.702 1.237 7.8 4.46 9.17
11/9/2022 8:00:00 AM 10.36 50.648 1.228 7.81 4.17 9.23
11/9/2022 8:15:00 AM 10.33 50.594 1.22 7.81 4.43 9.32
11/9/2022 8:30:00 AM 10.33 50.594 1.21 7.82 4.26 9.42
11/9/2022 8:45:00 AM 10.32 50.576 1.2 7.83 4.28 9.53
11/9/2022 9:00:00 AM 10.33 50.594 1.189 7.84 4.36 9.68
11/9/2022 9:15:00 AM 10.35 50.63 1.179 7.85 4.18 9.79
11/9/2022 9:30:00 AM 10.37 50.666 1.167 7.86 4.53 9.92
11/9/2022 9:45:00 AM 10.41 50.738 1.155 7.87 4.19 10.05
11/9/2022 10:00:00 AM 10.47 50.846 1.143 7.89 4.33 10.2
11/9/2022 10:15:00 AM 10.54 50.972 1.131 7.89 4.28 10.33
11/9/2022 10:30:00 AM 10.62 51.116 1.118 7.9 4.32 10.44
11/9/2022 10:45:00 AM 10.71 51.278 1.107 7.91 4.47 10.53
11/9/2022 11:00:00 AM 10.82 51.476 1.096 7.92 4.16 10.66
11/9/2022 11:15:00 AM 10.92 51.656 1.089 7.93 4.26 10.75
11/9/2022 11:30:00 AM 11.04 51.872 1.084 7.94 4.41 10.81
11/9/2022 11:45:00 AM 11.16 52.088 1.081 7.95 4.25 10.9
11/9/2022 12:00:00 PM 11.29 52.322 1.079 7.96 4.22 10.96
11/9/2022 12:15:00 PM 11.41 52.538 1.077 7.96 8.15 10.99
11/9/2022 12:30:00 PM 11.54 52.772 1.075 7.97 4.35 11.05
11/9/2022 12:45:00 PM 11.67 53.006 1.073 7.97 4.14 11.1
11/9/2022 1:00:00 PM 11.79 53.222 1.07 7.98 5.42 11.13
11/9/2022 1:15:00 PM 11.88 53.384 1.067 7.99 4.04 11.16
11/9/2022 1:30:00 PM 11.98 53.564 1.065 7.99 3.86 11.18
11/9/2022 1:45:00 PM 12.08 53.744 1.066 8 4.01 11.21
11/9/2022 2:00:00 PM 12.16 53.888 1.07 8 3.84 11.21
11/9/2022 2:15:00 PM 12.24 54.032 1.079 8 4 11.17
11/9/2022 2:30:00 PM 12.32 54.176 1.092 8 4.18 11.15
11/9/2022 2:45:00 PM 12.39 54.302 1.11 8 3.89 11.1
11/9/2022 3:00:00 PM 12.44 54.392 1.13 7.99 3.83 10.99
11/9/2022 3:15:00 PM 12.5 54.5 1.152 7.99 3.79 10.86
11/9/2022 3:30:00 PM 12.55 54.59 1.174 7.98 4.04 10.73
11/9/2022 3:45:00 PM 12.6 54.68 1.192 7.98 3.88 10.61
11/9/2022 4:00:00 PM 12.67 54.806 1.207 7.97 5.38 10.51
11/9/2022 4:15:00 PM 12.72 54.896 1.216 7.97 3.82 10.48
11/9/2022 4:30:00 PM 12.76 54.968 1.224 7.97 4.01 10.36
11/9/2022 4:45:00 PM 12.77 54.986 1.227 7.96 4.03 10.23
11/9/2022 5:00:00 PM 12.78 55.004 1.229 7.96 4.05 10.12
11/9/2022 5:15:00 PM 12.77 54.986 1.229 7.95 4.13 10.02
11/9/2022 5:30:00 PM 12.76 54.968 1.228 7.95 4.43 9.92
11/9/2022 5:45:00 PM 12.74 54.932 1.226 7.94 4.38 9.84
11/9/2022 6:00:00 PM 12.73 54.914 1.225 7.94 6.34 9.79
11/9/2022 6:15:00 PM 12.73 54.914 1.225 7.94 4.98 9.75
11/9/2022 6:30:00 PM 12.72 54.896 1.226 7.93 5.26 9.67
11/9/2022 6:45:00 PM 12.71 54.878 1.228 7.93 4.95 9.59
11/9/2022 7:00:00 PM 12.69 54.842 1.231 7.93 5.08 9.53
11/9/2022 7:15:00 PM 12.67 54.806 1.235 7.92 4.98 9.47
11/9/2022 7:30:00 PM 12.67 54.806 1.24 7.92 5.1 9.42
11/9/2022 7:45:00 PM 12.65 54.77 1.245 7.91 5 9.38
11/9/2022 8:00:00 PM 12.64 54.752 1.25 7.91 4.98 9.34
11/9/2022 8:15:00 PM 12.62 54.716 1.254 7.91 5.68 9.26
11/9/2022 8:30:00 PM 12.6 54.68 1.258 7.9 4.79 9.24
11/9/2022 8:45:00 PM 12.58 54.644 1.26 7.9 5.08 9.19
11/9/2022 9:00:00 PM 12.54 54.572 1.26 7.89 4.8 9.14
11/9/2022 9:15:00 PM 12.5 54.5 1.258 7.89 4.81 9.13
11/9/2022 9:30:00 PM 12.46 54.428 1.254 7.88 5.61 9.09
11/9/2022 9:45:00 PM 12.4 54.32 1.248 7.88 4.86 9.05
11/9/2022 10:00:00 PM 12.34 54.212 1.242 7.87 4.71 9.03
11/9/2022 10:15:00 PM 12.27 54.086 1.236 7.87 4.67 9
11/9/2022 10:30:00 PM 12.2 53.96 1.232 7.86 4.64 8.97
11/9/2022 10:45:00 PM 12.13 53.834 1.229 7.86 4.68 8.94
11/9/2022 11:00:00 PM 12.07 53.726 1.227 7.85 4.66 8.94
11/9/2022 11:15:00 PM 12 53.6 1.225 7.85 4.84 8.91
11/9/2022 11:30:00 PM 11.94 53.492 1.224 7.84 4.52 8.87
11/9/2022 11:45:00 PM 11.87 53.366 1.223 7.84 5.83 8.81
11/10/2022 12:00:00 AM 11.81 53.258 1.222 7.83 4.42 8.83
11/10/2022 12:15:00 AM 11.75 53.15 1.222 7.83 4.33 8.83
11/10/2022 12:30:00 AM 11.69 53.042 1.223 7.83 4.57 8.83
11/10/2022 12:45:00 AM 11.63 52.934 1.225 7.82 4.36 8.82
11/10/2022 1:00:00 AM 11.58 52.844 1.228 7.82 4.38 8.83
11/10/2022 1:15:00 AM 11.53 52.754 1.233 7.82 4.47 8.78
11/10/2022 1:30:00 AM 11.48 52.664 1.239 7.81 4.5 8.83
11/10/2022 1:45:00 AM 11.44 52.592 1.245 7.81 4.56 8.8
11/10/2022 2:00:00 AM 11.4 52.52 1.252 7.81 4.51 8.81
11/10/2022 2:15:00 AM 11.36 52.448 1.259 7.81 4.46 8.81
11/10/2022 2:30:00 AM 11.32 52.376 1.267 7.8 4.38 8.79
11/10/2022 2:45:00 AM 11.28 52.304 1.274 7.8 4.5 8.79
11/10/2022 3:00:00 AM 11.25 52.25 1.282 7.8 4.33 8.77
11/10/2022 3:15:00 AM 11.22 52.196 1.288 7.8 4.5 8.77
11/10/2022 3:30:00 AM 11.18 52.124 1.294 7.8 4.28 8.76
11/10/2022 3:45:00 AM 11.14 52.052 1.299 7.79 4.56 8.75
11/10/2022 4:00:00 AM 11.11 51.998 1.304 7.79 4.44 8.77
11/10/2022 4:15:00 AM 11.07 51.926 1.307 7.79 4.53 8.72
11/10/2022 4:30:00 AM 11.03 51.854 1.311 7.79 4.33 8.78
11/10/2022 4:45:00 AM 10.99 51.782 1.313 7.79 4.53 8.77
11/10/2022 5:00:00 AM 10.96 51.728 1.315 7.79 4.59 8.78
11/10/2022 5:15:00 AM 10.91 51.638 1.317 7.79 4.58 8.81
11/10/2022 5:30:00 AM 10.87 51.566 1.317 7.79 4.4 8.8
11/10/2022 5:45:00 AM 10.83 51.494 1.316 7.79 4.51 8.8
11/10/2022 6:00:00 AM 10.79 51.422 1.315 7.79 4.78 8.81
11/10/2022 6:15:00 AM 10.75 51.35 1.312 7.79 4.8 8.83
11/10/2022 6:30:00 AM 10.71 51.278 1.308 7.79 5.16 8.8
11/10/2022 6:45:00 AM 10.67 51.206 1.304 7.79 4.89 8.83
11/10/2022 7:00:00 AM 10.63 51.134 1.298 7.79 4.97 8.87
11/10/2022 7:15:00 AM 10.59 51.062 1.292 7.79 4.88 8.94
11/10/2022 7:30:00 AM 10.56 51.008 1.285 7.8 4.95 9
11/10/2022 7:45:00 AM 10.54 50.972 1.277 7.8 4.82 9.08
11/10/2022 8:00:00 AM 10.52 50.936 1.268 7.81 4.66 9.14
11/10/2022 8:15:00 AM 10.52 50.936 1.259 7.81 4.64 9.24
11/10/2022 8:30:00 AM 10.53 50.954 1.25 7.82 4.62 9.35
11/10/2022 8:45:00 AM 10.55 50.99 1.239 7.83 4.53 9.46
11/10/2022 9:00:00 AM 10.59 51.062 1.229 7.84 4.64 9.59
11/10/2022 9:15:00 AM 10.64 51.152 1.218 7.85 4.71 9.74
11/10/2022 9:30:00 AM 10.69 51.242 1.207 7.86 4.59 9.85
11/10/2022 9:45:00 AM 10.77 51.386 1.194 7.87 4.96 9.94
11/10/2022 10:00:00 AM 10.86 51.548 1.182 7.88 4.73 10.13
11/10/2022 10:15:00 AM 10.96 51.728 1.169 7.89 4.43 10.26
11/10/2022 10:30:00 AM 11.07 51.926 1.157 7.9 4.39 10.35
11/10/2022 10:45:00 AM 11.17 52.106 1.146 7.91 4.78 10.46
11/10/2022 11:00:00 AM 11.3 52.34 1.134 7.92 4.24 10.53
11/10/2022 11:15:00 AM 11.43 52.574 1.124 7.93 4.36 10.63
11/10/2022 11:30:00 AM 11.58 52.844 1.116 7.93 4.47 10.73
11/10/2022 11:45:00 AM 11.73 53.114 1.11 7.94 4.1 10.75
11/10/2022 12:00:00 PM 11.88 53.384 1.106 7.95 4.12 10.85
11/10/2022 12:15:00 PM 12.03 53.654 1.103 7.96 4.09 10.86
11/10/2022 12:30:00 PM 12.18 53.924 1.1 7.96 4.04 10.94
11/10/2022 12:45:00 PM 12.33 54.194 1.096 7.97 4.07 10.94
11/10/2022 1:00:00 PM 12.46 54.428 1.092 7.97 4.26 10.99
11/10/2022 1:15:00 PM 12.59 54.662 1.088 7.98 4.4 11.01
11/10/2022 1:30:00 PM 12.7 54.86 1.085 7.98 3.97 11.02
11/10/2022 1:45:00 PM 12.83 55.094 1.085 7.99 3.89 11.02
11/10/2022 2:00:00 PM 12.93 55.274 1.089 7.99 3.93 11.07
11/10/2022 2:15:00 PM 13.04 55.472 1.098 7.99 4.05 11.01
11/10/2022 2:30:00 PM 13.13 55.634 1.112 7.99 3.86 10.98
11/10/2022 2:45:00 PM 13.23 55.814 1.13 7.99 4.03 10.89
11/10/2022 3:00:00 PM 13.32 55.976 1.152 7.98 3.91 10.8
11/10/2022 3:15:00 PM 13.39 56.102 1.176 7.98 3.91 10.66
11/10/2022 3:30:00 PM 13.48 56.264 1.201 7.97 3.96 10.54
11/10/2022 3:45:00 PM 13.56 56.408 1.224 7.96 3.92 10.42
11/10/2022 4:00:00 PM 13.64 56.552 1.245 7.96 4.08 10.29
11/10/2022 4:15:00 PM 13.72 56.696 1.264 7.95 3.98 10.17
11/10/2022 4:30:00 PM 13.79 56.822 1.279 7.95 4.21 10.07
11/10/2022 4:45:00 PM 13.85 56.93 1.29 7.94 4.15 9.88
11/10/2022 5:00:00 PM 13.89 57.002 1.297 7.93 4.46 9.78
11/10/2022 5:15:00 PM 13.93 57.074 1.302 7.93 4.26 9.66
11/10/2022 5:30:00 PM 13.97 57.146 1.304 7.92 4.68 9.55
11/10/2022 5:45:00 PM 14 57.2 1.304 7.92 5.19 9.48
11/10/2022 6:00:00 PM 14.03 57.254 1.303 7.91 5.23 9.39
11/10/2022 6:15:00 PM 14.07 57.326 1.301 7.91 4.83 9.34
11/10/2022 6:30:00 PM 14.08 57.344 1.3 7.91 4.97 9.26
11/10/2022 6:45:00 PM 14.1 57.38 1.299 7.9 4.78 9.18
11/10/2022 7:00:00 PM 14.1 57.38 1.299 7.9 4.99 9.12
11/10/2022 7:15:00 PM 14.12 57.416 1.3 7.89 4.91 9.06
11/10/2022 7:30:00 PM 14.13 57.434 1.3 7.89 5.02 9
11/10/2022 7:45:00 PM 14.16 57.488 1.3 7.89 5.35 8.95
11/10/2022 8:00:00 PM 14.18 57.524 1.3 7.88 5.16 8.89
11/10/2022 8:15:00 PM 14.19 57.542 1.299 7.88 5.1 8.82
11/10/2022 8:30:00 PM 14.21 57.578 1.296 7.87 5.26 8.77
11/10/2022 8:45:00 PM 14.23 57.614 1.293 7.87 5.04 8.73
11/10/2022 9:00:00 PM 14.24 57.632 1.288 7.86 5.03 8.67
11/10/2022 9:15:00 PM 14.25 57.65 1.282 7.86 5.28 8.64
11/10/2022 9:30:00 PM 14.23 57.614 1.276 7.85 4.91 8.59
11/10/2022 9:45:00 PM 14.2 57.56 1.269 7.85 4.86 8.53
11/10/2022 10:00:00 PM 14.18 57.524 1.261 7.84 5.24 8.51
11/10/2022 10:15:00 PM 14.15 57.47 1.254 7.84 5.12 8.45
11/10/2022 10:30:00 PM 14.11 57.398 1.248 7.83 4.98 8.4
11/10/2022 10:45:00 PM 14.08 57.344 1.243 7.83 5.28 8.37
11/10/2022 11:00:00 PM 14.04 57.272 1.238 7.82 4.89 8.33
11/10/2022 11:15:00 PM 14.01 57.218 1.234 7.82 4.96 8.28
11/10/2022 11:30:00 PM 13.98 57.164 1.232 7.81 4.95 8.25
11/10/2022 11:45:00 PM 13.96 57.128 1.23 7.8 5.19 8.2
11/11/2022 12:00:00 AM 13.94 57.092 1.23 7.8 5.2 8.16
11/11/2022 12:15:00 AM 13.92 57.056 1.23 7.79 5.36 8.14
11/11/2022 12:30:00 AM 13.9 57.02 1.231 7.79 4.7 8.11
11/11/2022 12:45:00 AM 13.88 56.984 1.232 7.78 5.31 8.07
11/11/2022 1:00:00 AM 13.86 56.948 1.235 7.78 5 8.06
11/11/2022 1:15:00 AM 13.85 56.93 1.239 7.78 4.68 8.05
11/11/2022 1:30:00 AM 13.85 56.93 1.243 7.77 4.73 8.01
11/11/2022 1:45:00 AM 13.85 56.93 1.248 7.77 4.61 7.99
11/11/2022 2:00:00 AM 13.85 56.93 1.253 7.77 4.78 7.94
11/11/2022 2:15:00 AM 13.85 56.93 1.259 7.77 4.52 7.91
11/11/2022 2:30:00 AM 13.86 56.948 1.265 7.77 4.95 7.94
11/11/2022 2:45:00 AM 13.86 56.948 1.271 7.76 4.85 7.92
11/11/2022 3:00:00 AM 13.87 56.966 1.276 7.76 4.74 7.9
11/11/2022 3:15:00 AM 13.88 56.984 1.282 7.76 4.93 7.87
11/11/2022 3:30:00 AM 13.87 56.966 1.287 7.76 4.79 7.85
11/11/2022 3:45:00 AM 13.86 56.948 1.292 7.76 4.72 7.84
11/11/2022 4:00:00 AM 13.85 56.93 1.296 7.76 5.18 7.85
11/11/2022 4:15:00 AM 13.84 56.912 1.3 7.75 5.51 7.83
11/11/2022 4:30:00 AM 13.83 56.894 1.303 7.75 4.87 7.8
11/11/2022 4:45:00 AM 13.81 56.858 1.305 7.75 5.16 7.82
11/11/2022 5:00:00 AM 13.81 56.858 1.306 7.75 5.13 7.82
11/11/2022 5:15:00 AM 13.81 56.858 1.306 7.75 5.46 7.78
11/11/2022 5:30:00 AM 13.81 56.858 1.306 7.75 4.98 7.75
11/11/2022 5:45:00 AM 13.81 56.858 1.305 7.75 4.71 7.78
11/11/2022 6:00:00 AM 13.82 56.876 1.303 7.75 5 7.79
11/11/2022 6:15:00 AM 13.83 56.894 1.301 7.75 5.01 7.8
11/11/2022 6:30:00 AM 13.83 56.894 1.298 7.75 4.91 7.79
11/11/2022 6:45:00 AM 13.84 56.912 1.296 7.75 4.94 7.81
11/11/2022 7:00:00 AM 13.85 56.93 1.292 7.75 4.87 7.8
11/11/2022 7:15:00 AM 13.85 56.93 1.288 7.76 4.93 7.8
11/11/2022 7:30:00 AM 13.86 56.948 1.283 7.76 4.93 7.84
11/11/2022 7:45:00 AM 13.88 56.984 1.277 7.76 4.82 7.86
11/11/2022 8:00:00 AM 13.89 57.002 1.27 7.76 4.87 7.94
11/11/2022 8:15:00 AM 13.91 57.038 1.262 7.77 4.64 7.97
11/11/2022 8:30:00 AM 13.94 57.092 1.253 7.77 4.66 8.08
11/11/2022 8:45:00 AM 13.96 57.128 1.244 7.78 4.65 8.18
11/11/2022 9:00:00 AM 13.98 57.164 1.234 7.78 4.38 8.15
11/11/2022 9:15:00 AM 14 57.2 1.224 7.78 4.31 8.2
11/11/2022 9:30:00 AM 14.02 57.236 1.212 7.79 4.44 8.27
11/11/2022 9:45:00 AM 14.05 57.29 1.199 7.79 4.45 8.3
11/11/2022 10:00:00 AM 14.07 57.326 1.186 7.79 4.64 8.35
11/11/2022 10:15:00 AM 14.1 57.38 1.172 7.8 4.9 8.46
11/11/2022 10:30:00 AM 14.13 57.434 1.157 7.81 4.3 8.54
11/11/2022 10:45:00 AM 14.16 57.488 1.142 7.81 4.43 8.61
11/11/2022 11:00:00 AM 14.19 57.542 1.13 7.82 4.27 8.67
11/11/2022 11:15:00 AM 14.21 57.578 1.119 7.82 5.2 8.69
11/11/2022 11:30:00 AM 14.24 57.632 1.11 7.82 4.67 8.69
11/11/2022 11:45:00 AM 14.27 57.686 1.105 7.82 4.28 8.69
11/11/2022 12:00:00 PM 14.31 57.758 1.101 7.82 4.51 8.64
11/11/2022 12:15:00 PM 14.35 57.83 1.098 7.82 4.31 8.71
11/11/2022 12:30:00 PM 14.4 57.92 1.094 7.82 4.28 8.67
11/11/2022 12:45:00 PM 14.45 58.01 1.09 7.82 4.35 8.64
11/11/2022 1:00:00 PM 14.51 58.118 1.084 7.82 4.25 8.64
11/11/2022 1:15:00 PM 14.57 58.226 1.075 7.82 4.6 8.66
11/11/2022 1:30:00 PM 14.61 58.298 1.065 7.82 5.59 8.61
11/11/2022 1:45:00 PM 14.68 58.424 1.055 7.82 5.95 8.67
11/11/2022 2:00:00 PM 14.77 58.586 1.055 7.83 5.37 8.83
11/11/2022 2:15:00 PM 14.87 58.766 1.066 7.84 4.72 8.95
11/11/2022 2:30:00 PM 14.96 58.928 1.083 7.84 4.67 8.98
11/11/2022 2:45:00 PM 15.04 59.072 1.099 7.83 4.65 8.86
11/11/2022 3:00:00 PM 15.12 59.216 1.119 7.82 5.21 8.75
11/11/2022 3:15:00 PM 15.2 59.36 1.14 7.81 4.92 8.68
11/11/2022 3:30:00 PM 15.29 59.522 1.16 7.81 5.2 8.62
11/11/2022 3:45:00 PM 15.38 59.684 1.175 7.8 5.95 8.53
11/11/2022 4:00:00 PM 15.49 59.882 1.188 7.8 14.16 8.49
11/11/2022 4:15:00 PM 15.6 60.08 1.194 7.79 23.79 8.45
11/11/2022 4:30:00 PM 15.67 60.206 1.191 7.79 20.08 8.42
11/11/2022 4:45:00 PM 15.75 60.35 1.192 7.78 19.07 8.37
11/11/2022 5:00:00 PM 15.84 60.512 1.19 7.78 16.98 8.32
11/11/2022 5:15:00 PM 15.88 60.584 1.181 7.77 17.15 8.26
11/11/2022 5:30:00 PM 15.92 60.656 1.166 7.76 14.46 8.21
11/11/2022 5:45:00 PM 15.94 60.692 1.149 7.75 13.27 8.18
11/11/2022 6:00:00 PM 15.95 60.71 1.119 7.74 13.71 8.13
11/11/2022 6:15:00 PM 15.94 60.692 1.078 7.73 12.88 8.08
11/11/2022 6:30:00 PM 15.91 60.638 1.027 7.72 12.88 8.04
11/11/2022 6:45:00 PM 15.86 60.548 0.971 7.71 26.82 7.99
11/11/2022 7:00:00 PM 15.81 60.458 0.914 7.69 11.89 7.95
11/11/2022 7:15:00 PM 15.78 60.404 0.864 7.68 12.55 7.89
11/11/2022 7:30:00 PM 15.77 60.386 0.822 7.66 12.53 7.8
11/11/2022 7:45:00 PM 15.79 60.422 0.788 7.64 12.9 7.71
11/11/2022 8:00:00 PM 15.84 60.512 0.763 7.62 13.2 7.61
11/11/2022 8:15:00 PM 15.91 60.638 0.748 7.61 13.43 7.52
11/11/2022 8:30:00 PM 15.99 60.782 0.743 7.59 12.78 7.45
11/11/2022 8:45:00 PM 16.06 60.908 0.747 7.58 12.17 7.38
11/11/2022 9:00:00 PM 16.13 61.034 0.753 7.57 11.78 7.33
11/11/2022 9:15:00 PM 16.18 61.124 0.758 7.56 11.31 7.31
11/11/2022 9:30:00 PM 16.22 61.196 0.762 7.55 10.44 7.27
11/11/2022 9:45:00 PM 16.25 61.25 0.766 7.55 10.67 7.26
11/11/2022 10:00:00 PM 16.28 61.304 0.77 7.55 9.99 7.25
11/11/2022 10:15:00 PM 16.31 61.358 0.774 7.55 9.65 7.24
11/11/2022 10:30:00 PM 16.34 61.412 0.778 7.55 9.52 7.23
11/11/2022 10:45:00 PM 16.36 61.448 0.782 7.55 9.02 7.23
11/11/2022 11:00:00 PM 16.36 61.448 0.786 7.55 8.68 7.22
11/11/2022 11:15:00 PM 16.37 61.466 0.792 7.55 8.73 7.21
11/11/2022 11:30:00 PM 16.37 61.466 0.798 7.55 9.01 7.2
11/11/2022 11:45:00 PM 16.38 61.484 0.805 7.55 8.77 7.2
11/12/2022 12:00:00 AM 16.39 61.502 0.813 7.55 7.81 7.18
11/12/2022 12:15:00 AM 16.4 61.52 0.821 7.55 8.1 7.16
11/12/2022 12:30:00 AM 16.4 61.52 0.83 7.55 7.81 7.16
11/12/2022 12:45:00 AM 16.41 61.538 0.841 7.56 7.69 7.14
11/12/2022 1:00:00 AM 16.43 61.574 0.851 7.56 8.16 7.15
11/12/2022 1:15:00 AM 16.44 61.592 0.861 7.56 7.72 7.13
11/12/2022 1:30:00 AM 16.46 61.628 0.872 7.56 7.99 7.12
11/12/2022 1:45:00 AM 16.47 61.646 0.881 7.57 7.9 7.11
11/12/2022 2:00:00 AM 16.48 61.664 0.89 7.57 7.59 7.08
11/12/2022 2:15:00 AM 16.49 61.682 0.898 7.57 7.58 7.07
11/12/2022 2:30:00 AM 16.5 61.7 0.906 7.57 7.32 7.06
11/12/2022 2:45:00 AM 16.51 61.718 0.912 7.57 7.15 7.06
11/12/2022 3:00:00 AM 16.52 61.736 0.917 7.58 6.79 7.07
11/12/2022 3:15:00 AM 16.54 61.772 0.917 7.58 7.07 7.13
11/12/2022 3:30:00 AM 16.53 61.754 0.918 7.59 7.6 7.14
11/12/2022 3:45:00 AM 16.51 61.718 0.916 7.59 7.34 7.11
11/12/2022 4:00:00 AM 16.48 61.664 0.921 7.59 6.92 7.15
11/12/2022 4:15:00 AM 16.44 61.592 0.927 7.6 7 7.16
11/12/2022 4:30:00 AM 16.4 61.52 0.933 7.6 7.03 7.15
11/12/2022 4:45:00 AM 16.36 61.448 0.937 7.6 7.03 7.2
11/12/2022 5:00:00 AM 16.31 61.358 0.94 7.61 7.25 7.22
11/12/2022 5:15:00 AM 16.26 61.268 0.943 7.61 7.45 7.26
11/12/2022 5:30:00 AM 16.21 61.178 0.944 7.62 7.53 7.29
11/12/2022 5:45:00 AM 16.17 61.106 0.945 7.62 7.45 7.34
11/12/2022 6:00:00 AM 16.13 61.034 0.947 7.63 8.17 7.36
11/12/2022 6:15:00 AM 16.1 60.98 0.95 7.63 8.47 7.41
11/12/2022 6:30:00 AM 16.06 60.908 0.949 7.64 8.94 7.44
11/12/2022 6:45:00 AM 16.01 60.818 0.944 7.65 7.87 7.48
11/12/2022 7:00:00 AM 15.97 60.746 0.936 7.65 7.92 7.52
11/12/2022 7:15:00 AM 15.92 60.656 0.928 7.66 7.65 7.57
11/12/2022 7:30:00 AM 15.87 60.566 0.92 7.66 7.26 7.62
11/12/2022 7:45:00 AM 15.83 60.494 0.913 7.67 6.89 7.69
11/12/2022 8:00:00 AM 15.79 60.422 0.907 7.67 7.13 7.77
11/12/2022 8:15:00 AM 15.75 60.35 0.901 7.67 6.55 7.81
11/12/2022 8:30:00 AM 15.73 60.314 0.895 7.68 6.24 7.92
11/12/2022 8:45:00 AM 15.7 60.26 0.886 7.68 5.98 7.98
11/12/2022 9:00:00 AM 15.69 60.242 0.875 7.69 6.11 8.06
11/12/2022 9:15:00 AM 15.67 60.206 0.86 7.69 5.72 8.1
11/12/2022 9:30:00 AM 15.66 60.188 0.843 7.69 5.79 8.17
11/12/2022 9:45:00 AM 15.65 60.17 0.826 7.69 5.42 8.22
11/12/2022 10:00:00 AM 15.66 60.188 0.808 7.69 5.67 8.32
11/12/2022 10:15:00 AM 15.68 60.224 0.793 7.7 5.49 8.41
11/12/2022 10:30:00 AM 15.75 60.35 0.781 7.7 5.22 8.53
11/12/2022 10:45:00 AM 15.82 60.476 0.771 7.7 5.54 8.6
11/12/2022 11:00:00 AM 15.89 60.602 0.763 7.71 5.48 8.66
11/12/2022 11:15:00 AM 15.92 60.656 0.758 7.7 5.51 8.66
11/12/2022 11:30:00 AM 15.94 60.692 0.754 7.7 5.6 8.63
11/12/2022 11:45:00 AM 16.04 60.872 0.753 7.71 5.35 8.74
11/12/2022 12:00:00 PM 16.12 61.016 0.754 7.71 5.56 8.78
11/12/2022 12:15:00 PM 16.15 61.07 0.757 7.71 5.49 8.73
11/12/2022 12:30:00 PM 16.23 61.214 0.761 7.71 5.49 8.86
11/12/2022 12:45:00 PM 16.34 61.412 0.768 7.73 5.67 9.01
11/12/2022 1:00:00 PM 16.4 61.52 0.777 7.73 5.05 9.09
11/12/2022 1:15:00 PM 16.39 61.502 0.791 7.74 5.17 9.06
11/12/2022 1:30:00 PM 16.37 61.466 0.808 7.74 5.15 9
11/12/2022 1:45:00 PM 16.39 61.502 0.828 7.74 10.56 9.05
11/12/2022 2:00:00 PM 16.43 61.574 0.851 7.75 7.12 9.06
11/12/2022 2:15:00 PM 16.47 61.646 0.874 7.76 5.52 9.13
11/12/2022 2:30:00 PM 16.49 61.682 0.896 7.77 5.36 9.24
11/12/2022 2:45:00 PM 16.48 61.664 0.919 7.78 5.21 9.24
11/12/2022 3:00:00 PM 16.46 61.628 0.942 7.78 5.11 9.23
11/12/2022 3:15:00 PM 16.46 61.628 0.963 7.78 5 9.17
11/12/2022 3:30:00 PM 16.5 61.7 0.984 7.79 4.61 9.18
11/12/2022 3:45:00 PM 16.51 61.718 1.004 7.79 4.67 9.16
11/12/2022 4:00:00 PM 16.51 61.718 1.023 7.79 7.84 9.04
11/12/2022 4:15:00 PM 16.51 61.718 1.04 7.79 4.46 8.95
11/12/2022 4:30:00 PM 16.51 61.718 1.052 7.79 4.55 8.87
11/12/2022 4:45:00 PM 16.5 61.7 1.061 7.79 4.49 8.79
11/12/2022 5:00:00 PM 16.48 61.664 1.066 7.79 4.38 8.71
11/12/2022 5:15:00 PM 16.46 61.628 1.068 7.79 5.73 8.67
11/12/2022 5:30:00 PM 16.43 61.574 1.068 7.78 5.75 8.6
11/12/2022 5:45:00 PM 16.41 61.538 1.068 7.78 5.48 8.56
11/12/2022 6:00:00 PM 16.38 61.484 1.068 7.78 5.55 8.52
11/12/2022 6:15:00 PM 16.34 61.412 1.067 7.78 5.53 8.47
11/12/2022 6:30:00 PM 16.29 61.322 1.067 7.78 5.39 8.44
11/12/2022 6:45:00 PM 16.24 61.232 1.066 7.78 6.57 8.38
11/12/2022 7:00:00 PM 16.19 61.142 1.066 7.78 5.52 8.35
11/12/2022 7:15:00 PM 16.15 61.07 1.065 7.77 5.72 8.29
11/12/2022 7:30:00 PM 16.1 60.98 1.064 7.77 6.15 8.26
11/12/2022 7:45:00 PM 16.06 60.908 1.063 7.77 5.62 8.2
11/12/2022 8:00:00 PM 16.01 60.818 1.062 7.76 5.39 8.16
11/12/2022 8:15:00 PM 15.96 60.728 1.061 7.76 5.61 8.13
11/12/2022 8:30:00 PM 15.91 60.638 1.061 7.75 5.74 8.07
11/12/2022 8:45:00 PM 15.85 60.53 1.062 7.75 5.23 8.05
11/12/2022 9:00:00 PM 15.8 60.44 1.063 7.75 5.32 8.01
11/12/2022 9:15:00 PM 15.76 60.368 1.065 7.74 5.41 7.96
11/12/2022 9:30:00 PM 15.72 60.296 1.066 7.74 5.53 7.92
11/12/2022 9:45:00 PM 15.68 60.224 1.068 7.73 5.3 7.89
11/12/2022 10:00:00 PM 15.63 60.134 1.069 7.73 5.39 7.86
11/12/2022 10:15:00 PM 15.59 60.062 1.071 7.73 5.06 7.81
11/12/2022 10:30:00 PM 15.54 59.972 1.072 7.72 5.8 7.78
11/12/2022 10:45:00 PM 15.49 59.882 1.072 7.72 5.55 7.76
11/12/2022 11:00:00 PM 15.44 59.792 1.07 7.72 5.51 7.73
11/12/2022 11:15:00 PM 15.38 59.684 1.069 7.72 5.74 7.73
11/12/2022 11:30:00 PM 15.31 59.558 1.067 7.71 5.7 7.71
11/12/2022 11:45:00 PM 15.24 59.432 1.066 7.71 5.51 7.71
11/13/2022 12:00:00 AM 15.17 59.306 1.066 7.71 5.84 7.73
11/13/2022 12:15:00 AM 15.12 59.216 1.066 7.71 5.61 7.71
11/13/2022 12:30:00 AM 15.06 59.108 1.067 7.71 5.42 7.72
11/13/2022 12:45:00 AM 15 59 1.068 7.71 5.46 7.72
11/13/2022 1:00:00 AM 14.94 58.892 1.069 7.7 5.24 7.72
11/13/2022 1:15:00 AM 14.87 58.766 1.069 7.7 5.48 7.73
11/13/2022 1:30:00 AM 14.79 58.622 1.069 7.7 5.27 7.74
11/13/2022 1:45:00 AM 14.72 58.496 1.069 7.7 5.05 7.76
11/13/2022 2:00:00 AM 14.64 58.352 1.068 7.7 7.07 7.76
11/13/2022 2:15:00 AM 14.55 58.19 1.067 7.71 5.45 7.81
11/13/2022 2:30:00 AM 14.48 58.064 1.066 7.71 5.44 7.78
11/13/2022 2:45:00 AM 14.4 57.92 1.064 7.71 5.69 7.83
11/13/2022 3:00:00 AM 14.32 57.776 1.062 7.71 5.75 7.86
11/13/2022 3:15:00 AM 14.25 57.65 1.061 7.71 5.34 7.87
11/13/2022 3:30:00 AM 14.17 57.506 1.059 7.71 5.41 7.88
11/13/2022 3:45:00 AM 14.09 57.362 1.058 7.71 5.35 7.92
11/13/2022 4:00:00 AM 14.01 57.218 1.056 7.71 5.13 7.93
11/13/2022 4:15:00 AM 13.92 57.056 1.054 7.71 5.16 7.96
11/13/2022 4:30:00 AM 13.84 56.912 1.052 7.71 4.98 7.98
11/13/2022 4:45:00 AM 13.75 56.75 1.051 7.71 4.93 8.01
11/13/2022 5:00:00 AM 13.67 56.606 1.048 7.71 6.07 8.04
11/13/2022 5:15:00 AM 13.58 56.444 1.046 7.71 10.02 8.05
11/13/2022 5:30:00 AM 13.49 56.282 1.044 7.71 13.37 8.06
11/13/2022 5:45:00 AM 13.4 56.12 1.041 7.71 4.98 8.11
11/13/2022 6:00:00 AM 13.3 55.94 1.039 7.71 5.58 8.14
11/13/2022 6:15:00 AM 13.22 55.796 1.036 7.72 5.45 8.15
11/13/2022 6:30:00 AM 13.14 55.652 1.034 7.72 5.3 8.18
11/13/2022 6:45:00 AM 13.06 55.508 1.03 7.72 5.03 8.22
11/13/2022 7:00:00 AM 12.99 55.382 1.027 7.72 4.96 8.26
11/13/2022 7:15:00 AM 12.92 55.256 1.022 7.73 4.97 8.29
11/13/2022 7:30:00 AM 12.85 55.13 1.018 7.73 5.05 8.33
11/13/2022 7:45:00 AM 12.78 55.004 1.014 7.74 4.81 8.45
11/13/2022 8:00:00 AM 12.72 54.896 1.01 7.75 4.71 8.55
11/13/2022 8:15:00 AM 12.65 54.77 1.005 7.76 4.5 8.68
11/13/2022 8:30:00 AM 12.59 54.662 1.001 7.76 4.63 8.77
11/13/2022 8:45:00 AM 12.54 54.572 0.996 7.77 4.44 8.87
11/13/2022 9:00:00 AM 12.49 54.482 0.991 7.78 4.38 8.99
11/13/2022 9:15:00 AM -99999.99 -179968 -99999.99 -99999.99 -99999.99 -99999.99
11/13/2022 9:30:00 AM -99999.99 -179968 -99999.99 -99999.99 -99999.99 -99999.99
11/13/2022 9:45:00 AM -99999.99 -179968 -99999.99 -99999.99 -99999.99 -99999.99
11/13/2022 10:00:00 AM 12.43 54.374 0.972 7.83 4.4 9.55
11/13/2022 10:15:00 AM 12.41 54.338 0.97 7.84 4.07 9.63
11/13/2022 10:30:00 AM 12.39 54.302 0.968 7.84 4.17 9.72
11/13/2022 10:45:00 AM 12.42 54.356 0.968 7.85 4.64 9.84
11/13/2022 11:00:00 AM 12.48 54.464 0.968 7.87 4.73 9.99
11/13/2022 11:15:00 AM 12.51 54.518 0.968 7.88 4.27 10.07
11/13/2022 11:30:00 AM 12.53 54.554 0.967 7.88 4.35 10.11
11/13/2022 11:45:00 AM 12.53 54.554 0.965 7.89 4.03 10.15
11/13/2022 12:00:00 PM 12.56 54.608 0.962 7.9 4.08 10.23
11/13/2022 12:15:00 PM 12.61 54.698 0.958 7.9 4.1 10.33
11/13/2022 12:30:00 PM 12.61 54.698 0.955 7.91 4.13 10.31
11/13/2022 12:45:00 PM 12.58 54.644 0.952 7.91 4.07 10.32
11/13/2022 1:00:00 PM 12.65 54.77 0.95 7.92 3.84 10.47
11/13/2022 1:15:00 PM 12.7 54.86 0.949 7.94 3.9 10.63
11/13/2022 1:30:00 PM 12.69 54.842 0.95 7.94 4.96 10.6
11/13/2022 1:45:00 PM 12.64 54.752 0.954 7.94 4.15 10.56
11/13/2022 2:00:00 PM 12.63 54.734 0.962 7.94 3.76 10.59
11/13/2022 2:15:00 PM 12.66 54.788 0.975 7.95 3.82 10.64
11/13/2022 2:30:00 PM 12.67 54.806 0.99 7.94 3.74 10.56
11/13/2022 2:45:00 PM 12.69 54.842 1.008 7.94 3.95 10.43
11/13/2022 3:00:00 PM 12.69 54.842 1.026 7.93 3.99 10.38
11/13/2022 3:15:00 PM 12.7 54.86 1.043 7.94 3.58 10.4
11/13/2022 3:30:00 PM 12.7 54.86 1.06 7.94 3.69 10.38
11/13/2022 3:45:00 PM 12.69 54.842 1.075 7.93 3.7 10.29
11/13/2022 4:00:00 PM 12.68 54.824 1.088 7.93 3.99 10.2
11/13/2022 4:15:00 PM 12.66 54.788 1.099 7.93 3.82 10.15
11/13/2022 4:30:00 PM 12.65 54.77 1.109 7.92 3.87 10.06
11/13/2022 4:45:00 PM 12.63 54.734 1.117 7.91 4.13 9.98
11/13/2022 5:00:00 PM 12.61 54.698 1.124 7.91 4.44 9.9
11/13/2022 5:15:00 PM 12.58 54.644 1.129 7.9 3.93 9.83
11/13/2022 5:30:00 PM 12.56 54.608 1.132 7.9 5.7 9.77
11/13/2022 5:45:00 PM 12.51 54.518 1.134 7.9 4.72 9.71
11/13/2022 6:00:00 PM 12.48 54.464 1.134 7.89 5.66 9.66
11/13/2022 6:15:00 PM 12.44 54.392 1.133 7.89 4.5 9.6
11/13/2022 6:30:00 PM 12.39 54.302 1.131 7.89 4.83 9.55
11/13/2022 6:45:00 PM 12.33 54.194 1.129 7.88 4.96 9.52
11/13/2022 7:00:00 PM 12.29 54.122 1.126 7.88 4.84 9.49
11/13/2022 7:15:00 PM 12.24 54.032 1.125 7.87 5.26 9.44
11/13/2022 7:30:00 PM 12.17 53.906 1.124 7.87 5.03 9.39
11/13/2022 7:45:00 PM 12.11 53.798 1.123 7.86 5.32 9.35
11/13/2022 8:00:00 PM 12.04 53.672 1.123 7.86 5.45 9.32
11/13/2022 8:15:00 PM 11.98 53.564 1.123 7.85 4.88 9.27
11/13/2022 8:30:00 PM 11.91 53.438 1.124 7.85 4.82 9.26
11/13/2022 8:45:00 PM 11.85 53.33 1.126 7.84 4.98 9.23
11/13/2022 9:00:00 PM 11.78 53.204 1.128 7.83 5.16 9.18
11/13/2022 9:15:00 PM 11.71 53.078 1.131 7.83 5.25 9.16
11/13/2022 9:30:00 PM 11.65 52.97 1.134 7.82 5.21 9.13
11/13/2022 9:45:00 PM 11.58 52.844 1.136 7.82 4.85 9.1
11/13/2022 10:00:00 PM 11.51 52.718 1.139 7.81 4.84 9.09
11/13/2022 10:15:00 PM 11.45 52.61 1.141 7.81 5.09 9.05
11/13/2022 10:30:00 PM 11.38 52.484 1.143 7.8 5.23 9.03
11/13/2022 10:45:00 PM 11.32 52.376 1.145 7.8 5.01 9.02
11/13/2022 11:00:00 PM 11.26 52.268 1.147 7.8 5.16 9.01
11/13/2022 11:15:00 PM 11.2 52.16 1.149 7.79 5.36 9.01
11/13/2022 11:30:00 PM 11.15 52.07 1.152 7.79 5.12 8.98
11/13/2022 11:45:00 PM 11.09 51.962 1.154 7.79 4.74 8.99
11/14/2022 12:00:00 AM 11.04 51.872 1.155 7.79 4.96 8.98
11/14/2022 12:15:00 AM 10.99 51.782 1.157 7.78 4.68 8.97
11/14/2022 12:30:00 AM 10.94 51.692 1.158 7.78 4.4 8.97
11/14/2022 12:45:00 AM 10.92 51.656 1.16 7.78 4.55 8.98
11/14/2022 1:00:00 AM 10.9 51.62 1.161 7.78 4.38 9
11/14/2022 1:15:00 AM 10.86 51.548 1.164 7.78 4.25 9
11/14/2022 1:30:00 AM 10.81 51.458 1.167 7.78 4.36 9.02
11/14/2022 1:45:00 AM 10.76 51.368 1.172 7.78 4.22 9.02
11/14/2022 2:00:00 AM 10.72 51.296 1.176 7.78 4.29 9.02
11/14/2022 2:15:00 AM 10.68 51.224 1.18 7.78 4.38 9.02
11/14/2022 2:30:00 AM 10.64 51.152 1.183 7.78 4.19 9.03
11/14/2022 2:45:00 AM 10.6 51.08 1.187 7.77 3.91 9.03
11/14/2022 3:00:00 AM 10.56 51.008 1.189 7.77 4.11 9.06
11/14/2022 3:15:00 AM 10.51 50.918 1.19 7.77 3.79 9.07
11/14/2022 3:30:00 AM 10.47 50.846 1.19 7.77 5.36 9.07
11/14/2022 3:45:00 AM 10.42 50.756 1.19 7.77 4.1 9.08
11/14/2022 4:00:00 AM 10.38 50.684 1.188 7.77 3.83 9.1
11/14/2022 4:15:00 AM 10.33 50.594 1.18 7.77 4.01 9.1
11/14/2022 4:30:00 AM 10.28 50.504 1.184 7.78 4.31 9.1
11/14/2022 4:45:00 AM 10.22 50.396 1.181 7.78 3.9 9.11
11/14/2022 5:00:00 AM 10.17 50.306 1.177 7.78 4.01 9.14
11/14/2022 5:15:00 AM 10.12 50.216 1.173 7.78 3.92 9.17
11/14/2022 5:30:00 AM 10.07 50.126 1.168 7.78 4.08 9.17
11/14/2022 5:45:00 AM 10.03 50.054 1.162 7.78 4.07 9.18
11/14/2022 6:00:00 AM 10.01 50.018 1.155 7.78 3.73 9.18
11/14/2022 6:15:00 AM 9.98 49.964 1.149 7.78 4.51 9.2
11/14/2022 6:30:00 AM 9.94 49.892 1.141 7.78 4.2 9.2
11/14/2022 6:45:00 AM 9.92 49.856 1.134 7.78 4.19 9.22
11/14/2022 7:00:00 AM 9.9 49.82 1.127 7.78 4.08 9.22
11/14/2022 7:15:00 AM 9.89 49.802 1.119 7.78 4.03 9.3
11/14/2022 7:30:00 AM 9.88 49.784 1.11 7.79 4.11 9.36
11/14/2022 7:45:00 AM 9.87 49.766 1.101 7.79 3.78 9.43
11/14/2022 8:00:00 AM 9.86 49.748 1.091 7.8 4.03 9.49
11/14/2022 8:15:00 AM 9.85 49.73 1.081 7.81 4 9.58
11/14/2022 8:30:00 AM 9.84 49.712 1.072 7.81 3.78 9.69
11/14/2022 8:45:00 AM 9.85 49.73 1.062 7.82 3.97 9.86
11/14/2022 9:00:00 AM 9.88 49.784 1.053 7.84 3.94 10.02
11/14/2022 9:15:00 AM 9.9 49.82 1.044 7.85 4.8 10.18
11/14/2022 9:30:00 AM 9.93 49.874 1.035 7.86 4.2 10.28
11/14/2022 9:45:00 AM 9.95 49.91 1.028 7.87 4.13 10.36
11/14/2022 10:00:00 AM 9.99 49.982 1.022 7.88 4.07 10.48
11/14/2022 10:15:00 AM 10.03 50.054 1.017 7.88 4 10.56
11/14/2022 10:30:00 AM 10.07 50.126 1.013 7.89 4.45 10.61
11/14/2022 10:45:00 AM 10.19 50.342 1.011 7.9 4.65 10.74
11/14/2022 11:00:00 AM 10.28 50.504 1.009 7.91 4.17 10.82
11/14/2022 11:15:00 AM 10.33 50.594 1.007 7.91 3.88 10.86
11/14/2022 11:30:00 AM 10.42 50.756 1.005 7.92 3.89 10.89
11/14/2022 11:45:00 AM 10.53 50.954 1.001 7.93 3.87 10.96
11/14/2022 12:00:00 PM 10.65 51.17 0.997 7.94 3.91 11.04
11/14/2022 12:15:00 PM 10.74 51.332 0.991 7.94 3.93 11.1
11/14/2022 12:30:00 PM 10.79 51.422 0.985 7.94 3.95 11.02
11/14/2022 12:45:00 PM 10.85 51.53 0.979 7.95 3.79 11.06
11/14/2022 1:00:00 PM 10.92 51.656 0.975 7.95 4.03 11.12
11/14/2022 1:15:00 PM 11.04 51.872 0.973 7.96 3.61 11.21
11/14/2022 1:30:00 PM 11.19 52.142 0.976 7.98 3.76 11.33
11/14/2022 1:45:00 PM -99999.99 -179968 -99999.99 -99999.99 -99999.99 -99999.99
11/14/2022 2:00:00 PM 11.36 52.448 0.991 7.99 3.85 11.35
11/14/2022 2:15:00 PM 11.42 52.556 1.004 7.99 3.59 11.33
11/14/2022 2:30:00 PM 11.48 52.664 1.02 7.99 3.63 11.28
11/14/2022 2:45:00 PM 11.53 52.754 1.036 7.99 3.94 11.22
11/14/2022 3:00:00 PM 11.56 52.808 1.052 7.99 3.9 11.16
11/14/2022 3:15:00 PM 11.57 52.826 1.065 7.98 3.65 11.05
11/14/2022 3:30:00 PM 11.58 52.844 1.077 7.98 3.8 10.95
11/14/2022 3:45:00 PM 11.6 52.88 1.086 7.97 3.75 10.86
11/14/2022 4:00:00 PM 11.6 52.88 1.093 7.97 3.83 10.77
11/14/2022 4:15:00 PM 11.58 52.844 1.098 7.96 3.55 10.68
11/14/2022 4:30:00 PM 11.55 52.79 1.101 7.96 3.87 10.59
11/14/2022 4:45:00 PM 11.52 52.736 1.104 7.95 3.74 10.5
11/14/2022 5:00:00 PM 11.49 52.682 1.107 7.95 3.96 10.38
11/14/2022 5:15:00 PM 11.46 52.628 1.11 7.94 4.31 10.35
11/14/2022 5:30:00 PM 11.44 52.592 1.113 7.94 4.45 10.27
11/14/2022 5:45:00 PM 11.42 52.556 1.116 7.93 4.57 10.2
11/14/2022 6:00:00 PM 11.39 52.502 1.119 7.93 4.55 10.13
11/14/2022 6:15:00 PM 11.38 52.484 1.121 7.92 4.88 10.08
11/14/2022 6:30:00 PM 11.35 52.43 1.124 7.92 4.61 10
11/14/2022 6:45:00 PM 11.33 52.394 1.126 7.92 4.65 9.96
11/14/2022 7:00:00 PM 11.3 52.34 1.128 7.91 5.19 9.92
11/14/2022 7:15:00 PM 11.27 52.286 1.129 7.91 5.46 9.87
11/14/2022 7:30:00 PM 11.23 52.214 1.131 7.91 5.42 9.83
11/14/2022 7:45:00 PM 11.19 52.142 1.133 7.9 5.37 9.8
11/14/2022 8:00:00 PM 11.15 52.07 1.135 7.9 5.03 9.76
11/14/2022 8:15:00 PM 11.11 51.998 1.137 7.9 5.12 9.71
11/14/2022 8:30:00 PM 11.05 51.89 1.139 7.89 5.4 9.69
11/14/2022 8:45:00 PM 11 51.8 1.142 7.88 5.27 9.65
11/14/2022 9:15:00 PM 10.88 51.584 1.147 7.87 5.13 9.59
11/14/2022 9:30:00 PM 10.82 51.476 1.15 7.87 5.09 9.53
11/14/2022 9:45:00 PM 10.75 51.35 1.153 7.86 6.76 9.5
11/14/2022 10:00:00 PM 10.69 51.242 1.155 7.86 6.23 9.48
11/14/2022 10:15:00 PM 10.63 51.134 1.158 7.85 5.76 9.44
11/14/2022 10:30:00 PM 10.57 51.026 1.161 7.84 6.26 9.4
11/14/2022 10:45:00 PM 10.51 50.918 1.163 7.84 5.7 9.38
11/14/2022 11:00:00 PM 10.45 50.81 1.165 7.83 6.14 9.34
11/14/2022 11:15:00 PM 10.39 50.702 1.167 7.83 5.82 9.32
11/14/2022 11:30:00 PM 10.34 50.612 1.167 7.82 5.58 9.31
11/14/2022 11:45:00 PM 10.28 50.504 1.167 7.82 5.38 9.3
11/15/2022 12:00:00 AM 10.22 50.396 1.166 7.81 5.29 9.27
11/15/2022 12:15:00 AM 10.16 50.288 1.166 7.81 7.69 9.28
11/15/2022 12:30:00 AM 10.11 50.198 1.167 7.8 5.89 9.27
11/15/2022 12:45:00 AM 10.06 50.108 1.169 7.8 5.71 9.25
11/15/2022 1:00:00 AM 10.02 50.036 1.172 7.8 5.69 9.27
11/15/2022 1:15:00 AM 9.97 49.946 1.177 7.79 5.46 9.26
11/15/2022 1:30:00 AM 9.93 49.874 1.182 7.79 5.43 9.25
11/15/2022 1:45:00 AM 9.89 49.802 1.188 7.79 5.04 9.24
11/15/2022 2:00:00 AM 9.85 49.73 1.195 7.78 5.34 9.25
11/15/2022 2:15:00 AM 9.82 49.676 1.201 7.78 5.07 9.28
11/15/2022 2:30:00 AM 9.79 49.622 1.207 7.78 4.9 9.26
11/15/2022 2:45:00 AM 9.75 49.55 1.213 7.78 4.81 9.27
11/15/2022 3:00:00 AM 9.71 49.478 1.218 7.78 4.63 9.28
11/15/2022 3:15:00 AM 9.67 49.406 1.222 7.78 4.55 9.25
11/15/2022 3:30:00 AM 9.63 49.334 1.225 7.77 4.41 9.27
11/15/2022 3:45:00 AM 9.59 49.262 1.227 7.77 4.47 9.27
11/15/2022 4:00:00 AM 9.55 49.19 1.227 7.77 4.24 9.28
11/15/2022 4:15:00 AM 9.51 49.118 1.227 7.77 4.42 9.28
11/15/2022 4:30:00 AM 9.46 49.028 1.225 7.77 4.36 9.3
11/15/2022 4:45:00 AM 9.42 48.956 1.222 7.77 4.59 9.34
11/15/2022 5:00:00 AM 9.37 48.866 1.218 7.77 4.45 9.34
11/15/2022 5:15:00 AM 9.33 48.794 1.213 7.78 5.71 9.35
11/15/2022 5:30:00 AM 9.27 48.686 1.208 7.77 6.12 9.33
11/15/2022 5:45:00 AM 9.22 48.596 1.202 7.78 5.85 9.34
11/15/2022 6:00:00 AM 9.16 48.488 1.195 7.78 6.08 9.37
11/15/2022 6:15:00 AM 9.1 48.38 1.188 7.78 5.19 9.39
11/15/2022 6:30:00 AM 9.04 48.272 1.182 7.78 5.59 9.42
11/15/2022 6:45:00 AM 8.99 48.182 1.175 7.78 5.75 9.46
11/15/2022 7:00:00 AM 8.94 48.092 1.169 7.78 4.65 9.49
11/15/2022 7:15:00 AM 8.89 48.002 1.163 7.78 5.43 9.52
11/15/2022 7:30:00 AM 8.86 47.948 1.156 7.79 4.29 9.6
11/15/2022 7:45:00 AM 8.84 47.912 1.149 7.79 4.56 9.71
11/15/2022 8:00:00 AM 8.83 47.894 1.14 7.8 4.25 9.83
11/15/2022 8:15:00 AM 8.83 47.894 1.131 7.81 5.16 9.95
11/15/2022 8:30:00 AM 8.84 47.912 1.121 7.82 4.9 10.06
11/15/2022 8:45:00 AM 8.85 47.93 1.111 7.83 4.61 10.19
11/15/2022 9:00:00 AM 8.88 47.984 1.101 7.84 4.7 10.33
11/15/2022 9:15:00 AM 8.91 48.038 1.091 7.85 5.12 10.43
11/15/2022 9:30:00 AM 8.94 48.092 1.081 7.85 5.81 10.52
11/15/2022 9:45:00 AM 8.95 48.11 1.072 7.86 5.41 10.59
11/15/2022 10:00:00 AM 9.01 48.218 1.061 7.87 5.5 10.71
11/15/2022 10:15:00 AM 9.07 48.326 1.052 7.88 5.33 10.83
11/15/2022 10:30:00 AM 9.13 48.434 1.044 7.89 5.43 10.91
11/15/2022 10:45:00 AM 9.19 48.542 1.036 7.89 5.03 10.93
11/15/2022 11:00:00 AM 9.25 48.65 1.031 7.89 4.59 10.93
11/15/2022 11:15:00 AM 9.33 48.794 1.026 7.9 4.53 10.95
11/15/2022 11:30:00 AM 9.4 48.92 1.024 7.9 4.34 10.97
11/15/2022 11:45:00 AM 9.49 49.082 1.022 7.9 4.14 11.02
11/15/2022 12:00:00 PM 9.57 49.226 1.021 7.91 4.16 11.02
11/15/2022 12:15:00 PM 9.62 49.316 1.02 7.91 4.22 10.99
11/15/2022 12:30:00 PM 9.66 49.388 1.018 7.9 3.82 10.93
11/15/2022 12:45:00 PM 9.71 49.478 1.015 7.9 3.94 10.89
11/15/2022 1:00:00 PM 9.74 49.532 1.013 7.9 4.01 10.87
11/15/2022 1:15:00 PM 9.77 49.586 1.012 7.91 3.84 10.88
11/15/2022 1:30:00 PM 9.81 49.658 1.014 7.91 3.98 10.95
11/15/2022 1:45:00 PM 9.86 49.748 1.019 7.92 4.15 10.95
11/15/2022 2:00:00 PM 9.93 49.874 1.027 7.92 3.67 10.96
11/15/2022 2:15:00 PM 10.01 50.018 1.039 7.93 3.59 10.98
11/15/2022 2:30:00 PM 10.08 50.144 1.055 7.93 3.69 10.98
11/15/2022 2:45:00 PM 10.17 50.306 1.074 7.93 3.59 10.94
11/15/2022 3:00:00 PM 10.25 50.45 1.094 7.93 3.49 10.89
11/15/2022 3:15:00 PM 10.34 50.612 1.114 7.92 3.55 10.83
11/15/2022 3:30:00 PM 10.42 50.756 1.134 7.92 3.53 10.74
11/15/2022 3:45:00 PM 10.51 50.918 1.151 7.92 3.49 10.64
11/15/2022 4:00:00 PM 10.59 51.062 1.166 7.92 3.55 10.58
11/15/2022 4:15:00 PM 10.65 51.17 1.177 7.91 3.54 10.48
11/15/2022 4:30:00 PM 10.71 51.278 1.186 7.91 4.09 10.38
11/15/2022 4:45:00 PM 10.73 51.314 1.192 7.91 3.89 10.29
11/15/2022 5:00:00 PM 10.75 51.35 1.198 7.9 4.07 10.22
11/15/2022 5:15:00 PM 10.7 51.26 1.199 7.9 4.54 10.17
11/15/2022 5:30:00 PM 10.67 51.206 1.198 7.9 4.9 10.11
11/15/2022 5:45:00 PM 10.68 51.224 1.197 7.9 6.08 10.06
11/15/2022 6:00:00 PM 10.69 51.242 1.193 7.89 6.07 10
11/15/2022 6:15:00 PM 10.7 51.26 1.187 7.89 5.2 9.94
11/15/2022 6:30:00 PM 10.69 51.242 1.178 7.88 6.05 9.88
11/15/2022 6:45:00 PM 10.65 51.17 1.168 7.88 4.87 9.86
11/15/2022 7:00:00 PM 10.62 51.116 1.158 7.88 5.16 9.82
11/15/2022 7:15:00 PM 10.56 51.008 1.146 7.87 5.64 9.79
11/15/2022 7:30:00 PM 10.51 50.918 1.133 7.87 5.96 9.76
11/15/2022 7:45:00 PM 10.46 50.828 1.121 7.86 5.64 9.72
11/15/2022 8:00:00 PM 10.41 50.738 1.111 7.86 5.7 9.73
11/15/2022 8:15:00 PM 10.34 50.612 1.099 7.85 6.04 9.73
11/15/2022 8:30:00 PM 10.29 50.522 1.086 7.84 6.57 9.73
11/15/2022 8:45:00 PM 10.24 50.432 1.071 7.84 7.63 9.73
11/15/2022 9:00:00 PM 10.22 50.396 1.061 7.83 7.53 9.72
11/15/2022 9:15:00 PM 10.2 50.36 1.054 7.82 7.98 9.71
11/15/2022 9:30:00 PM 10.19 50.342 1.046 7.81 8.96 9.69
11/15/2022 9:45:00 PM 10.16 50.288 1.032 7.8 11.2 9.67
11/15/2022 10:00:00 PM 10.14 50.252 1.02 7.79 12.8 9.65
11/15/2022 10:15:00 PM 10.14 50.252 1.013 7.78 15.2 9.62
11/15/2022 10:30:00 PM 10.15 50.27 1.007 7.77 15.64 9.6
11/15/2022 10:45:00 PM 10.18 50.324 1.004 7.76 18.83 9.6
11/15/2022 11:00:00 PM 10.22 50.396 1.007 7.75 22.38 9.58
11/15/2022 11:15:00 PM 10.29 50.522 1.012 7.74 21.72 9.57
11/15/2022 11:30:00 PM 10.36 50.648 1.015 7.73 24.33 9.56
11/15/2022 11:45:00 PM 10.42 50.756 1.009 7.72 27.67 9.55
11/16/2022 12:00:00 AM 10.44 50.792 0.985 7.71 29.8 9.56
11/16/2022 12:15:00 AM 10.37 50.666 0.944 7.7 30.22 9.61
11/16/2022 12:30:00 AM 10.24 50.432 0.899 7.68 30.94 9.67
11/16/2022 12:45:00 AM 10.11 50.198 0.856 7.67 28.63 9.69
11/16/2022 1:00:00 AM 9.97 49.946 0.81 7.65 27.02 9.75
11/16/2022 1:15:00 AM 9.81 49.658 0.762 7.63 26.31 9.81
11/16/2022 1:30:00 AM 9.65 49.37 0.715 7.61 27.36 9.86
11/16/2022 1:45:00 AM 9.49 49.082 0.674 7.6 21.53 9.93
11/16/2022 2:00:00 AM 9.34 48.812 0.638 7.59 20.97 10
11/16/2022 2:15:00 AM 9.21 48.578 0.61 7.57 19.72 10.05
11/16/2022 2:30:00 AM 9.11 48.398 0.59 7.56 20.03 10.08
11/16/2022 2:45:00 AM 9.02 48.236 0.576 7.55 18.1 10.11
11/16/2022 3:00:00 AM 8.96 48.128 0.568 7.54 16.2 10.12
11/16/2022 3:15:00 AM 8.91 48.038 0.564 7.54 14.72 10.13
11/16/2022 3:30:00 AM 8.88 47.984 0.564 7.53 14.13 10.14
11/16/2022 3:45:00 AM 8.86 47.948 0.566 7.52 13.05 10.14
11/16/2022 4:00:00 AM 8.86 47.948 0.569 7.52 13.59 10.12
11/16/2022 4:15:00 AM 8.86 47.948 0.571 7.52 13.4 10.1
11/16/2022 4:30:00 AM 8.86 47.948 0.572 7.52 12.3 10.09
11/16/2022 4:45:00 AM 8.87 47.966 0.574 7.52 12.06 10.07
11/16/2022 5:00:00 AM 8.88 47.984 0.576 7.51 12.88 10.05
11/16/2022 5:15:00 AM 8.9 48.02 0.58 7.52 12.46 10.02
11/16/2022 5:30:00 AM 8.94 48.092 0.585 7.52 12.31 10
11/16/2022 5:45:00 AM 8.97 48.146 0.591 7.52 12.4 9.97
11/16/2022 6:00:00 AM 9 48.2 0.596 7.52 11.39 9.94
11/16/2022 6:15:00 AM 9.05 48.29 0.602 7.52 11.68 9.91
11/16/2022 6:30:00 AM 9.11 48.398 0.609 7.53 11.46 9.87
11/16/2022 6:45:00 AM 9.16 48.488 0.617 7.53 10.91 9.83
11/16/2022 7:00:00 AM 9.22 48.596 0.627 7.54 10.81 9.79
11/16/2022 7:15:00 AM 9.28 48.704 0.636 7.54 9.81 9.77
11/16/2022 7:30:00 AM 9.34 48.812 0.644 7.54 9.77 9.74
11/16/2022 7:45:00 AM 9.4 48.92 0.653 7.55 9.24 9.75
11/16/2022 8:00:00 AM 9.46 49.028 0.661 7.56 9.66 9.78
11/16/2022 8:15:00 AM 9.51 49.118 0.669 7.56 8.68 9.79
11/16/2022 8:30:00 AM 9.58 49.244 0.677 7.57 9.01 9.82
11/16/2022 8:45:00 AM 9.66 49.388 0.684 7.58 8.15 9.86
11/16/2022 9:00:00 AM 9.73 49.514 0.69 7.59 7.67 9.89
11/16/2022 9:15:00 AM 9.81 49.658 0.695 7.6 8.08 9.94
11/16/2022 9:30:00 AM 9.9 49.82 0.7 7.61 7.49 10.02
11/16/2022 9:45:00 AM 10 50 0.705 7.63 7.15 10.1
11/16/2022 10:00:00 AM 10.11 50.198 0.711 7.64 7.15 10.17
11/16/2022 10:15:00 AM 10.23 50.414 0.718 7.65 6.79 10.22
11/16/2022 10:30:00 AM 10.36 50.648 0.725 7.66 6.46 10.29
11/16/2022 10:45:00 AM 10.48 50.864 0.732 7.67 6.07 10.34
11/16/2022 11:00:00 AM 10.61 51.098 0.74 7.69 6.4 10.37
11/16/2022 11:15:00 AM 10.75 51.35 0.749 7.7 6.82 10.43
11/16/2022 11:30:00 AM 10.86 51.548 0.759 7.71 6.11 10.46
11/16/2022 11:45:00 AM 10.95 51.71 0.771 7.71 6 10.43
11/16/2022 12:00:00 PM 11.08 51.944 0.785 7.72 6.1 10.45
11/16/2022 12:15:00 PM 11.19 52.142 0.8 7.73 5.63 10.49
11/16/2022 12:30:00 PM 11.32 52.376 0.817 7.74 5.41 10.52
11/16/2022 12:45:00 PM 11.46 52.628 0.834 7.75 5.63 10.58
11/16/2022 1:00:00 PM 11.57 52.826 0.849 7.76 5.4 10.59
11/16/2022 1:15:00 PM 11.66 52.988 0.863 7.77 5.88 10.58
11/16/2022 1:30:00 PM 11.77 53.186 0.874 7.78 5.46 10.64
11/16/2022 1:45:00 PM 11.85 53.33 0.883 7.79 5.39 10.67
11/16/2022 2:00:00 PM 11.96 53.528 0.89 7.8 5.62 10.73
11/16/2022 2:15:00 PM 12.06 53.708 0.895 7.81 5.17 10.77
11/16/2022 2:30:00 PM 12.06 53.708 0.899 7.81 5.2 10.67
11/16/2022 2:45:00 PM 12.04 53.672 0.901 7.81 5.19 10.61
11/16/2022 3:00:00 PM 12.04 53.672 0.904 7.81 5.73 10.53
11/16/2022 3:15:00 PM 12.06 53.708 0.906 7.81 4.81 10.47
11/16/2022 3:30:00 PM 12.07 53.726 0.907 7.81 5.2 10.44
11/16/2022 3:45:00 PM 12.08 53.744 0.909 7.81 4.99 10.4
11/16/2022 4:00:00 PM 12.07 53.726 0.913 7.81 4.88 10.34
11/16/2022 4:15:00 PM 12.06 53.708 0.918 7.81 4.85 10.27
11/16/2022 4:30:00 PM 12.06 53.708 0.925 7.81 4.98 10.18
11/16/2022 4:45:00 PM 12.06 53.708 0.931 7.8 5 10.09
11/16/2022 5:00:00 PM 12.05 53.69 0.937 7.8 6.12 10
11/16/2022 5:15:00 PM 12.04 53.672 0.941 7.8 5.62 9.95
11/16/2022 5:30:00 PM 12.02 53.636 0.944 7.8 5.31 9.9
11/16/2022 5:45:00 PM 12 53.6 0.946 7.79 5.52 9.85
11/16/2022 6:00:00 PM 11.98 53.564 0.946 7.79 5.46 9.81
11/16/2022 6:15:00 PM 11.94 53.492 0.946 7.79 5.43 9.78
11/16/2022 6:30:00 PM 11.9 53.42 0.943 7.79 5.59 9.75
11/16/2022 6:45:00 PM 11.86 53.348 0.939 7.79 5.7 9.71
11/16/2022 7:00:00 PM 11.82 53.276 0.934 7.79 5.71 9.67
11/16/2022 7:15:00 PM 11.77 53.186 0.93 7.78 5.98 9.62
11/16/2022 7:30:00 PM 11.72 53.096 0.927 7.78 5.64 9.57
11/16/2022 7:45:00 PM 11.68 53.024 0.925 7.77 5.68 9.51
11/16/2022 8:00:00 PM 11.63 52.934 0.924 7.76 5.61 9.46
11/16/2022 8:15:00 PM 11.59 52.862 0.924 7.76 5.81 9.42
11/16/2022 8:30:00 PM 11.54 52.772 0.925 7.75 5.57 9.38
11/16/2022 8:45:00 PM 11.5 52.7 0.926 7.75 5.71 9.35
11/16/2022 9:00:00 PM 11.45 52.61 0.928 7.75 5.46 9.33
11/16/2022 9:15:00 PM 11.4 52.52 0.93 7.74 5.71 9.3
11/16/2022 9:30:00 PM 11.36 52.448 0.933 7.74 5.62 9.27
11/16/2022 9:45:00 PM 11.32 52.376 0.936 7.74 5.44 9.25
11/16/2022 10:00:00 PM 11.28 52.304 0.94 7.74 5.87 9.23
11/16/2022 10:15:00 PM 11.26 52.268 0.948 7.73 5.56 9.21
11/16/2022 10:30:00 PM 11.25 52.25 0.958 7.73 5.87 9.19
11/16/2022 10:45:00 PM 11.24 52.232 0.969 7.73 6.12 9.17
11/16/2022 11:00:00 PM 11.23 52.214 0.978 7.73 6.12 9.15
11/16/2022 11:15:00 PM 11.22 52.196 0.984 7.73 5.8 9.14
11/16/2022 11:30:00 PM 11.2 52.16 0.988 7.72 5.76 9.14
11/16/2022 11:45:00 PM 11.18 52.124 0.99 7.72 5.76 9.14
11/17/2022 12:00:00 AM 11.16 52.088 0.99 7.72 5.61 9.15
11/17/2022 12:15:00 AM 11.13 52.034 0.99 7.72 5.53 9.15
11/17/2022 12:30:00 AM 11.11 51.998 0.991 7.72 5.34 9.16
11/17/2022 12:45:00 AM 11.09 51.962 0.993 7.72 5.71 9.16
11/17/2022 1:00:00 AM 11.06 51.908 0.995 7.72 5.57 9.16
11/17/2022 1:15:00 AM 11.02 51.836 0.997 7.72 5.6 9.16
11/17/2022 1:30:00 AM 10.97 51.746 0.998 7.72 5.43 9.16
11/17/2022 1:45:00 AM 10.92 51.656 0.999 7.72 5.72 9.17
11/17/2022 2:00:00 AM 10.87 51.566 0.999 7.73 5.56 9.18
11/17/2022 2:15:00 AM 10.83 51.494 0.999 7.73 5.75 9.19
11/17/2022 2:30:00 AM 10.78 51.404 1 7.73 5.42 9.2
11/17/2022 2:45:00 AM 10.74 51.332 1.001 7.73 5.24 9.21
11/17/2022 3:00:00 AM 10.69 51.242 1.003 7.73 5.51 9.22
11/17/2022 3:15:00 AM 10.65 51.17 1.006 7.73 5.39 9.22
11/17/2022 3:30:00 AM 10.62 51.116 1.008 7.73 5.31 9.21
11/17/2022 3:45:00 AM 10.59 51.062 1.009 7.73 5.27 9.22
11/17/2022 4:00:00 AM 10.56 51.008 1.008 7.73 5.25 9.22
11/17/2022 4:15:00 AM 10.52 50.936 1.004 7.73 5.44 9.23
11/17/2022 4:30:00 AM 10.47 50.846 0.998 7.73 5.22 9.25
11/17/2022 4:45:00 AM 10.41 50.738 0.99 7.73 4.89 9.28
11/17/2022 5:00:00 AM 10.35 50.63 0.981 7.73 4.89 9.3
11/17/2022 5:15:00 AM 10.31 50.558 0.973 7.73 4.85 9.32
11/17/2022 5:30:00 AM 10.26 50.468 0.965 7.73 4.96 9.34
11/17/2022 5:45:00 AM 10.22 50.396 0.957 7.74 5.02 9.34
11/17/2022 6:00:00 AM 10.18 50.324 0.949 7.74 4.81 9.36
11/17/2022 6:15:00 AM 10.13 50.234 0.941 7.74 4.63 9.39
11/17/2022 6:30:00 AM 10.08 50.144 0.933 7.74 4.98 9.41
11/17/2022 6:45:00 AM 10.03 50.054 0.925 7.74 4.99 9.43
11/17/2022 7:00:00 AM 9.97 49.946 0.917 7.74 4.81 9.46
11/17/2022 7:15:00 AM 9.93 49.874 0.91 7.74 4.82 9.5
11/17/2022 7:30:00 AM 9.89 49.802 0.904 7.75 4.75 9.54
11/17/2022 7:45:00 AM 9.85 49.73 0.898 7.75 4.52 9.6
11/17/2022 8:00:00 AM 9.81 49.658 0.892 7.76 4.56 9.69
11/17/2022 8:15:00 AM 9.77 49.586 0.887 7.76 4.59 9.76
11/17/2022 8:30:00 AM 9.76 49.568 0.883 7.77 5.04 9.87
11/17/2022 8:45:00 AM 9.74 49.532 0.879 7.78 4.44 9.97
11/17/2022 9:00:00 AM 9.74 49.532 0.877 7.78 4.27 10.04
11/17/2022 9:15:00 AM 9.74 49.532 0.875 7.79 4.27 10.14
11/17/2022 9:30:00 AM 9.76 49.568 0.875 7.8 4.38 10.24
11/17/2022 9:45:00 AM 9.82 49.676 0.875 7.81 4.3 10.36
11/17/2022 10:00:00 AM 9.9 49.82 0.876 7.82 4.38 10.49
11/17/2022 10:15:00 AM 9.95 49.91 0.877 7.82 4.12 10.53
11/17/2022 10:30:00 AM 10.04 50.072 0.881 7.83 4.37 10.57
11/17/2022 10:45:00 AM 10.1 50.18 0.888 7.83 4.58 10.62
11/17/2022 11:00:00 AM 10.16 50.288 0.894 7.84 4.45 10.68
11/17/2022 11:15:00 AM 10.21 50.378 0.898 7.84 4.09 10.69
11/17/2022 11:30:00 AM 10.3 50.54 0.898 7.85 4.07 10.74
11/17/2022 11:45:00 AM 10.36 50.648 0.897 7.86 4.23 10.8
11/17/2022 12:00:00 PM 10.39 50.702 0.895 7.86 4.08 10.84
11/17/2022 12:15:00 PM 10.46 50.828 0.896 7.87 3.97 10.94
11/17/2022 12:30:00 PM 10.5 50.9 0.9 7.88 4.12 10.99
11/17/2022 12:45:00 PM 10.55 50.99 0.908 7.88 3.86 10.96
11/17/2022 1:00:00 PM 10.6 51.08 0.919 7.88 4.9 10.95
11/17/2022 1:15:00 PM 10.66 51.188 0.933 7.88 4.19 10.91
11/17/2022 1:30:00 PM 10.73 51.314 0.95 7.88 4.26 10.86
11/17/2022 1:45:00 PM 10.79 51.422 0.968 7.88 4.35 10.84
11/17/2022 2:00:00 PM 10.84 51.512 0.986 7.88 4.07 10.8
11/17/2022 2:15:00 PM 10.9 51.62 1.002 7.88 31.62 10.75
11/17/2022 2:30:00 PM 10.96 51.728 1.014 7.88 3.94 10.75
11/17/2022 2:45:00 PM 11.03 51.854 1.023 7.88 3.85 10.72
11/17/2022 3:00:00 PM 11.07 51.926 1.03 7.88 4.14 10.64
11/17/2022 3:15:00 PM 11.11 51.998 1.033 7.88 3.83 10.6
11/17/2022 3:30:00 PM 11.14 52.052 1.035 7.88 4.1 10.61
11/17/2022 3:45:00 PM 11.14 52.052 1.035 7.88 3.82 10.54
11/17/2022 4:00:00 PM 11.14 52.052 1.033 7.87 3.71 10.46
11/17/2022 4:15:00 PM 11.12 52.016 1.029 7.87 3.79 10.39
11/17/2022 4:30:00 PM 11.11 51.998 1.024 7.86 4.1 10.32
11/17/2022 4:45:00 PM 11.09 51.962 1.02 7.86 4.06 10.25
11/17/2022 5:00:00 PM 11.07 51.926 1.017 7.86 3.95 10.19
11/17/2022 5:15:00 PM 11.05 51.89 1.016 7.85 4.03 10.14
11/17/2022 5:30:00 PM 11.03 51.854 1.017 7.85 4.44 10.09
11/17/2022 5:45:00 PM 11 51.8 1.019 7.85 4.41 10.05
11/17/2022 6:00:00 PM 10.96 51.728 1.021 7.84 4.6 10
11/17/2022 6:15:00 PM 10.92 51.656 1.022 7.84 4.42 9.95
11/17/2022 6:30:00 PM 10.88 51.584 1.023 7.83 4.42 9.9
11/17/2022 6:45:00 PM 10.84 51.512 1.022 7.83 4.63 9.85
11/17/2022 7:00:00 PM 10.79 51.422 1.02 7.82 4.48 9.8
11/17/2022 7:15:00 PM 10.74 51.332 1.017 7.82 4.59 9.76
11/17/2022 7:30:00 PM 10.68 51.224 1.013 7.82 4.69 9.72
11/17/2022 7:45:00 PM 10.62 51.116 1.008 7.81 5.14 9.69
11/17/2022 8:00:00 PM 10.56 51.008 1.005 7.81 4.52 9.69
11/17/2022 8:15:00 PM 10.5 50.9 1.002 7.8 6.82 9.67
11/17/2022 8:30:00 PM 10.44 50.792 1.001 7.8 4.9 9.66
11/17/2022 8:45:00 PM 10.4 50.72 1 7.8 4.65 9.64
11/17/2022 9:00:00 PM 10.35 50.63 1 7.79 4.85 9.62
11/17/2022 9:15:00 PM 10.31 50.558 1.001 7.79 4.72 9.61
11/17/2022 9:30:00 PM 10.28 50.504 1.002 7.79 5.04 9.58
11/17/2022 9:45:00 PM 10.26 50.468 1.004 7.78 5.4 9.57
11/17/2022 10:00:00 PM 10.23 50.414 1.005 7.78 5.24 9.55
11/17/2022 10:15:00 PM 10.2 50.36 1.005 7.78 5.15 9.54
11/17/2022 10:30:00 PM 10.16 50.288 1.005 7.77 5.08 9.52
11/17/2022 10:45:00 PM 10.13 50.234 1.005 7.77 5.08 9.52
11/17/2022 11:00:00 PM 10.09 50.162 1.006 7.77 4.96 9.51
11/17/2022 11:15:00 PM 10.04 50.072 1.007 7.77 5.95 9.5
11/17/2022 11:30:00 PM 10 50 1.01 7.76 4.84 9.49
11/17/2022 11:45:00 PM 9.96 49.928 1.013 7.76 4.91 9.46
11/18/2022 12:00:00 AM 9.93 49.874 1.017 7.76 5.08 9.42
11/18/2022 12:15:00 AM 9.9 49.82 1.022 7.76 5.43 9.44
11/18/2022 12:30:00 AM 9.86 49.748 1.026 7.75 4.85 9.44
11/18/2022 12:45:00 AM 9.83 49.694 1.031 7.75 4.81 9.46
11/18/2022 1:00:00 AM 9.79 49.622 1.036 7.75 4.64 9.47
11/18/2022 1:15:00 AM 9.76 49.568 1.04 7.75 4.89 9.48
11/18/2022 1:30:00 AM 9.73 49.514 1.044 7.75 4.92 9.48
11/18/2022 1:45:00 AM 9.7 49.46 1.048 7.75 4.66 9.48
11/18/2022 2:00:00 AM 9.67 49.406 1.051 7.75 5.01 9.49
11/18/2022 2:15:00 AM 9.63 49.334 1.053 7.75 5.86 9.5
11/18/2022 2:30:00 AM 9.6 49.28 1.055 7.75 5.64 9.5
11/18/2022 2:45:00 AM 9.59 49.262 1.056 7.75 5.59 9.5
11/18/2022 3:00:00 AM 9.59 49.262 1.057 7.75 5.31 9.51
11/18/2022 3:15:00 AM 9.58 49.244 1.056 7.75 5.15 9.51
11/18/2022 3:30:00 AM 9.58 49.244 1.055 7.75 5.3 9.52
11/18/2022 3:45:00 AM 9.57 49.226 1.052 7.75 5.49 9.52
11/18/2022 4:00:00 AM 9.57 49.226 1.05 7.75 4.88 9.52
11/18/2022 4:15:00 AM 9.55 49.19 1.047 7.75 5.05 9.53
11/18/2022 4:30:00 AM 9.53 49.154 1.044 7.75 4.78 9.55
11/18/2022 4:45:00 AM 9.51 49.118 1.04 7.75 4.7 9.55
11/18/2022 5:00:00 AM 9.48 49.064 1.037 7.75 4.62 9.56
11/18/2022 5:15:00 AM 9.44 48.992 1.032 7.75 4.35 9.58
11/18/2022 5:30:00 AM 9.41 48.938 1.027 7.75 4.58 9.6
11/18/2022 5:45:00 AM 9.37 48.866 1.022 7.76 4.37 9.62
11/18/2022 6:00:00 AM 9.33 48.794 1.016 7.76 4.63 9.64
11/18/2022 6:15:00 AM 9.29 48.722 1.01 7.76 4.41 9.66
11/18/2022 6:30:00 AM 9.25 48.65 1.004 7.76 4.4 9.67
11/18/2022 6:45:00 AM 9.21 48.578 0.999 7.76 4.41 9.69
11/18/2022 7:00:00 AM 9.17 48.506 0.992 7.76 4.45 9.7
11/18/2022 7:15:00 AM 9.14 48.452 0.986 7.76 4.39 9.74
11/18/2022 7:30:00 AM 9.11 48.398 0.979 7.77 4.38 9.8
11/18/2022 7:45:00 AM 9.09 48.362 0.972 7.77 4.46 9.86
11/18/2022 8:00:00 AM 9.07 48.326 0.965 7.78 4.35 9.93
11/18/2022 8:15:00 AM 9.05 48.29 0.957 7.78 4.15 10
11/18/2022 8:30:00 AM 9.04 48.272 0.95 7.79 4.22 10.09
11/18/2022 8:45:00 AM 9.04 48.272 0.943 7.8 4.07 10.18
11/18/2022 9:00:00 AM 9.04 48.272 0.937 7.81 4.01 10.27
11/18/2022 9:15:00 AM 9.05 48.29 0.932 7.81 4.01 10.37
11/18/2022 9:30:00 AM 9.08 48.344 0.928 7.82 4.06 10.47
11/18/2022 9:45:00 AM 9.14 48.452 0.925 7.83 4.02 10.57
11/18/2022 10:00:00 AM 9.19 48.542 0.923 7.84 4.36 10.65
11/18/2022 10:15:00 AM 9.26 48.668 0.921 7.85 4.14 10.75
11/18/2022 10:30:00 AM 9.32 48.776 0.919 7.86 4.06 10.82
11/18/2022 10:45:00 AM 9.41 48.938 0.917 7.87 4.18 10.91
11/18/2022 11:00:00 AM 9.49 49.082 0.914 7.87 4.27 10.99
11/18/2022 11:15:00 AM 9.59 49.262 0.91 7.88 3.97 11.05
11/18/2022 11:30:00 AM 9.68 49.424 0.906 7.89 3.83 11.11
11/18/2022 11:45:00 AM 9.77 49.586 0.901 7.9 4.04 11.17
11/18/2022 12:00:00 PM 9.85 49.73 0.898 7.9 3.9 11.23
11/18/2022 12:15:00 PM 9.95 49.91 0.896 7.91 3.9 11.32
11/18/2022 12:30:00 PM 10.09 50.162 0.898 7.93 3.68 11.42
11/18/2022 12:45:00 PM 10.16 50.288 0.901 7.93 3.91 11.41
11/18/2022 1:00:00 PM 10.26 50.468 0.908 7.93 3.93 11.43
11/18/2022 1:15:00 PM 10.36 50.648 0.917 7.94 3.82 11.46
11/18/2022 1:30:00 PM 10.45 50.81 0.929 7.94 3.64 11.43
11/18/2022 1:45:00 PM 10.5 50.9 0.942 7.94 3.49 11.44
11/18/2022 2:00:00 PM 10.51 50.918 0.955 7.94 3.48 11.34
11/18/2022 2:15:00 PM 10.58 51.044 0.967 7.94 3.83 11.37
11/18/2022 2:30:00 PM 10.64 51.152 0.978 7.94 3.44 11.35
11/18/2022 2:45:00 PM 10.69 51.242 0.987 7.94 3.34 11.33
11/18/2022 3:00:00 PM 10.71 51.278 0.993 7.94 3.64 11.21
11/18/2022 3:15:00 PM 10.72 51.296 0.997 7.94 3.43 11.16
11/18/2022 3:30:00 PM 10.73 51.314 1 7.94 3.57 11.11
11/18/2022 3:45:00 PM 10.75 51.35 1.001 7.93 3.4 11.03
11/18/2022 4:00:00 PM 10.75 51.35 1.002 7.93 3.33 10.95
11/18/2022 4:15:00 PM 10.75 51.35 1.003 7.93 3.46 10.88
11/18/2022 4:30:00 PM 10.74 51.332 1.004 7.92 3.39 10.81
11/18/2022 4:45:00 PM 10.76 51.368 1.005 7.92 3.54 10.73
11/18/2022 5:00:00 PM 10.78 51.404 1.006 7.92 3.48 10.66
11/18/2022 5:15:00 PM 10.78 51.404 1.008 7.91 3.96 10.58
11/18/2022 5:30:00 PM 10.77 51.386 1.008 7.91 4.09 10.52
11/18/2022 5:45:00 PM 10.76 51.368 1.009 7.9 4.15 10.45
11/18/2022 6:00:00 PM 10.77 51.386 1.009 7.9 4.04 10.39
11/18/2022 6:15:00 PM 10.78 51.404 1.009 7.89 4.14 10.33
11/18/2022 6:30:00 PM 10.77 51.386 1.008 7.89 4.35 10.27
11/18/2022 6:45:00 PM 10.75 51.35 1.007 7.88 4.68 10.22
11/18/2022 7:00:00 PM 10.72 51.296 1.006 7.88 4.43 10.18
11/18/2022 7:15:00 PM 10.68 51.224 1.005 7.87 4.62 10.14
11/18/2022 7:30:00 PM 10.64 51.152 1.003 7.87 4.55 10.09
11/18/2022 7:45:00 PM 10.59 51.062 1.003 7.86 4.65 10.04
11/18/2022 8:00:00 PM 10.53 50.954 1.002 7.86 4.3 9.99
11/18/2022 8:15:00 PM 10.48 50.864 1.001 7.85 4.43 9.95
11/18/2022 8:30:00 PM 10.42 50.756 1 7.85 4.47 9.91
11/18/2022 8:45:00 PM 10.37 50.666 1 7.84 5.18 9.88
11/18/2022 9:00:00 PM 10.31 50.558 0.999 7.83 5.02 9.84
11/18/2022 9:15:00 PM 10.27 50.486 1 7.83 4.71 9.8
11/18/2022 9:30:00 PM 10.23 50.414 0.999 7.82 4.64 9.76
11/18/2022 9:45:00 PM 10.19 50.342 1 7.82 4.64 9.73
11/18/2022 10:00:00 PM 10.14 50.252 1 7.81 4.52 9.69
11/18/2022 10:15:00 PM 10.08 50.144 1 7.81 4.51 9.66
11/18/2022 10:30:00 PM 10.04 50.072 1.001 7.8 4.47 9.64
11/18/2022 10:45:00 PM 10 50 1.002 7.8 4.51 9.64
11/18/2022 11:00:00 PM 9.95 49.91 1.004 7.8 4.68 9.63
11/18/2022 11:15:00 PM 9.9 49.82 1.007 7.79 4.75 9.63
11/18/2022 11:30:00 PM 9.86 49.748 1.011 7.79 4.58 9.62
11/18/2022 11:45:00 PM 9.82 49.676 1.016 7.79 4.42 9.61
11/19/2022 12:00:00 AM 9.78 49.604 1.02 7.78 4.39 9.6
11/19/2022 12:15:00 AM 9.74 49.532 1.025 7.78 4.38 9.6
11/19/2022 12:30:00 AM 9.69 49.442 1.029 7.78 4.54 9.6
11/19/2022 12:45:00 AM 9.64 49.352 1.034 7.78 4.7 9.6
11/19/2022 1:00:00 AM 9.6 49.28 1.038 7.78 4.1 9.61
11/19/2022 1:15:00 AM 9.55 49.19 1.043 7.78 4.66 9.63
11/19/2022 1:30:00 AM 9.5 49.1 1.047 7.78 4.45 9.64
11/19/2022 1:45:00 AM 9.45 49.01 1.05 7.77 4.72 9.65
11/19/2022 2:00:00 AM 9.4 48.92 1.052 7.77 4.57 9.65
11/19/2022 2:15:00 AM 9.36 48.848 1.053 7.77 4.48 9.66
11/19/2022 2:30:00 AM 9.31 48.758 1.054 7.77 4.35 9.67
11/19/2022 2:45:00 AM 9.26 48.668 1.053 7.77 4.41 9.67
11/19/2022 3:00:00 AM 9.23 48.614 1.053 7.77 4.45 9.69
11/19/2022 3:15:00 AM 9.18 48.524 1.052 7.77 4.48 9.7
11/19/2022 3:30:00 AM 9.13 48.434 1.051 7.77 4.6 9.72
11/19/2022 3:45:00 AM 9.08 48.344 1.05 7.77 4.65 9.73
11/19/2022 4:00:00 AM 9.03 48.254 1.049 7.77 4.48 9.75
11/19/2022 4:15:00 AM 8.98 48.164 1.047 7.77 4.5 9.77
11/19/2022 4:30:00 AM 8.92 48.056 1.045 7.77 4.72 9.78
11/19/2022 4:45:00 AM 8.86 47.948 1.042 7.77 5.36 9.78
11/19/2022 5:00:00 AM 8.8 47.84 1.039 7.77 5.19 9.8
11/19/2022 5:15:00 AM 8.73 47.714 1.036 7.77 4.92 9.81
11/19/2022 5:30:00 AM 8.68 47.624 1.033 7.77 4.62 9.85
11/19/2022 5:45:00 AM 8.62 47.516 1.03 7.77 4.14 9.88
11/19/2022 6:00:00 AM 8.56 47.408 1.027 7.77 4.35 9.9
11/19/2022 6:15:00 AM 8.5 47.3 1.023 7.77 4.35 9.91
11/19/2022 6:30:00 AM 8.44 47.192 1.019 7.78 4.19 9.93
11/19/2022 6:45:00 AM 8.38 47.084 1.014 7.78 5.05 9.94
11/19/2022 7:00:00 AM 8.33 46.994 1.01 7.78 4.26 9.97
11/19/2022 7:15:00 AM 8.27 46.886 1.005 7.78 4 10.01
11/19/2022 7:30:00 AM 8.23 46.814 0.999 7.78 4.19 10.06
11/19/2022 7:45:00 AM 8.19 46.742 0.993 7.79 4.12 10.13
11/19/2022 8:00:00 AM 8.15 46.67 0.987 7.79 4.02 10.21
11/19/2022 8:15:00 AM 8.13 46.634 0.981 7.8 4.13 10.3
11/19/2022 8:30:00 AM 8.13 46.634 0.974 7.81 4.11 10.39
11/19/2022 8:45:00 AM 8.13 46.634 0.968 7.82 4.07 10.49
11/19/2022 9:00:00 AM 8.13 46.634 0.962 7.82 4.19 10.58
11/19/2022 9:15:00 AM 8.14 46.652 0.958 7.83 4.13 10.69
11/19/2022 9:30:00 AM 8.17 46.706 0.954 7.84 3.99 10.78
11/19/2022 9:45:00 AM 8.22 46.796 0.95 7.85 3.9 10.89
11/19/2022 10:00:00 AM 8.27 46.886 0.948 7.86 4.01 10.98
11/19/2022 10:15:00 AM 8.33 46.994 0.947 7.87 3.82 11.05
11/19/2022 10:30:00 AM 8.4 47.12 0.946 7.88 3.92 11.12
11/19/2022 10:45:00 AM 8.48 47.264 0.945 7.89 4.05 11.18
11/19/2022 11:00:00 AM 8.59 47.462 0.944 7.89 4.08 11.26
11/19/2022 11:15:00 AM 8.64 47.552 0.943 7.9 3.62 11.28
11/19/2022 11:30:00 AM 8.67 47.606 0.941 7.9 3.91 11.28
11/19/2022 11:45:00 AM 8.75 47.75 0.938 7.91 3.72 11.35
11/19/2022 12:00:00 PM 8.83 47.894 0.935 7.91 5.85 11.4
11/19/2022 12:15:00 PM 8.94 48.092 0.932 7.92 4.01 11.45
11/19/2022 12:30:00 PM 8.98 48.164 0.93 7.92 3.89 11.44
11/19/2022 12:45:00 PM 9.07 48.326 0.929 7.93 3.87 11.49
11/19/2022 1:00:00 PM 9.13 48.434 0.93 7.94 3.95 11.51
11/19/2022 1:15:00 PM 9.22 48.596 0.934 7.94 3.94 11.58
11/19/2022 1:30:00 PM 9.33 48.794 0.941 7.95 3.93 11.62
11/19/2022 1:45:00 PM 9.4 48.92 0.951 7.95 3.69 11.63
11/19/2022 2:00:00 PM 9.48 49.064 0.965 7.95 3.74 11.61
11/19/2022 2:15:00 PM 9.55 49.19 0.982 7.95 3.92 11.59
11/19/2022 2:30:00 PM 9.63 49.334 0.999 7.96 3.41 11.57
11/19/2022 2:45:00 PM 9.69 49.442 1.016 7.96 3.73 11.54
11/19/2022 3:00:00 PM 9.75 49.55 1.033 7.95 3.92 11.47
11/19/2022 3:15:00 PM 9.79 49.622 1.05 7.95 3.61 11.38
11/19/2022 3:30:00 PM 9.83 49.694 1.064 7.94 3.57 11.29
11/19/2022 3:45:00 PM 9.86 49.748 1.077 7.94 3.62 11.2
11/19/2022 4:00:00 PM 9.88 49.784 1.087 7.94 3.62 11.12
11/19/2022 4:15:00 PM 9.91 49.838 1.095 7.93 3.39 11.04
11/19/2022 4:30:00 PM 9.93 49.874 1.101 7.93 3.21 10.95
11/19/2022 4:45:00 PM 9.95 49.91 1.107 7.92 3.34 10.85
11/19/2022 5:00:00 PM 9.97 49.946 1.11 7.92 3.43 10.76
11/19/2022 5:15:00 PM 9.98 49.964 1.111 7.91 3.59 10.69
11/19/2022 5:30:00 PM 9.98 49.964 1.111 7.91 3.79 10.62
11/19/2022 5:45:00 PM 9.97 49.946 1.109 7.91 3.8 10.58
11/19/2022 6:00:00 PM 9.95 49.91 1.107 7.9 4.14 10.52
11/19/2022 6:15:00 PM 9.94 49.892 1.105 7.9 4.03 10.47
11/19/2022 6:30:00 PM 9.92 49.856 1.102 7.9 3.63 10.43
11/19/2022 6:45:00 PM 9.9 49.82 1.1 7.89 3.9 10.38
11/19/2022 7:00:00 PM 9.87 49.766 1.098 7.89 3.81 10.33
11/19/2022 7:15:00 PM 9.84 49.712 1.096 7.89 4.02 10.3
11/19/2022 7:30:00 PM 9.8 49.64 1.093 7.88 3.87 10.27
11/19/2022 7:45:00 PM 9.76 49.568 1.092 7.88 4.17 10.22
11/19/2022 8:00:00 PM 9.71 49.478 1.09 7.87 4.21 10.2
11/19/2022 8:15:00 PM 9.66 49.388 1.089 7.87 4.29 10.14
11/19/2022 8:30:00 PM 9.61 49.298 1.088 7.86 4.02 10.08
11/19/2022 8:45:00 PM 9.55 49.19 1.087 7.86 5.06 10.04
11/19/2022 9:00:00 PM 9.5 49.1 1.086 7.85 4.2 10
11/19/2022 9:15:00 PM 9.45 49.01 1.085 7.85 4.04 9.96
11/19/2022 9:30:00 PM 9.39 48.902 1.084 7.84 4.09 9.93
11/19/2022 9:45:00 PM 9.34 48.812 1.084 7.84 3.98 9.91
11/19/2022 10:00:00 PM 9.29 48.722 1.085 7.83 4.09 9.89
11/19/2022 10:15:00 PM 9.24 48.632 1.087 7.83 3.91 9.86
11/19/2022 10:30:00 PM 9.19 48.542 1.088 7.82 4 9.82
11/19/2022 10:45:00 PM 9.14 48.452 1.089 7.82 4.25 9.8
11/19/2022 11:00:00 PM 9.09 48.362 1.09 7.81 4.25 9.77
11/19/2022 11:15:00 PM 9.04 48.272 1.091 7.81 4.27 9.75
11/19/2022 11:30:00 PM 9 48.2 1.091 7.81 4.15 9.75
11/19/2022 11:45:00 PM 8.95 48.11 1.091 7.8 4.26 9.75
11/20/2022 12:00:00 AM 8.91 48.038 1.091 7.8 4.4 9.74
11/20/2022 12:15:00 AM 8.87 47.966 1.091 7.8 4.29 9.75
11/20/2022 12:30:00 AM 8.84 47.912 1.092 7.8 4.32 9.75
11/20/2022 12:45:00 AM 8.79 47.822 1.092 7.79 4.5 9.74
11/20/2022 1:00:00 AM 8.75 47.75 1.093 7.79 4.54 9.78
11/20/2022 1:15:00 AM 8.71 47.678 1.094 7.79 4.92 9.78
11/20/2022 1:30:00 AM 8.67 47.606 1.094 7.79 4.77 9.78
11/20/2022 1:45:00 AM 8.64 47.552 1.093 7.79 4.53 9.79
11/20/2022 2:00:00 AM 8.6 47.48 1.093 7.79 4.59 9.8
11/20/2022 2:15:00 AM 8.57 47.426 1.091 7.79 4.52 9.81
11/20/2022 2:30:00 AM 8.53 47.354 1.089 7.79 4.85 9.81
11/20/2022 2:45:00 AM 8.51 47.318 1.086 7.79 4.49 9.83
11/20/2022 3:00:00 AM 8.49 47.282 1.083 7.79 4.21 9.84
11/20/2022 3:15:00 AM 8.45 47.21 1.081 7.79 4.42 9.85
11/20/2022 3:30:00 AM 8.42 47.156 1.078 7.79 4.14 9.87
11/20/2022 3:45:00 AM 8.37 47.066 1.076 7.79 4.4 9.89
11/20/2022 4:00:00 AM 8.34 47.012 1.073 7.79 4.16 9.9
11/20/2022 4:15:00 AM 8.31 46.958 1.07 7.79 4.12 9.91
11/20/2022 4:30:00 AM 8.27 46.886 1.067 7.79 4.21 9.92
11/20/2022 4:45:00 AM 8.23 46.814 1.063 7.79 4.2 9.92
11/20/2022 5:00:00 AM 8.18 46.724 1.059 7.79 3.95 9.93
11/20/2022 5:15:00 AM 8.15 46.67 1.054 7.79 4.03 9.94
11/20/2022 5:30:00 AM 8.08 46.544 1.05 7.79 4.18 9.95
11/20/2022 5:45:00 AM 8.02 46.436 1.045 7.79 4.2 9.97
11/20/2022 6:00:00 AM 7.97 46.346 1.04 7.79 4.2 10
11/20/2022 6:15:00 AM 7.93 46.274 1.036 7.79 4.46 10.03
11/20/2022 6:30:00 AM 7.88 46.184 1.031 7.79 4.43 10.05
11/20/2022 6:45:00 AM 7.84 46.112 1.026 7.79 4.45 10.07
11/20/2022 7:00:00 AM 7.78 46.004 1.021 7.79 4.29 10.09
11/20/2022 7:15:00 AM 7.74 45.932 1.014 7.79 4.18 10.13
11/20/2022 7:30:00 AM 7.69 45.842 1.008 7.8 4.04 10.17
11/20/2022 7:45:00 AM 7.65 45.77 1.001 7.8 4.07 10.24
11/20/2022 8:00:00 AM 7.6 45.68 0.995 7.81 4.01 10.29
11/20/2022 8:15:00 AM 7.58 45.644 0.988 7.81 4.08 10.37
11/20/2022 8:30:00 AM 7.56 45.608 0.981 7.82 4.08 10.45
11/20/2022 8:45:00 AM 7.53 45.554 0.973 7.83 4.3 10.55
11/20/2022 9:00:00 AM 7.52 45.536 0.966 7.83 4.54 10.66
11/20/2022 9:15:00 AM 7.5 45.5 0.96 7.84 4.69 10.76
11/20/2022 9:30:00 AM 7.49 45.482 0.955 7.85 4.14 10.89
11/20/2022 9:45:00 AM 7.52 45.536 0.95 7.86 4.11 11.01
11/20/2022 10:00:00 AM 7.55 45.59 0.947 7.87 4.48 11.11
11/20/2022 10:15:00 AM 7.58 45.644 0.944 7.88 4.15 11.22
11/20/2022 10:30:00 AM 7.62 45.716 0.942 7.89 4.01 11.33
11/20/2022 10:45:00 AM 7.69 45.842 0.94 7.9 4.05 11.42
11/20/2022 11:00:00 AM 7.72 45.896 0.938 7.91 4.08 11.46
11/20/2022 11:15:00 AM 7.72 45.896 0.935 7.91 3.89 11.46
11/20/2022 11:30:00 AM 7.8 46.04 0.932 7.92 3.85 11.56
11/20/2022 11:45:00 AM 7.88 46.184 0.928 7.93 3.66 11.65
11/20/2022 12:00:00 PM 7.96 46.328 0.924 7.94 3.76 11.73
11/20/2022 12:15:00 PM 8.02 46.436 0.92 7.95 3.75 11.79
11/20/2022 12:30:00 PM 8.03 46.454 0.917 7.95 3.91 11.8
11/20/2022 12:45:00 PM 8.07 46.526 0.915 7.96 3.97 11.86
11/20/2022 1:00:00 PM 8.14 46.652 0.914 7.97 4.25 11.93
11/20/2022 1:15:00 PM 8.19 46.742 0.914 7.97 4 11.97
11/20/2022 1:30:00 PM 8.22 46.796 0.916 7.98 3.99 11.99
11/20/2022 1:45:00 PM 8.25 46.85 0.921 7.98 3.87 12.01
11/20/2022 2:00:00 PM 8.25 46.85 0.929 7.98 4.25 12.01
11/20/2022 2:15:00 PM 8.26 46.868 0.94 7.98 3.97 12
11/20/2022 2:30:00 PM 8.28 46.904 0.953 7.98 3.9 11.99
11/20/2022 2:45:00 PM 8.28 46.904 0.967 7.98 3.96 11.97
11/20/2022 3:00:00 PM 8.27 46.886 0.982 7.98 3.91 11.9
11/20/2022 3:15:00 PM 8.27 46.886 0.999 7.97 3.99 11.82
11/20/2022 3:30:00 PM 8.26 46.868 1.015 7.97 3.88 11.74
11/20/2022 3:45:00 PM 8.27 46.886 1.03 7.97 3.67 11.67
11/20/2022 4:00:00 PM 8.29 46.922 1.044 7.96 3.88 11.58
11/20/2022 4:15:00 PM 8.29 46.922 1.056 7.96 3.54 11.51
11/20/2022 4:30:00 PM 8.29 46.922 1.066 7.95 3.5 11.43
11/20/2022 4:45:00 PM 8.3 46.94 1.074 7.94 3.49 11.34
11/20/2022 5:00:00 PM 8.31 46.958 1.08 7.94 3.28 11.26
11/20/2022 5:15:00 PM 8.33 46.994 1.084 7.93 3.69 11.18
11/20/2022 5:30:00 PM 8.34 47.012 1.085 7.93 3.72 11.12
11/20/2022 5:45:00 PM 8.36 47.048 1.086 7.92 3.72 11.07
11/20/2022 6:00:00 PM 8.36 47.048 1.085 7.92 3.8 11.03
11/20/2022 6:15:00 PM 8.36 47.048 1.084 7.92 3.76 10.98
11/20/2022 6:30:00 PM 8.35 47.03 1.081 7.91 3.82 10.94
11/20/2022 6:45:00 PM 8.33 46.994 1.078 7.91 4.11 10.91
11/20/2022 7:00:00 PM 8.31 46.958 1.076 7.91 3.75 10.88
11/20/2022 7:15:00 PM 8.29 46.922 1.074 7.9 4.07 10.84
11/20/2022 7:30:00 PM 8.26 46.868 1.073 7.9 4.39 10.8
11/20/2022 7:45:00 PM 8.23 46.814 1.072 7.9 4.44 10.76
11/20/2022 8:00:00 PM 8.19 46.742 1.072 7.89 4.32 10.72
11/20/2022 8:15:00 PM 8.16 46.688 1.072 7.89 4.07 10.67
11/20/2022 8:30:00 PM 8.12 46.616 1.072 7.88 4.08 10.63
11/20/2022 8:45:00 PM 8.08 46.544 1.073 7.88 4.17 10.59
11/20/2022 9:00:00 PM 8.04 46.472 1.073 7.87 4.19 10.55
11/20/2022 9:15:00 PM 7.99 46.382 1.073 7.86 4.72 10.52
11/20/2022 9:30:00 PM 7.95 46.31 1.072 7.86 4.05 10.47
11/20/2022 9:45:00 PM 7.9 46.22 1.072 7.85 4.01 10.48
11/20/2022 10:00:00 PM 7.87 46.166 1.071 7.85 3.88 10.46
11/20/2022 10:15:00 PM 7.83 46.094 1.07 7.84 3.79 10.43
11/20/2022 10:30:00 PM 7.8 46.04 1.069 7.84 4.23 10.41
11/20/2022 10:45:00 PM 7.76 45.968 1.069 7.83 4.01 10.39
11/20/2022 11:00:00 PM 7.72 45.896 1.069 7.83 3.92 10.37
11/20/2022 11:15:00 PM 7.69 45.842 1.07 7.83 3.85 10.34
11/20/2022 11:30:00 PM 7.66 45.788 1.072 7.82 3.96 10.32
11/20/2022 11:45:00 PM 7.63 45.734 1.074 7.82 3.93 10.29
11/21/2022 12:00:00 AM 7.6 45.68 1.076 7.82 4 10.29
11/21/2022 12:15:00 AM 7.57 45.626 1.079 7.81 3.88 10.28
11/21/2022 12:30:00 AM 7.54 45.572 1.082 7.81 4.33 10.27
11/21/2022 12:45:00 AM 7.52 45.536 1.085 7.81 4.14 10.27
11/21/2022 1:00:00 AM 7.5 45.5 1.088 7.81 3.86 10.26
11/21/2022 1:15:00 AM 7.48 45.464 1.09 7.8 4.33 10.27
11/21/2022 1:30:00 AM 7.45 45.41 1.093 7.8 3.94 10.27
11/21/2022 1:45:00 AM 7.43 45.374 1.095 7.8 3.87 10.28
11/21/2022 2:00:00 AM 7.4 45.32 1.097 7.8 3.83 10.28
11/21/2022 2:15:00 AM 7.37 45.266 1.099 7.8 3.95 10.29
11/21/2022 2:30:00 AM 7.35 45.23 1.101 7.8 3.9 10.29
11/21/2022 2:45:00 AM 7.32 45.176 1.103 7.8 3.81 10.3
11/21/2022 3:00:00 AM 7.29 45.122 1.104 7.8 3.98 10.31
11/21/2022 3:15:00 AM 7.25 45.05 1.105 7.8 4.07 10.32
11/21/2022 3:30:00 AM 7.22 44.996 1.105 7.8 3.85 10.29
11/21/2022 3:45:00 AM 7.19 44.942 1.105 7.79 3.75 10.3
11/21/2022 4:00:00 AM 7.16 44.888 1.104 7.79 3.63 10.3
11/21/2022 4:15:00 AM 7.13 44.834 1.104 7.79 3.78 10.3
11/21/2022 4:30:00 AM 7.09 44.762 1.102 7.79 3.74 10.3
11/21/2022 4:45:00 AM 7.05 44.69 1.099 7.79 3.8 10.31
11/21/2022 5:00:00 AM 7.01 44.618 1.095 7.8 3.58 10.33
11/21/2022 5:15:00 AM 6.97 44.546 1.09 7.8 3.62 10.35
11/21/2022 5:30:00 AM 6.93 44.474 1.085 7.8 3.77 10.37
11/21/2022 5:45:00 AM 6.89 44.402 1.079 7.8 3.74 10.37
11/21/2022 6:00:00 AM 6.85 44.33 1.073 7.8 4.67 10.4
11/21/2022 6:15:00 AM 6.81 44.258 1.067 7.8 3.66 10.41
11/21/2022 6:30:00 AM 6.77 44.186 1.061 7.8 4.35 10.43
11/21/2022 6:45:00 AM 6.73 44.114 1.055 7.8 5.1 10.44
11/21/2022 7:00:00 AM 6.69 44.042 1.047 7.8 3.76 10.48
11/21/2022 7:15:00 AM 6.66 43.988 1.039 7.8 4 10.51
11/21/2022 7:30:00 AM 6.63 43.934 1.031 7.81 3.92 10.55
11/21/2022 7:45:00 AM 6.61 43.898 1.023 7.81 3.8 10.63
11/21/2022 8:00:00 AM 6.59 43.862 1.015 7.82 3.81 10.7
11/21/2022 8:15:00 AM 6.59 43.862 1.006 7.82 3.87 10.76
11/21/2022 8:30:00 AM 6.59 43.862 0.997 7.83 3.87 10.84
11/21/2022 8:45:00 AM 6.6 43.88 0.989 7.83 3.58 10.92
11/21/2022 9:00:00 AM 6.62 43.916 0.981 7.84 3.78 11.01
11/21/2022 9:15:00 AM 6.65 43.97 0.974 7.85 3.85 11.09
11/21/2022 9:30:00 AM 6.69 44.042 0.967 7.86 3.95 11.18
11/21/2022 9:45:00 AM 6.76 44.168 0.961 7.87 3.7 11.27
11/21/2022 10:00:00 AM 6.83 44.294 0.956 7.87 4.08 11.38
11/21/2022 10:15:00 AM 6.92 44.456 0.953 7.88 3.59 11.46
11/21/2022 10:30:00 AM 7.01 44.618 0.95 7.89 4.02 11.53
11/21/2022 10:45:00 AM 7.11 44.798 0.949 7.9 3.8 11.59
11/21/2022 11:00:00 AM 7.24 45.032 0.948 7.91 3.47 11.67
11/21/2022 11:15:00 AM 7.37 45.266 0.947 7.91 3.4 11.75
11/21/2022 11:30:00 AM 7.5 45.5 0.946 7.92 3.54 11.82
11/21/2022 11:45:00 AM 7.63 45.734 0.945 7.93 3.43 11.87
11/21/2022 12:00:00 PM 7.76 45.968 0.943 7.94 3.62 11.9
11/21/2022 12:15:00 PM 7.89 46.202 0.941 7.94 3.46 11.93
11/21/2022 12:30:00 PM 8.01 46.418 0.941 7.95 3.52 11.96
11/21/2022 12:45:00 PM 8.13 46.634 0.941 7.95 3.55 12
11/21/2022 1:00:00 PM 8.24 46.832 0.944 7.96 3.77 12.04
11/21/2022 1:15:00 PM 8.35 47.03 0.949 7.96 3.51 12.04
11/21/2022 1:30:00 PM 8.46 47.228 0.957 7.96 3.44 12.02
11/21/2022 1:45:00 PM 8.57 47.426 0.967 7.97 3.51 12
11/21/2022 2:00:00 PM 8.67 47.606 0.98 7.97 3.7 12.01
11/21/2022 2:15:00 PM 8.77 47.786 0.995 7.97 3.53 11.99
11/21/2022 2:30:00 PM 8.85 47.93 1.009 7.97 3.46 11.95
11/21/2022 2:45:00 PM 8.91 48.038 1.022 7.97 3.51 11.87
11/21/2022 3:00:00 PM 8.96 48.128 1.033 7.96 3.45 11.77
11/21/2022 3:15:00 PM 9 48.2 1.042 7.96 3.7 11.68
11/21/2022 3:30:00 PM 9.03 48.254 1.048 7.95 3.24 11.6
11/21/2022 3:45:00 PM 9.07 48.326 1.053 7.95 3.41 11.49
11/21/2022 4:00:00 PM 9.09 48.362 1.056 7.95 3.34 11.42
11/21/2022 4:15:00 PM 9.1 48.38 1.06 7.94 3.2 11.34
11/21/2022 4:30:00 PM 9.12 48.416 1.064 7.94 3.8 11.26
11/21/2022 4:45:00 PM 9.13 48.434 1.068 7.93 3.48 11.18
11/21/2022 5:00:00 PM 9.16 48.488 1.073 7.93 3.59 11.09
11/21/2022 5:15:00 PM 9.18 48.524 1.077 7.92 3.79 11.01
11/21/2022 5:30:00 PM 9.19 48.542 1.082 7.92 3.74 10.94
11/21/2022 5:45:00 PM 9.2 48.56 1.086 7.91 3.7 10.88
11/21/2022 6:00:00 PM 9.21 48.578 1.089 7.91 3.87 10.81
11/21/2022 6:15:00 PM 9.22 48.596 1.091 7.9 3.88 10.76
11/21/2022 6:30:00 PM 9.23 48.614 1.093 7.9 3.91 10.7
11/21/2022 6:45:00 PM 9.23 48.614 1.093 7.9 4.14 10.64
11/21/2022 7:00:00 PM 9.22 48.596 1.092 7.89 3.86 10.6
11/21/2022 7:15:00 PM 9.22 48.596 1.091 7.89 4.26 10.56
11/21/2022 7:30:00 PM 9.2 48.56 1.088 7.88 4 10.51
11/21/2022 7:45:00 PM 9.17 48.506 1.084 7.88 4.19 10.47
11/21/2022 8:00:00 PM 9.14 48.452 1.079 7.88 4.13 10.42
11/21/2022 8:15:00 PM 9.1 48.38 1.073 7.87 4.37 10.39
11/21/2022 8:30:00 PM 9.06 48.308 1.068 7.87 4.08 10.35
11/21/2022 8:45:00 PM 9.01 48.218 1.062 7.86 4.09 10.3
11/21/2022 9:00:00 PM 8.96 48.128 1.058 7.86 4.31 10.26
11/21/2022 9:15:00 PM 8.91 48.038 1.055 7.85 4.27 10.23
11/21/2022 9:30:00 PM 8.86 47.948 1.053 7.85 4.31 10.19
11/21/2022 9:45:00 PM 8.81 47.858 1.051 7.84 4.52 10.17
11/21/2022 10:00:00 PM 8.77 47.786 1.049 7.84 4.26 10.14
11/21/2022 10:15:00 PM 8.72 47.696 1.048 7.83 4.26 10.12
11/21/2022 10:30:00 PM 8.67 47.606 1.046 7.83 4.27 10.09
11/21/2022 10:45:00 PM 8.62 47.516 1.044 7.83 4.34 10.06
11/21/2022 11:00:00 PM 8.57 47.426 1.042 7.82 4.24 10.04
11/21/2022 11:15:00 PM 8.53 47.354 1.04 7.82 4.34 10.01
11/21/2022 11:30:00 PM 8.48 47.264 1.04 7.81 4.06 9.99
11/21/2022 11:45:00 PM 8.45 47.21 1.04 7.81 4.1 9.97
11/22/2022 12:00:00 AM 8.41 47.138 1.042 7.81 4.22 9.97
11/22/2022 12:15:00 AM 8.38 47.084 1.044 7.8 4.42 9.96
11/22/2022 12:30:00 AM 8.35 47.03 1.047 7.8 4.08 9.95
11/22/2022 12:45:00 AM 8.32 46.976 1.051 7.8 4.37 9.95
11/22/2022 1:00:00 AM 8.29 46.922 1.055 7.8 4.39 9.96
11/22/2022 1:15:00 AM 8.26 46.868 1.059 7.8 4.19 9.97
11/22/2022 1:30:00 AM 8.23 46.814 1.064 7.79 4.26 9.97
11/22/2022 1:45:00 AM 8.2 46.76 1.069 7.79 4.72 9.97
11/22/2022 2:00:00 AM 8.18 46.724 1.075 7.79 4.75 9.97
11/22/2022 2:15:00 AM 8.15 46.67 1.08 7.79 4.6 9.98
11/22/2022 2:30:00 AM 8.12 46.616 1.085 7.79 4.37 9.99
11/22/2022 2:45:00 AM 8.09 46.562 1.089 7.79 4.23 9.99
11/22/2022 3:00:00 AM 8.06 46.508 1.092 7.79 4.29 9.98
11/22/2022 3:15:00 AM 8.02 46.436 1.095 7.79 4.1 9.98
11/22/2022 3:30:00 AM 7.98 46.364 1.097 7.79 4.01 9.98
11/22/2022 3:45:00 AM 7.95 46.31 1.098 7.79 4.22 9.98
11/22/2022 4:00:00 AM 7.92 46.256 1.1 7.79 4.14 9.99
11/22/2022 4:15:00 AM 7.88 46.184 1.1 7.79 3.88 10
11/22/2022 4:30:00 AM 7.85 46.13 1.101 7.79 4.12 10.01
11/22/2022 4:45:00 AM 7.8 46.04 1.101 7.79 3.84 10.02
11/22/2022 5:00:00 AM 7.76 45.968 1.1 7.79 3.65 10.04
11/22/2022 5:15:00 AM 7.72 45.896 1.098 7.79 4.14 10.05
11/22/2022 5:30:00 AM 7.67 45.806 1.096 7.79 3.88 10.08
11/22/2022 5:45:00 AM 7.63 45.734 1.091 7.79 3.97 10.09
11/22/2022 6:00:00 AM 7.59 45.662 1.087 7.79 4.27 10.12
11/22/2022 6:15:00 AM 7.55 45.59 1.081 7.79 3.99 10.14
11/22/2022 6:30:00 AM 7.51 45.518 1.075 7.79 3.91 10.15
11/22/2022 6:45:00 AM 7.47 45.446 1.069 7.79 3.94 10.18
11/22/2022 7:00:00 AM 7.42 45.356 1.062 7.79 3.93 10.19
11/22/2022 7:15:00 AM 7.37 45.266 1.056 7.79 4.2 10.21
11/22/2022 7:30:00 AM 7.35 45.23 1.048 7.8 3.92 10.28
11/22/2022 7:45:00 AM 7.32 45.176 1.04 7.8 3.82 10.34
11/22/2022 8:00:00 AM 7.3 45.14 1.031 7.81 3.8 10.42
11/22/2022 8:15:00 AM 7.29 45.122 1.022 7.81 3.89 10.5
11/22/2022 8:30:00 AM 7.28 45.104 1.012 7.82 3.59 10.57
11/22/2022 8:45:00 AM 7.28 45.104 1.003 7.82 4.06 10.66
11/22/2022 9:15:00 AM 7.33 45.194 0.986 7.84 3.83 10.88
11/22/2022 9:30:00 AM 7.38 45.284 0.98 7.85 3.95 10.97
11/22/2022 9:45:00 AM 7.46 45.428 0.974 7.86 4.44 11.08
11/22/2022 10:00:00 AM 7.54 45.572 0.969 7.86 4.27 11.18
11/22/2022 10:15:00 AM 7.64 45.752 0.966 7.87 4.09 11.26
11/22/2022 10:30:00 AM 7.74 45.932 0.965 7.88 4.28 11.36
11/22/2022 10:45:00 AM 7.86 46.148 0.964 7.89 4.14 11.44
11/22/2022 11:00:00 AM 8 46.4 0.964 7.9 4.03 11.49
11/22/2022 11:15:00 AM 8.15 46.67 0.962 7.91 4.5 11.54
11/22/2022 11:30:00 AM 8.3 46.94 0.96 7.92 4.08 11.65
11/22/2022 11:45:00 AM 8.44 47.192 0.957 7.92 3.97 11.71
11/22/2022 12:00:00 PM 8.58 47.444 0.953 7.93 3.87 11.73
11/22/2022 12:15:00 PM 8.72 47.696 0.949 7.94 3.65 11.78
11/22/2022 12:30:00 PM 8.86 47.948 0.946 7.94 3.8 11.85
11/22/2022 12:45:00 PM 8.99 48.182 0.945 7.95 3.63 11.86
11/22/2022 1:00:00 PM 9.11 48.398 0.948 7.96 3.77 11.88
11/22/2022 1:15:00 PM 9.22 48.596 0.953 7.96 3.68 11.9
11/22/2022 1:30:00 PM 9.35 48.83 0.962 7.96 3.72 11.91
11/22/2022 1:45:00 PM 9.47 49.046 0.973 7.97 3.65 11.88
11/22/2022 2:00:00 PM 9.59 49.262 0.987 7.97 3.64 11.88
11/22/2022 2:15:00 PM 9.7 49.46 1.001 7.97 3.44 11.87
11/22/2022 2:30:00 PM 9.79 49.622 1.017 7.97 3.58 11.79
11/22/2022 2:45:00 PM 9.86 49.748 1.031 7.97 3.56 11.7
11/22/2022 3:00:00 PM 9.93 49.874 1.045 7.96 3.79 11.63
11/22/2022 3:15:00 PM 10 50 1.059 7.96 3.75 11.54
11/22/2022 3:30:00 PM 10.06 50.108 1.07 7.95 3.84 11.45
11/22/2022 3:45:00 PM 10.13 50.234 1.079 7.95 4.17 11.32
11/22/2022 4:00:00 PM 10.17 50.306 1.087 7.94 3.87 11.22
11/22/2022 4:15:00 PM 10.2 50.36 1.094 7.94 3.58 11.13
11/22/2022 4:30:00 PM 10.21 50.378 1.101 7.94 3.66 11.02
11/22/2022 4:45:00 PM 10.23 50.414 1.108 7.93 3.51 10.9
11/22/2022 5:00:00 PM 10.25 50.45 1.116 7.92 3.56 10.81
11/22/2022 5:15:00 PM 10.27 50.486 1.122 7.92 3.81 10.73
11/22/2022 5:30:00 PM 10.28 50.504 1.127 7.91 3.95 10.65
11/22/2022 5:45:00 PM 10.29 50.522 1.131 7.91 4.02 10.57
11/22/2022 6:00:00 PM 10.3 50.54 1.134 7.91 3.97 10.51
11/22/2022 6:15:00 PM 10.31 50.558 1.136 7.9 3.88 10.47
11/22/2022 6:30:00 PM 10.3 50.54 1.136 7.9 4.2 10.41
11/22/2022 6:45:00 PM 10.29 50.522 1.134 7.9 4.04 10.35
11/22/2022 7:00:00 PM 10.28 50.504 1.13 7.89 3.9 10.31
11/22/2022 7:15:00 PM 10.26 50.468 1.124 7.89 4.1 10.26
11/22/2022 7:30:00 PM 10.22 50.396 1.117 7.89 4.12 10.19
11/22/2022 7:45:00 PM 10.18 50.324 1.109 7.88 4.23 10.15
11/22/2022 8:00:00 PM 10.14 50.252 1.102 7.88 4.16 10.11
11/22/2022 8:15:00 PM 10.09 50.162 1.096 7.87 4.08 10.08
11/22/2022 8:30:00 PM 10.04 50.072 1.09 7.87 4.14 10.03
11/22/2022 8:45:00 PM 9.99 49.982 1.085 7.86 4.24 10.01
11/22/2022 9:00:00 PM 9.94 49.892 1.08 7.86 4.16 9.98
11/22/2022 9:15:00 PM 9.88 49.784 1.077 7.86 4.39 9.96
11/22/2022 9:30:00 PM 9.82 49.676 1.074 7.85 4.4 9.91
11/22/2022 9:45:00 PM 9.76 49.568 1.072 7.84 4.46 9.86
11/22/2022 10:00:00 PM 9.7 49.46 1.072 7.84 4.14 9.83
11/22/2022 10:15:00 PM 9.65 49.37 1.074 7.83 4.17 9.81
11/22/2022 10:30:00 PM 9.59 49.262 1.078 7.83 4.18 9.78
11/22/2022 10:45:00 PM 9.53 49.154 1.083 7.82 4.25 9.75
11/22/2022 11:00:00 PM 9.48 49.064 1.09 7.82 4.21 9.75
11/22/2022 11:15:00 PM 9.42 48.956 1.098 7.82 4.09 9.72
11/22/2022 11:30:00 PM 9.37 48.866 1.107 7.81 4.19 9.7
11/22/2022 11:45:00 PM 9.32 48.776 1.117 7.81 4.62 9.67
11/23/2022 12:00:00 AM 9.27 48.686 1.124 7.8 4.43 9.67
11/23/2022 12:15:00 AM 9.22 48.596 1.128 7.8 4.32 9.66
11/23/2022 12:30:00 AM 9.17 48.506 1.13 7.8 4.22 9.67
11/23/2022 12:45:00 AM 9.12 48.416 1.13 7.8 4.18 9.66
11/23/2022 1:00:00 AM 9.08 48.344 1.128 7.8 4.1 9.68
11/23/2022 1:15:00 AM 9.03 48.254 1.126 7.79 4.06 9.67
11/23/2022 1:30:00 AM 8.98 48.164 1.125 7.79 4.24 9.69
11/23/2022 1:45:00 AM 8.94 48.092 1.125 7.79 4.37 9.69
11/23/2022 2:00:00 AM 8.91 48.038 1.125 7.79 4.87 9.67
11/23/2022 2:15:00 AM 8.87 47.966 1.125 7.79 4.53 9.7
11/23/2022 2:30:00 AM 8.82 47.876 1.126 7.79 4.28 9.68
11/23/2022 2:45:00 AM 8.78 47.804 1.125 7.79 4.38 9.7
11/23/2022 3:00:00 AM 8.73 47.714 1.125 7.79 4.27 9.71
11/23/2022 3:15:00 AM 8.68 47.624 1.125 7.79 4.17 9.72
11/23/2022 3:30:00 AM 8.63 47.534 1.124 7.79 4.07 9.75
11/23/2022 3:45:00 AM 8.58 47.444 1.123 7.79 4.3 9.77
11/23/2022 4:00:00 AM 8.53 47.354 1.122 7.79 4.36 9.78
11/23/2022 4:15:00 AM 8.47 47.246 1.12 7.79 4.39 9.78
11/23/2022 4:30:00 AM 8.42 47.156 1.118 7.79 4.26 9.81
11/23/2022 4:45:00 AM 8.37 47.066 1.116 7.79 4.24 9.82
11/23/2022 5:00:00 AM 8.33 46.994 1.114 7.79 4.01 9.83
11/23/2022 5:15:00 AM 8.28 46.904 1.111 7.79 4.01 9.82
11/23/2022 5:30:00 AM 8.23 46.814 1.107 7.79 4.29 9.85
11/23/2022 5:45:00 AM 8.18 46.724 1.103 7.79 4.17 9.87
11/23/2022 6:00:00 AM 8.13 46.634 1.098 7.79 4 9.89
11/23/2022 6:15:00 AM 8.08 46.544 1.093 7.79 4.2 9.89
11/23/2022 6:30:00 AM 8.04 46.472 1.087 7.79 4.49 9.93
11/23/2022 6:45:00 AM 7.99 46.382 1.08 7.79 4.31 9.94
11/23/2022 7:00:00 AM 7.95 46.31 1.074 7.79 4.16 9.96
11/23/2022 7:15:00 AM 7.9 46.22 1.066 7.79 4.19 9.99
11/23/2022 7:30:00 AM 7.87 46.166 1.059 7.8 4.05 10.05
11/23/2022 7:45:00 AM 7.84 46.112 1.05 7.8 3.96 10.11
11/23/2022 8:00:00 AM 7.81 46.058 1.04 7.8 3.98 10.2
11/23/2022 8:15:00 AM 7.78 46.004 1.031 7.81 3.95 10.28
11/23/2022 8:30:00 AM 7.77 45.986 1.021 7.81 4.27 10.36
11/23/2022 8:45:00 AM 7.77 45.986 1.011 7.82 4.39 10.46
11/23/2022 9:00:00 AM 7.79 46.022 1.002 7.83 4.34 10.56
11/23/2022 9:15:00 AM 7.81 46.058 0.994 7.83 4.61 10.66
11/23/2022 9:30:00 AM 7.84 46.112 0.987 7.84 4.73 10.77
11/23/2022 9:45:00 AM 7.91 46.238 0.982 7.85 4.7 10.88
11/23/2022 10:00:00 AM 7.99 46.382 0.978 7.86 4.52 10.98
11/23/2022 10:15:00 AM 8.08 46.544 0.977 7.87 4.22 11.09
11/23/2022 10:30:00 AM 8.19 46.742 0.976 7.88 4.08 11.19
11/23/2022 10:45:00 AM 8.31 46.958 0.975 7.89 4.02 11.27
11/23/2022 11:00:00 AM 8.44 47.192 0.974 7.89 3.89 11.33
11/23/2022 11:15:00 AM 8.6 47.48 0.972 7.9 4.05 11.42
11/23/2022 11:30:00 AM 8.74 47.732 0.969 7.91 3.91 11.52
11/23/2022 11:45:00 AM 8.89 48.002 0.966 7.92 3.69 11.56
11/23/2022 12:00:00 PM 9.03 48.254 0.963 7.93 3.63 11.61
11/23/2022 12:15:00 PM 9.17 48.506 0.959 7.94 3.76 11.68
11/23/2022 12:30:00 PM 9.3 48.74 0.956 7.95 3.54 11.74
11/23/2022 12:45:00 PM 9.44 48.992 0.955 7.95 3.58 11.76
11/23/2022 1:00:00 PM 9.56 49.208 0.956 7.96 3.56 11.79
11/23/2022 1:15:00 PM 9.68 49.424 0.959 7.96 3.59 11.83
11/23/2022 1:30:00 PM 9.8 49.64 0.965 7.97 3.57 11.82
11/23/2022 1:45:00 PM 9.92 49.856 0.974 7.97 3.75 11.83
11/23/2022 2:00:00 PM 10.04 50.072 0.985 7.97 3.66 11.83
11/23/2022 2:15:00 PM 10.15 50.27 0.997 7.97 3.7 11.78
11/23/2022 2:30:00 PM 10.24 50.432 1.01 7.97 3.33 11.72
11/23/2022 2:45:00 PM 10.32 50.576 1.022 7.97 3.53 11.67
11/23/2022 3:00:00 PM 10.38 50.684 1.034 7.97 3.5 11.59
11/23/2022 3:15:00 PM 10.44 50.792 1.045 7.96 3.38 11.47
11/23/2022 3:30:00 PM 10.51 50.918 1.055 7.96 3.3 11.34
11/23/2022 3:45:00 PM 10.58 51.044 1.064 7.95 3.44 11.24
11/23/2022 4:00:00 PM 10.63 51.134 1.073 7.95 3.33 11.15
11/23/2022 4:15:00 PM 10.67 51.206 1.08 7.94 3.53 11.04
11/23/2022 4:30:00 PM 10.7 51.26 1.087 7.93 3.36 10.94
11/23/2022 4:45:00 PM 10.72 51.296 1.093 7.93 3.49 10.83
11/23/2022 5:00:00 PM 10.74 51.332 1.099 7.92 3.24 10.71
11/23/2022 5:15:00 PM 10.76 51.368 1.106 7.92 3.52 10.6
11/23/2022 5:30:00 PM 10.78 51.404 1.113 7.91 3.78 10.52
11/23/2022 5:45:00 PM 10.79 51.422 1.119 7.91 3.86 10.45
11/23/2022 6:00:00 PM 10.8 51.44 1.125 7.9 4.05 10.37
11/23/2022 6:15:00 PM 10.8 51.44 1.13 7.9 4.16 10.31
11/23/2022 6:30:00 PM 10.8 51.44 1.134 7.89 4.1 10.25
11/23/2022 6:45:00 PM 10.79 51.422 1.136 7.89 4.3 10.18
11/23/2022 7:00:00 PM 10.78 51.404 1.138 7.88 4.09 10.12
11/23/2022 7:15:00 PM 10.77 51.386 1.139 7.88 4.09 10.08
11/23/2022 7:30:00 PM 10.75 51.35 1.138 7.88 4.08 10.03
11/23/2022 7:45:00 PM 10.72 51.296 1.135 7.87 4.14 9.99
11/23/2022 8:00:00 PM 10.68 51.224 1.132 7.87 4.11 9.95
11/23/2022 8:15:00 PM 10.63 51.134 1.13 7.87 4.12 9.92
11/23/2022 8:30:00 PM 10.58 51.044 1.129 7.86 4.11 9.89
11/23/2022 8:45:00 PM 10.52 50.936 1.131 7.86 4.21 9.85
11/23/2022 9:00:00 PM 10.47 50.846 1.133 7.85 4.25 9.8
11/23/2022 9:15:00 PM 10.4 50.72 1.136 7.85 4.14 9.75
11/23/2022 9:30:00 PM 10.34 50.612 1.136 7.84 4.16 9.71
11/23/2022 9:45:00 PM 10.28 50.504 1.134 7.84 4.12 9.69
11/23/2022 10:00:00 PM 10.22 50.396 1.131 7.83 4.04 9.68
11/23/2022 10:15:00 PM 10.15 50.27 1.128 7.83 4.1 9.65
11/23/2022 10:30:00 PM 10.1 50.18 1.125 7.82 4.1 9.61
11/23/2022 10:45:00 PM 10.04 50.072 1.123 7.82 4.32 9.59
11/23/2022 11:00:00 PM 9.98 49.964 1.121 7.81 4.13 9.56
11/23/2022 11:15:00 PM 9.92 49.856 1.121 7.81 4.4 9.55
11/23/2022 11:30:00 PM 9.86 49.748 1.121 7.81 4.15 9.53
11/23/2022 11:45:00 PM 9.81 49.658 1.122 7.8 4.08 9.53
11/24/2022 12:00:00 AM 9.76 49.568 1.124 7.8 4.2 9.53
11/24/2022 12:15:00 AM 9.71 49.478 1.126 7.8 4.24 9.51
11/24/2022 12:30:00 AM 9.65 49.37 1.129 7.8 4.21 9.5
11/24/2022 12:45:00 AM 9.6 49.28 1.132 7.79 4.57 9.48
11/24/2022 1:00:00 AM 9.55 49.19 1.136 7.79 4.72 9.49
11/24/2022 1:15:00 AM 9.51 49.118 1.14 7.79 4.91 9.49
11/24/2022 1:30:00 AM 9.46 49.028 1.144 7.79 4.49 9.51
11/24/2022 1:45:00 AM 9.41 48.938 1.148 7.79 4.29 9.51
11/24/2022 2:00:00 AM 9.36 48.848 1.152 7.78 4.49 9.52
11/24/2022 2:15:00 AM 9.31 48.758 1.155 7.78 4.65 9.53
11/24/2022 2:30:00 AM 9.26 48.668 1.158 7.78 4.33 9.52
11/24/2022 2:45:00 AM 9.21 48.578 1.16 7.78 4.41 9.53
11/24/2022 3:00:00 AM 9.17 48.506 1.162 7.78 4.45 9.54
11/24/2022 3:15:00 AM 9.12 48.416 1.163 7.78 4.45 9.53
11/24/2022 3:30:00 AM 9.07 48.326 1.164 7.78 4.61 9.57
11/24/2022 3:45:00 AM 9.02 48.236 1.164 7.78 4.46 9.58
11/24/2022 4:00:00 AM 8.97 48.146 1.163 7.78 4.64 9.6
11/24/2022 4:15:00 AM 8.92 48.056 1.162 7.78 5.08 9.63
11/24/2022 4:30:00 AM 8.87 47.966 1.159 7.78 5.18 9.63
11/24/2022 4:45:00 AM 8.82 47.876 1.156 7.78 5.18 9.64
11/24/2022 5:00:00 AM 8.77 47.786 1.153 7.78 4.99 9.65
11/24/2022 5:15:00 AM 8.72 47.696 1.149 7.78 5.12 9.65
11/24/2022 5:30:00 AM 8.66 47.588 1.146 7.78 4.74 9.68
11/24/2022 5:45:00 AM 8.61 47.498 1.142 7.78 4.45 9.7
11/24/2022 6:00:00 AM 8.56 47.408 1.138 7.78 4.67 9.73
11/24/2022 6:15:00 AM 8.52 47.336 1.133 7.78 4.46 9.74
11/24/2022 6:30:00 AM 8.47 47.246 1.128 7.78 4.38 9.76
11/24/2022 6:45:00 AM 8.41 47.138 1.123 7.78 4.83 9.78
11/24/2022 7:00:00 AM 8.36 47.048 1.117 7.78 4.59 9.79
11/24/2022 7:15:00 AM 8.32 46.976 1.11 7.78 5.63 9.82
11/24/2022 7:30:00 AM 8.28 46.904 1.102 7.78 3.95 9.86
11/24/2022 7:45:00 AM 8.24 46.832 1.093 7.79 4.02 9.95
11/24/2022 8:00:00 AM 8.21 46.778 1.084 7.79 3.93 10.03
11/24/2022 8:15:00 AM 8.19 46.742 1.074 7.8 3.89 10.11
11/24/2022 8:30:00 AM 8.18 46.724 1.065 7.8 3.77 10.21
11/24/2022 8:45:00 AM 8.18 46.724 1.056 7.81 4.06 10.32
11/24/2022 9:00:00 AM 8.19 46.742 1.046 7.82 3.76 10.45
11/24/2022 9:15:00 AM 8.22 46.796 1.037 7.83 3.67 10.55
11/24/2022 9:30:00 AM 8.26 46.868 1.029 7.84 3.72 10.67
11/24/2022 9:45:00 AM 8.32 46.976 1.022 7.85 3.53 10.8
11/24/2022 10:00:00 AM 8.4 47.12 1.015 7.86 3.68 10.92
11/24/2022 10:15:00 AM 8.49 47.282 1.01 7.87 3.66 11.02
11/24/2022 10:30:00 AM 8.58 47.444 1.005 7.88 3.92 11.15
11/24/2022 10:45:00 AM 8.68 47.624 1.002 7.89 3.81 11.24
11/24/2022 11:00:00 AM 8.79 47.822 0.999 7.9 3.6 11.33
11/24/2022 11:15:00 AM 8.91 48.038 0.995 7.91 3.57 11.42
11/24/2022 11:30:00 AM 9.04 48.272 0.992 7.92 3.57 11.53
11/24/2022 11:45:00 AM 9.18 48.524 0.989 7.93 3.63 11.62
11/24/2022 12:00:00 PM 9.32 48.776 0.985 7.94 3.65 11.66
11/24/2022 12:15:00 PM 9.45 49.01 0.98 7.95 3.59 11.73
11/24/2022 12:30:00 PM 9.57 49.226 0.974 7.95 3.49 11.8
11/24/2022 12:45:00 PM 9.68 49.424 0.97 7.96 3.39 11.82
11/24/2022 1:00:00 PM 9.77 49.586 0.967 7.97 3.72 11.84
11/24/2022 1:15:00 PM 9.85 49.73 0.966 7.97 3.71 11.86
11/24/2022 1:30:00 PM 9.95 49.91 0.968 7.98 3.54 11.89
11/24/2022 1:45:00 PM 10.06 50.108 0.973 7.98 3.85 11.92
11/24/2022 2:00:00 PM 10.18 50.324 0.981 7.99 3.55 11.94
11/24/2022 2:15:00 PM 10.28 50.504 0.99 7.99 3.94 11.98
11/24/2022 2:30:00 PM 10.33 50.594 1 7.99 3.47 11.9
11/24/2022 2:45:00 PM 10.42 50.756 1.012 7.99 4.82 11.86
11/24/2022 3:00:00 PM 10.53 50.954 1.025 7.99 3.5 11.85
11/24/2022 3:15:00 PM 10.61 51.098 1.04 7.99 3.27 11.76
11/24/2022 3:30:00 PM 10.7 51.26 1.055 7.98 3.5 11.63
11/24/2022 3:45:00 PM 10.77 51.386 1.07 7.98 3.41 11.49
11/24/2022 4:00:00 PM 10.83 51.494 1.084 7.97 3.36 11.38
11/24/2022 4:15:00 PM 10.9 51.62 1.095 7.96 3.55 11.27
11/24/2022 4:30:00 PM 10.95 51.71 1.106 7.96 3.45 11.15
11/24/2022 4:45:00 PM 11 51.8 1.115 7.95 3.31 11.02
11/24/2022 5:00:00 PM 11.03 51.854 1.123 7.94 3.4 10.9
11/24/2022 5:15:00 PM 11.06 51.908 1.129 7.94 3.47 10.79
11/24/2022 5:30:00 PM 11.08 51.944 1.135 7.93 3.78 10.69
11/24/2022 5:45:00 PM 11.09 51.962 1.139 7.93 3.81 10.6
11/24/2022 6:00:00 PM 11.09 51.962 1.142 7.92 3.83 10.51
11/24/2022 6:15:00 PM 11.09 51.962 1.145 7.92 4.14 10.42
11/24/2022 6:30:00 PM 11.08 51.944 1.147 7.91 3.86 10.34
11/24/2022 6:45:00 PM 11.07 51.926 1.149 7.91 3.76 10.25
11/24/2022 7:00:00 PM 11.05 51.89 1.151 7.9 3.84 10.18
11/24/2022 7:15:00 PM 11.03 51.854 1.152 7.89 4.34 10.11
11/24/2022 7:30:00 PM 11 51.8 1.153 7.89 3.84 10.05
11/24/2022 7:45:00 PM 10.98 51.764 1.151 7.89 3.97 10
11/24/2022 8:00:00 PM 10.94 51.692 1.149 7.88 4.02 9.95
11/24/2022 8:15:00 PM 10.89 51.602 1.145 7.88 4.11 9.91
11/24/2022 8:30:00 PM 10.84 51.512 1.141 7.87 3.99 9.86
11/24/2022 8:45:00 PM 10.79 51.422 1.135 7.87 4.14 9.84
11/24/2022 9:00:00 PM 10.74 51.332 1.129 7.86 3.99 9.79
11/24/2022 9:15:00 PM 10.68 51.224 1.122 7.86 4.51 9.74
11/24/2022 9:30:00 PM 10.62 51.116 1.114 7.86 4.04 9.7
11/24/2022 9:45:00 PM 10.55 50.99 1.107 7.85 4.13 9.65
11/24/2022 10:00:00 PM 10.48 50.864 1.1 7.85 3.98 9.63
11/24/2022 10:15:00 PM 10.42 50.756 1.094 7.84 4.03 9.6
11/24/2022 10:30:00 PM 10.36 50.648 1.088 7.84 4.25 9.57
11/24/2022 10:45:00 PM 10.29 50.522 1.082 7.83 4.12 9.52
11/24/2022 11:00:00 PM 10.23 50.414 1.076 7.83 4.13 9.47
11/24/2022 11:15:00 PM 10.16 50.288 1.071 7.82 3.93 9.46
11/24/2022 11:30:00 PM 10.11 50.198 1.066 7.82 3.99 9.44
11/24/2022 11:45:00 PM 10.06 50.108 1.061 7.81 4.03 9.45
11/25/2022 12:00:00 AM 10.02 50.036 1.057 7.81 4.09 9.43
11/25/2022 12:15:00 AM 9.97 49.946 1.056 7.81 3.91 9.42
11/25/2022 12:30:00 AM 9.93 49.874 1.056 7.8 3.87 9.42
11/25/2022 12:45:00 AM 9.9 49.82 1.058 7.8 4.09 9.4
11/25/2022 1:00:00 AM 9.86 49.748 1.06 7.8 4.16 9.39
11/25/2022 1:15:00 AM 9.83 49.694 1.062 7.79 4.15 9.39
11/25/2022 1:30:00 AM 9.79 49.622 1.063 7.79 3.96 9.39
11/25/2022 1:45:00 AM 9.76 49.568 1.063 7.79 3.97 9.4
11/25/2022 2:00:00 AM 9.73 49.514 1.062 7.79 3.91 9.39
11/25/2022 2:15:00 AM 9.71 49.478 1.06 7.79 4.32 9.39
11/25/2022 2:30:00 AM 9.7 49.46 1.059 7.79 3.91 9.41
11/25/2022 2:45:00 AM 9.68 49.424 1.058 7.78 4.03 9.4
11/25/2022 3:00:00 AM 9.67 49.406 1.057 7.78 3.76 9.42
11/25/2022 3:15:00 AM 9.66 49.388 1.056 7.78 3.85 9.42
11/25/2022 3:30:00 AM 9.65 49.37 1.056 7.78 3.87 9.42
11/25/2022 3:45:00 AM 9.64 49.352 1.055 7.78 3.74 9.42
11/25/2022 4:00:00 AM 9.63 49.334 1.054 7.78 3.95 9.43
11/25/2022 4:15:00 AM 9.62 49.316 1.054 7.78 3.76 9.42
11/25/2022 4:30:00 AM 9.62 49.316 1.053 7.78 4.08 9.45
11/25/2022 4:45:00 AM 9.62 49.316 1.052 7.78 3.76 9.44
11/25/2022 5:00:00 AM 9.62 49.316 1.051 7.78 3.85 9.44
11/25/2022 5:15:00 AM 9.63 49.334 1.049 7.78 3.97 9.44
11/25/2022 5:30:00 AM 9.63 49.334 1.047 7.78 4.04 9.45
11/25/2022 5:45:00 AM 9.64 49.352 1.045 7.78 4.31 9.46
11/25/2022 6:00:00 AM 9.65 49.37 1.044 7.78 3.88 9.46
11/25/2022 6:15:00 AM 9.65 49.37 1.042 7.78 4.07 9.47
11/25/2022 6:30:00 AM 9.66 49.388 1.041 7.78 3.86 9.47
11/25/2022 6:45:00 AM 9.67 49.406 1.04 7.78 4.05 9.46
11/25/2022 7:00:00 AM 9.68 49.424 1.038 7.78 4.09 9.46
11/25/2022 7:15:00 AM 9.7 49.46 1.036 7.78 3.93 9.46
11/25/2022 7:30:00 AM 9.71 49.478 1.033 7.78 4.35 9.46
11/25/2022 7:45:00 AM 9.73 49.514 1.029 7.79 3.79 9.49
11/25/2022 8:00:00 AM 9.75 49.55 1.024 7.79 3.91 9.5
11/25/2022 8:15:00 AM 9.77 49.586 1.019 7.79 4.45 9.54
11/25/2022 8:30:00 AM 9.79 49.622 1.013 7.79 4.17 9.55
11/25/2022 8:45:00 AM 9.81 49.658